Darstellungsparameter: Aktuell verwendete Einstellungen:
Skalierung der Graphiken ... ?
xyx+y,   Skalierungsfaktor:      Skalierung: Modus: x, Faktor: 1
Darstellungszeitraum ... ?
Vom - - bis: - -   Zeitraum: 16.02.2004 - 15.05.2004
Min/Max/Avg-Anzeige ... ?
Zeige MMA aktuell
Zeige MMA Monat
Zeige MMA alles
Zeige --A aktuell
Zeige --A Monat
Zeige --A alles
Keine MMA-Anzeige
MMA:
Average (ber die Originaldaten)
MMA-Basis: 16.02.2004 - 15.05.2004
Quicknavigation für Darstellung... ?
Tage:      1T, 2T, 3T, 5T -1T -2T -3T -5T +1T +2T +3T +5T
Wochen: 1W, 2W, 3W -1W -2W -3W +1W +2W +3W
Monate: 1M, 3M, 6M -1M -3M -6M +1M +3M +6M
Jahre:    1J, 3J, 5J, 10J -1J -3J -5J -10J +1J +3J +5J +10J
Nutze für die Darstellung ... ?
Originaldaten oder Mittelwerte auf ...
Stundenbasis Tagesbasis Wochenbasis
Monatsbasis Jahresbasis      Datenbasis: Original-Daten
Darstellen als:
Statistik (Auto) Statistik J:M      Darstellung:
Zur Graphik,    zurück zur Übersicht aller Sensoren.
 
Tabellarische Datenbersicht: ?
 
Sensor: Nr:Datum:Temp:Abs-Feuchte:Windchill:Wind:
Aussen-T/F 1 16-02-2004 00:03:00 5.7 C 5.48 g/m*3 5.7 C 0 km/h
2 16-02-2004 00:15:59 5.6 C 5.51 g/m*3 5.6 C 0 km/h
3 16-02-2004 00:27:59 5.5 C 5.48 g/m*3 5.5 C 0 km/h
4 16-02-2004 00:39:58 5.5 C 5.48 g/m*3 5.5 C 0 km/h
5 16-02-2004 00:51:01 5.5 C 5.55 g/m*3 5.5 C 0 km/h
6 16-02-2004 01:03:00 5.5 C 5.55 g/m*3 5.5 C 0 km/h
7 16-02-2004 01:15:00 5.5 C 5.55 g/m*3 5.5 C 0 km/h
8 16-02-2004 01:27:00 5.6 C 5.59 g/m*3 5.6 C 0 km/h
9 16-02-2004 01:39:00 5.4 C 5.44 g/m*3 5.4 C 0 km/h
10 16-02-2004 01:51:01 5.5 C 5.55 g/m*3 5.5 C 0 km/h
11 16-02-2004 02:03:01 5.2 C 5.37 g/m*3 5.2 C 0 km/h
12 16-02-2004 02:15:01 5.1 C 5.34 g/m*3 5.1 C 0 km/h
13 16-02-2004 02:27:01 4.9 C 5.33 g/m*3 4.9 C 0 km/h
14 16-02-2004 02:39:01 4.9 C 5.33 g/m*3 4.9 C 0 km/h
15 16-02-2004 02:52:03 4.9 C 5.4 g/m*3 4.9 C 0 km/h
16 16-02-2004 03:04:03 5 C 5.37 g/m*3 5 C 0 km/h
17 16-02-2004 03:16:03 5 C 5.37 g/m*3 5 C 0 km/h
18 16-02-2004 03:28:03 5.1 C 5.34 g/m*3 5.1 C 0 km/h
19 16-02-2004 03:40:00 4.9 C 5.27 g/m*3 4.9 C 0 km/h
20 16-02-2004 03:52:00 4.7 C 5.2 g/m*3 4.7 C 0 km/h
21 16-02-2004 04:04:00 4.7 C 5.2 g/m*3 4.7 C 0 km/h
22 16-02-2004 04:16:59 4.6 C 5.16 g/m*3 4.6 C 0 km/h
23 16-02-2004 04:28:59 4.5 C 5.06 g/m*3 4.5 C 0 km/h
24 16-02-2004 04:40:58 4.4 C 5.03 g/m*3 4.4 C 0 km/h
25 16-02-2004 04:52:01 4.3 C 4.99 g/m*3 4.3 C 0 km/h
Sensor: Nr:Datum:Temp:Abs-Feuchte:Windchill:Wind:
Aussen-T/F 26 16-02-2004 05:04:01 4.2 C 4.96 g/m*3 4.2 C 0 km/h
27 16-02-2004 05:16:00 4.2 C 4.96 g/m*3 4.2 C 0 km/h
28 16-02-2004 05:28:00 4.1 C 4.86 g/m*3 4.1 C 0 km/h
29 16-02-2004 05:40:00 3.9 C 4.86 g/m*3 3.9 C 0 km/h
30 16-02-2004 05:52:01 3.7 C 4.8 g/m*3 3.7 C 0 km/h
31 16-02-2004 06:04:01 3.6 C 4.77 g/m*3 3.6 C 0 km/h
32 16-02-2004 06:16:01 3.6 C 4.77 g/m*3 3.6 C 0 km/h
33 16-02-2004 06:28:01 3.4 C 4.7 g/m*3 3.4 C 0 km/h
34 16-02-2004 06:40:01 3.3 C 4.67 g/m*3 3.3 C 0 km/h
35 16-02-2004 06:52:01 3 C 4.58 g/m*3 3 C 0 km/h
36 16-02-2004 07:04:01 2.6 C 4.51 g/m*3 2.6 C 0 km/h
37 16-02-2004 07:16:01 2.3 C 4.48 g/m*3 2.3 C 0 km/h
38 16-02-2004 07:28:01 2 C 4.39 g/m*3 2 C 0 km/h
39 16-02-2004 07:40:01 1.7 C 4.41 g/m*3 1.7 C 0 km/h
40 16-02-2004 07:52:00 1.6 C 4.38 g/m*3 1.6 C 0 km/h
41 16-02-2004 08:04:00 1.6 C 4.38 g/m*3 1.6 C 0 km/h
42 16-02-2004 08:16:59 1.6 C 4.43 g/m*3 1.6 C 0 km/h
43 16-02-2004 08:28:59 1.5 C 4.35 g/m*3 1.5 C 0 km/h
44 16-02-2004 08:40:57 1.6 C 4.43 g/m*3 1.6 C 0 km/h
45 16-02-2004 08:52:01 1.6 C 4.43 g/m*3 1.6 C 0 km/h
46 16-02-2004 09:04:01 1.6 C 4.43 g/m*3 1.6 C 0 km/h
47 16-02-2004 09:16:01 1.7 C 4.46 g/m*3 1.7 C 0 km/h
48 16-02-2004 09:28:01 1.9 C 4.58 g/m*3 1.9 C 0 km/h
49 16-02-2004 09:40:01 2.5 C 4.77 g/m*3 2.5 C 0 km/h
50 16-02-2004 09:52:00 3 C 4.93 g/m*3 3 C 0 km/h
Sensor: Nr:Datum:Temp:Abs-Feuchte:Windchill:Wind:
Aussen-T/F 51 16-02-2004 10:03:59 3.3 C 4.79 g/m*3 3.3 C 0 km/h
52 16-02-2004 10:16:58 3.9 C 4.86 g/m*3 3.9 C 0 km/h
53 16-02-2004 10:28:58 4 C 4.77 g/m*3 4 C 0 km/h
54 16-02-2004 10:40:57 4.4 C 4.83 g/m*3 4.4 C 0 km/h
55 16-02-2004 10:52:01 5.1 C 4.86 g/m*3 5.1 C 0 km/h
56 16-02-2004 11:04:01 5.2 C 4.75 g/m*3 5.2 C 0 km/h
57 16-02-2004 11:16:01 5.2 C 4.75 g/m*3 5.2 C 0 km/h
58 16-02-2004 11:28:01 5.5 C 4.78 g/m*3 5.5 C 0 km/h
59 16-02-2004 11:40:01 6.2 C 4.78 g/m*3 6.2 C 0 km/h
60 16-02-2004 11:52:01 6.5 C 4.65 g/m*3 6.5 C 0 km/h
61 16-02-2004 12:04:01 6.7 C 4.79 g/m*3 6.7 C 0 km/h
62 16-02-2004 12:16:01 7 C 4.73 g/m*3 7 C 0 km/h
63 16-02-2004 12:28:01 7.4 C 4.77 g/m*3 7.4 C 0 km/h
64 16-02-2004 12:40:01 7.6 C 4.75 g/m*3 7.6 C 0 km/h
65 16-02-2004 12:52:00 7.9 C 4.76 g/m*3 7.9 C 0 km/h
66 16-02-2004 13:04:00 8.6 C 4.73 g/m*3 8.6 C 0 km/h
67 16-02-2004 13:16:58 9 C 4.76 g/m*3 9 C 0 km/h
68 16-02-2004 13:28:58 9.1 C 4.53 g/m*3 9.1 C 0 km/h
69 16-02-2004 13:40:57 9.5 C 4.64 g/m*3 9.5 C 0 km/h
70 16-02-2004 13:52:01 9.2 C 4.46 g/m*3 9.2 C 0 km/h
71 16-02-2004 14:04:01 10.1 C 4.63 g/m*3 10.1 C 0 km/h
72 16-02-2004 14:16:01 10.1 C 4.63 g/m*3 10.1 C 0 km/h
73 16-02-2004 14:28:01 10 C 4.6 g/m*3 10 C 0 km/h
74 16-02-2004 14:40:01 10.2 C 4.57 g/m*3 10.2 C 0 km/h
75 16-02-2004 14:52:00 10.3 C 4.6 g/m*3 10.3 C 0 km/h
Sensor: Nr:Datum:Temp:Abs-Feuchte:Windchill:Wind:
Aussen-T/F 76 16-02-2004 15:04:59 10.2 C 4.57 g/m*3 10.2 C 0 km/h
77 16-02-2004 15:16:58 9.8 C 4.45 g/m*3 9.8 C 0 km/h
78 16-02-2004 15:28:58 9.3 C 4.4 g/m*3 9.3 C 0 km/h
79 16-02-2004 15:40:57 9.5 C 4.46 g/m*3 9.5 C 0 km/h
80 16-02-2004 15:52:01 8.7 C 4.32 g/m*3 8.7 C 0 km/h
81 16-02-2004 16:04:01 8.4 C 4.24 g/m*3 8.4 C 0 km/h
82 16-02-2004 16:16:01 8.3 C 4.38 g/m*3 8.3 C 0 km/h
83 16-02-2004 16:28:01 8 C 4.3 g/m*3 8 C 0 km/h
84 16-02-2004 16:40:00 8.3 C 4.38 g/m*3 8.3 C 0 km/h
85 16-02-2004 16:52:01 8.6 C 4.47 g/m*3 8.6 C 0 km/h
86 16-02-2004 17:04:01 8.1 C 4.41 g/m*3 8.1 C 0 km/h
87 16-02-2004 17:16:01 6.4 C 4.17 g/m*3 6.4 C 0 km/h
88 16-02-2004 17:28:01 6.5 C 4.42 g/m*3 6.5 C 0 km/h
89 16-02-2004 17:40:01 6.2 C 4.41 g/m*3 6.2 C 0 km/h
90 16-02-2004 17:52:00 5.7 C 4.41 g/m*3 5.7 C 0 km/h
91 16-02-2004 18:04:00 5.1 C 4.38 g/m*3 5.1 C 0 km/h
92 16-02-2004 18:16:58 4.7 C 4.46 g/m*3 4.7 C 0 km/h
93 16-02-2004 18:28:58 4.5 C 4.54 g/m*3 4.5 C 0 km/h
94 16-02-2004 18:40:57 4.3 C 4.54 g/m*3 4.3 C 0 km/h
95 16-02-2004 18:52:01 4.3 C 4.61 g/m*3 4.3 C 0 km/h
96 16-02-2004 19:04:01 4.2 C 4.57 g/m*3 4.2 C 0 km/h
97 16-02-2004 19:16:01 4.1 C 4.54 g/m*3 4.1 C 0 km/h
98 16-02-2004 19:28:01 4 C 4.58 g/m*3 4 C 0 km/h
99 16-02-2004 19:40:01 4.1 C 4.67 g/m*3 4.1 C 0 km/h
100 16-02-2004 19:52:01 4.3 C 4.67 g/m*3 4.3 C 0 km/h
Sensor: Nr:Datum:Temp:Abs-Feuchte:Windchill:Wind:
Aussen-T/F 101 16-02-2004 20:04:01 4.7 C 4.8 g/m*3 4.7 C 0 km/h
102 16-02-2004 20:16:01 4.9 C 4.79 g/m*3 4.9 C 0 km/h
103 16-02-2004 20:28:01 5.1 C 4.72 g/m*3 5.1 C 0 km/h
104 16-02-2004 20:40:02 5.1 C 4.72 g/m*3 5.1 C 0 km/h
105 16-02-2004 20:52:01 5.2 C 4.75 g/m*3 5.2 C 0 km/h
106 16-02-2004 21:04:01 5.1 C 4.72 g/m*3 5.1 C 0 km/h
107 16-02-2004 21:16:01 5.2 C 4.75 g/m*3 5.2 C 0 km/h
108 16-02-2004 21:28:01 5.1 C 4.72 g/m*3 5.1 C 0 km/h
109 16-02-2004 21:40:58 5.2 C 4.75 g/m*3 5.2 C 0 km/h
110 16-02-2004 21:52:00 5.1 C 4.79 g/m*3 5.1 C 0 km/h
111 16-02-2004 22:04:00 5.2 C 4.82 g/m*3 5.2 C 0 km/h
112 16-02-2004 22:16:00 5.1 C 4.79 g/m*3 5.1 C 0 km/h
113 16-02-2004 22:28:00 5 C 4.76 g/m*3 5 C 0 km/h
114 16-02-2004 22:40:01 5 C 4.76 g/m*3 5 C 0 km/h
115 16-02-2004 22:52:00 5 C 4.76 g/m*3 5 C 0 km/h
116 16-02-2004 23:04:00 5 C 4.76 g/m*3 5 C 0 km/h
117 16-02-2004 23:16:59 5 C 4.76 g/m*3 5 C 0 km/h
118 16-02-2004 23:28:59 4.9 C 4.73 g/m*3 4.9 C 0 km/h
119 16-02-2004 23:40:57 4.7 C 4.66 g/m*3 4.7 C 0 km/h
120 16-02-2004 23:52:01 4.6 C 4.63 g/m*3 4.6 C 0 km/h
121 17-02-2004 00:04:01 4.5 C 4.6 g/m*3 4.5 C 0 km/h
122 17-02-2004 00:16:01 4.5 C 4.67 g/m*3 4.5 C 0 km/h
123 17-02-2004 00:28:01 4.4 C 4.64 g/m*3 4.4 C 0 km/h
124 17-02-2004 00:40:01 4.4 C 4.64 g/m*3 4.4 C 0 km/h
125 17-02-2004 00:52:00 4.3 C 4.61 g/m*3 4.3 C 0 km/h
Sensor: Nr:Datum:Temp:Abs-Feuchte:Windchill:Wind:
Aussen-T/F 126 17-02-2004 01:04:00 4.3 C 4.61 g/m*3 4.3 C 0 km/h
127 17-02-2004 01:16:58 4.3 C 4.61 g/m*3 4.3 C 0 km/h
128 17-02-2004 01:28:58 4.1 C 4.54 g/m*3 4.1 C 0 km/h
129 17-02-2004 01:40:57 4.1 C 4.54 g/m*3 4.1 C 0 km/h
130 17-02-2004 01:52:01 4.1 C 4.54 g/m*3 4.1 C 0 km/h
131 17-02-2004 02:04:01 4 C 4.51 g/m*3 4 C 0 km/h
132 17-02-2004 02:16:01 4 C 4.51 g/m*3 4 C 0 km/h
133 17-02-2004 02:28:01 3.9 C 4.55 g/m*3 3.9 C 0 km/h
134 17-02-2004 02:40:01 4 C 4.51 g/m*3 4 C 0 km/h
135 17-02-2004 02:53:02 4 C 4.51 g/m*3 4 C 0 km/h
136 17-02-2004 03:05:02 3.8 C 4.52 g/m*3 3.8 C 0 km/h
137 17-02-2004 03:17:02 3.8 C 4.52 g/m*3 3.8 C 0 km/h
138 17-02-2004 03:29:02 3.7 C 4.49 g/m*3 3.7 C 0 km/h
139 17-02-2004 03:41:00 3.6 C 4.46 g/m*3 3.6 C 0 km/h
140 17-02-2004 03:53:00 3.6 C 4.46 g/m*3 3.6 C 0 km/h
141 17-02-2004 04:05:00 3.6 C 4.46 g/m*3 3.6 C 0 km/h
142 17-02-2004 04:17:59 3.6 C 4.46 g/m*3 3.6 C 0 km/h
143 17-02-2004 04:29:59 3.6 C 4.39 g/m*3 3.6 C 0 km/h
144 17-02-2004 04:41:57 3.5 C 4.37 g/m*3 3.5 C 0 km/h
145 17-02-2004 04:53:01 3.5 C 4.43 g/m*3 3.5 C 0 km/h
146 17-02-2004 05:05:01 3.4 C 4.34 g/m*3 3.4 C 0 km/h
147 17-02-2004 05:17:01 3.4 C 4.34 g/m*3 3.4 C 0 km/h
148 17-02-2004 05:29:01 3.3 C 4.31 g/m*3 3.3 C 0 km/h
149 17-02-2004 05:41:01 3.3 C 4.31 g/m*3 3.3 C 0 km/h
150 17-02-2004 05:53:00 3.3 C 4.31 g/m*3 3.3 C 0 km/h
Sensor: Nr:Datum:Temp:Abs-Feuchte:Windchill:Wind:
Aussen-T/F 151 17-02-2004 06:05:59 3.3 C 4.31 g/m*3 3.3 C 0 km/h
152 17-02-2004 06:17:58 3.3 C 4.25 g/m*3 3.3 C 0 km/h
153 17-02-2004 06:29:58 3 C 4.22 g/m*3 3 C 0 km/h
154 17-02-2004 06:41:57 2.9 C 4.25 g/m*3 2.9 C 0 km/h
155 17-02-2004 06:53:01 2.9 C 4.19 g/m*3 2.9 C 0 km/h
156 17-02-2004 07:05:01 2.8 C 4.16 g/m*3 2.8 C 0 km/h
157 17-02-2004 07:17:01 2.9 C 4.19 g/m*3 2.9 C 0 km/h
158 17-02-2004 07:29:01 2.8 C 4.16 g/m*3 2.8 C 0 km/h
159 17-02-2004 07:41:01 2.5 C 4.14 g/m*3 2.5 C 0 km/h
160 17-02-2004 07:53:01 2.5 C 4.14 g/m*3 2.5 C 0 km/h
161 17-02-2004 08:05:01 2.5 C 4.14 g/m*3 2.5 C 0 km/h
162 17-02-2004 08:17:01 2.5 C 4.14 g/m*3 2.5 C 0 km/h
163 17-02-2004 08:29:01 2.6 C 4.17 g/m*3 2.6 C 0 km/h
164 17-02-2004 08:41:01 2.4 C 4.11 g/m*3 2.4 C 0 km/h
165 17-02-2004 08:53:00 2.3 C 4.03 g/m*3 2.3 C 0 km/h
166 17-02-2004 09:05:00 2.4 C 4.05 g/m*3 2.4 C 0 km/h
167 17-02-2004 09:17:58 2.5 C 4.08 g/m*3 2.5 C 0 km/h
168 17-02-2004 09:29:58 2.5 C 4.08 g/m*3 2.5 C 0 km/h
169 17-02-2004 09:41:57 2.5 C 4.08 g/m*3 2.5 C 0 km/h
170 17-02-2004 09:53:01 2.6 C 4.11 g/m*3 2.6 C 0 km/h
171 17-02-2004 10:05:01 3 C 4.22 g/m*3 3 C 0 km/h
172 17-02-2004 10:17:01 2.8 C 4.16 g/m*3 2.8 C 0 km/h
173 17-02-2004 10:29:01 2.8 C 4.16 g/m*3 2.8 C 0 km/h
174 17-02-2004 10:41:01 3.2 C 4.22 g/m*3 3.2 C 0 km/h
175 17-02-2004 10:53:00 3.2 C 4.16 g/m*3 3.2 C 0 km/h
Sensor: Nr:Datum:Temp:Abs-Feuchte:Windchill:Wind:
Aussen-T/F 176 17-02-2004 11:05:45 3.1 C 4.07 g/m*3 3.1 C 0 km/h
177 17-02-2004 11:17:58 3 C 4.1 g/m*3 3 C 0 km/h
178 17-02-2004 11:29:58 3.2 C 4.1 g/m*3 3.2 C 0 km/h
179 17-02-2004 11:41:57 2.8 C 4.05 g/m*3 2.8 C 0 km/h
180 17-02-2004 11:53:01 2.9 C 4.07 g/m*3 2.9 C 0 km/h
181 17-02-2004 12:05:01 3 C 3.98 g/m*3 3 C 0 km/h
182 17-02-2004 12:17:01 3.1 C 4.01 g/m*3 3.1 C 0 km/h
183 17-02-2004 12:29:01 3.2 C 3.98 g/m*3 3.2 C 0 km/h
184 17-02-2004 12:41:00 3.2 C 3.98 g/m*3 3.2 C 0 km/h
185 17-02-2004 12:53:01 3.2 C 4.04 g/m*3 3.2 C 0 km/h
186 17-02-2004 13:05:01 3.2 C 4.04 g/m*3 3.2 C 0 km/h
187 17-02-2004 13:17:01 2.9 C 4.02 g/m*3 2.9 C 0 km/h
188 17-02-2004 13:29:01 3.1 C 4.07 g/m*3 3.1 C 0 km/h
189 17-02-2004 13:41:01 3.3 C 3.94 g/m*3 3.3 C 0 km/h
190 17-02-2004 13:53:00 3.2 C 3.92 g/m*3 3.2 C 0 km/h
191 17-02-2004 14:05:00 3.2 C 3.86 g/m*3 3.2 C 0 km/h
192 17-02-2004 14:17:58 3.2 C 3.86 g/m*3 3.2 C 0 km/h
193 17-02-2004 14:29:58 3.2 C 3.86 g/m*3 3.2 C 0 km/h
194 17-02-2004 14:41:57 3.2 C 3.86 g/m*3 3.2 C 0 km/h
195 17-02-2004 14:53:01 3.3 C 3.82 g/m*3 3.3 C 0 km/h
196 17-02-2004 15:05:01 3.5 C 3.87 g/m*3 3.5 C 0 km/h
197 17-02-2004 15:17:01 3.5 C 3.87 g/m*3 3.5 C 0 km/h
198 17-02-2004 15:29:01 3.5 C 3.94 g/m*3 3.5 C 0 km/h
199 17-02-2004 15:41:01 3.6 C 3.9 g/m*3 3.6 C 0 km/h
200 17-02-2004 15:53:00 3.6 C 3.9 g/m*3 3.6 C 0 km/h
Sensor: Nr:Datum:Temp:Abs-Feuchte:Windchill:Wind:
Aussen-T/F 201 17-02-2004 16:05:59 3.6 C 3.9 g/m*3 3.6 C 0 km/h
202 17-02-2004 16:17:58 3.6 C 3.9 g/m*3 3.6 C 0 km/h
203 17-02-2004 16:29:58 3.4 C 3.85 g/m*3 3.4 C 0 km/h
204 17-02-2004 16:41:57 3.4 C 3.91 g/m*3 3.4 C 0 km/h
205 17-02-2004 16:53:01 3.5 C 3.94 g/m*3 3.5 C 0 km/h
206 17-02-2004 17:05:01 3.6 C 4.02 g/m*3 3.6 C 0 km/h
207 17-02-2004 17:17:01 3.6 C 3.96 g/m*3 3.6 C 0 km/h
208 17-02-2004 17:29:01 3.5 C 4 g/m*3 3.5 C 0 km/h
209 17-02-2004 17:41:02 3.5 C 4 g/m*3 3.5 C 0 km/h
210 17-02-2004 17:53:04 3.4 C 3.97 g/m*3 3.4 C 0 km/h
211 17-02-2004 18:05:07 3.4 C 4.03 g/m*3 3.4 C 0 km/h
212 17-02-2004 18:17:07 3.4 C 4.03 g/m*3 3.4 C 0 km/h
213 17-02-2004 18:29:07 3.4 C 4.03 g/m*3 3.4 C 0 km/h
214 17-02-2004 18:41:14 3.5 C 4.06 g/m*3 3.5 C 0 km/h
215 17-02-2004 18:53:01 3.4 C 4.03 g/m*3 3.4 C 0 km/h
216 17-02-2004 19:05:01 3.4 C 4.03 g/m*3 3.4 C 0 km/h
217 17-02-2004 19:17:00 3.3 C 4 g/m*3 3.3 C 0 km/h
218 17-02-2004 19:29:00 3.3 C 4.06 g/m*3 3.3 C 0 km/h
219 17-02-2004 19:41:00 3.2 C 4.04 g/m*3 3.2 C 0 km/h
220 17-02-2004 19:53:01 3.3 C 4.06 g/m*3 3.3 C 0 km/h
221 17-02-2004 20:05:01 3.3 C 4.13 g/m*3 3.3 C 0 km/h
222 17-02-2004 20:17:01 3.3 C 4.13 g/m*3 3.3 C 0 km/h
223 17-02-2004 20:29:01 3.3 C 4.13 g/m*3 3.3 C 0 km/h
224 17-02-2004 20:41:01 3.3 C 4.13 g/m*3 3.3 C 0 km/h
225 17-02-2004 20:53:01 3.3 C 4.13 g/m*3 3.3 C 0 km/h
Sensor: Nr:Datum:Temp:Abs-Feuchte:Windchill:Wind:
Aussen-T/F 226 17-02-2004 21:05:01 3.3 C 4.13 g/m*3 3.3 C 0 km/h
227 17-02-2004 21:17:01 3.3 C 4.13 g/m*3 3.3 C 0 km/h
228 17-02-2004 21:29:01 3.3 C 4.13 g/m*3 3.3 C 0 km/h
229 17-02-2004 21:41:01 3.3 C 4.13 g/m*3 3.3 C 0 km/h
230 17-02-2004 21:53:00 3.3 C 4.13 g/m*3 3.3 C 0 km/h
231 17-02-2004 22:05:59 3.4 C 4.15 g/m*3 3.4 C 0 km/h
232 17-02-2004 22:17:56 3.4 C 4.21 g/m*3 3.4 C 0 km/h
233 17-02-2004 22:29:56 3.4 C 4.21 g/m*3 3.4 C 0 km/h
234 17-02-2004 22:41:55 3.3 C 4.25 g/m*3 3.3 C 0 km/h
235 17-02-2004 22:53:00 3.4 C 4.28 g/m*3 3.4 C 0 km/h
236 17-02-2004 23:05:00 3.3 C 4.25 g/m*3 3.3 C 0 km/h
237 17-02-2004 23:17:59 3.3 C 4.25 g/m*3 3.3 C 0 km/h
238 17-02-2004 23:29:59 3.4 C 4.28 g/m*3 3.4 C 0 km/h
239 17-02-2004 23:41:58 3.4 C 4.28 g/m*3 3.4 C 0 km/h
240 17-02-2004 23:53:01 3.3 C 4.25 g/m*3 3.3 C 0 km/h
241 18-02-2004 00:05:00 3.3 C 4.31 g/m*3 3.3 C 0 km/h
242 18-02-2004 00:17:00 3.3 C 4.31 g/m*3 3.3 C 0 km/h
243 18-02-2004 00:29:00 3.3 C 4.37 g/m*3 3.3 C 0 km/h
244 18-02-2004 00:41:00 3.3 C 4.37 g/m*3 3.3 C 0 km/h
245 18-02-2004 00:53:01 3.4 C 4.4 g/m*3 3.4 C 0 km/h
246 18-02-2004 01:05:01 3.4 C 4.4 g/m*3 3.4 C 0 km/h
247 18-02-2004 01:17:01 3.4 C 4.4 g/m*3 3.4 C 0 km/h
248 18-02-2004 01:29:01 3.5 C 4.43 g/m*3 3.5 C 0 km/h
249 18-02-2004 01:41:01 3.4 C 4.4 g/m*3 3.4 C 0 km/h
250 18-02-2004 01:53:01 3.5 C 4.43 g/m*3 3.5 C 0 km/h
Sensor: Nr:Datum:Temp:Abs-Feuchte:Windchill:Wind:
Aussen-T/F 251 18-02-2004 02:05:01 3.5 C 4.43 g/m*3 3.5 C 0 km/h
252 18-02-2004 02:17:01 3.5 C 4.43 g/m*3 3.5 C 0 km/h
253 18-02-2004 02:29:01 3.6 C 4.46 g/m*3 3.6 C 0 km/h
254 18-02-2004 02:41:01 3.5 C 4.55 g/m*3 3.5 C 0 km/h
255 18-02-2004 02:54:01 3.4 C 4.64 g/m*3 3.4 C 0 km/h
256 18-02-2004 03:06:01 3.4 C 4.7 g/m*3 3.4 C 0 km/h
257 18-02-2004 03:18:00 3.7 C 4.92 g/m*3 3.7 C 0 km/h
258 18-02-2004 03:30:00 3.8 C 4.96 g/m*3 3.8 C 0 km/h
259 18-02-2004 03:42:01 3.8 C 4.96 g/m*3 3.8 C 0 km/h
260 18-02-2004 03:54:01 3.8 C 4.96 g/m*3 3.8 C 0 km/h
261 18-02-2004 04:06:01 3.9 C 4.93 g/m*3 3.9 C 0 km/h
262 18-02-2004 04:18:00 3.8 C 4.89 g/m*3 3.8 C 0 km/h
263 18-02-2004 04:30:00 3.9 C 4.86 g/m*3 3.9 C 0 km/h
264 18-02-2004 04:42:00 3.8 C 4.83 g/m*3 3.8 C 0 km/h
265 18-02-2004 04:54:01 4 C 4.64 g/m*3 4 C 0 km/h
266 18-02-2004 05:06:01 3.9 C 4.61 g/m*3 3.9 C 0 km/h
267 18-02-2004 05:18:01 3.9 C 4.55 g/m*3 3.9 C 0 km/h
268 18-02-2004 05:30:01 3.6 C 4.52 g/m*3 3.6 C 0 km/h
269 18-02-2004 05:42:01 3.7 C 4.24 g/m*3 3.7 C 0 km/h
270 18-02-2004 05:54:01 3.7 C 4.05 g/m*3 3.7 C 0 km/h
271 18-02-2004 06:06:01 3.8 C 3.95 g/m*3 3.8 C 0 km/h
272 18-02-2004 06:18:01 3.8 C 4.08 g/m*3 3.8 C 0 km/h
273 18-02-2004 06:30:01 3.8 C 4.14 g/m*3 3.8 C 0 km/h
274 18-02-2004 06:42:01 3.8 C 4.14 g/m*3 3.8 C 0 km/h
275 18-02-2004 06:54:00 3.8 C 4.14 g/m*3 3.8 C 0 km/h
Sensor: Nr:Datum:Temp:Abs-Feuchte:Windchill:Wind:
Aussen-T/F 276 18-02-2004 07:06:00 3.7 C 4.18 g/m*3 3.7 C 0 km/h
277 18-02-2004 07:18:59 3.8 C 4.14 g/m*3 3.8 C 0 km/h
278 18-02-2004 07:30:57 3.7 C 4.18 g/m*3 3.7 C 0 km/h
279 18-02-2004 07:42:57 3.8 C 4.2 g/m*3 3.8 C 0 km/h
280 18-02-2004 07:54:01 3.8 C 4.14 g/m*3 3.8 C 0 km/h
281 18-02-2004 08:06:01 3.9 C 4.23 g/m*3 3.9 C 0 km/h
282 18-02-2004 08:18:01 3.9 C 4.23 g/m*3 3.9 C 0 km/h
283 18-02-2004 08:30:01 4 C 4.2 g/m*3 4 C 0 km/h
284 18-02-2004 08:42:01 4.1 C 4.22 g/m*3 4.1 C 0 km/h
285 18-02-2004 08:54:00 4.2 C 4.25 g/m*3 4.2 C 0 km/h
286 18-02-2004 09:05:59 4.3 C 4.22 g/m*3 4.3 C 0 km/h
287 18-02-2004 09:18:58 4.4 C 4.24 g/m*3 4.4 C 0 km/h
288 18-02-2004 09:30:57 4.5 C 4.21 g/m*3 4.5 C 0 km/h
289 18-02-2004 09:42:57 4.7 C 4.26 g/m*3 4.7 C 0 km/h
290 18-02-2004 09:54:01 4.7 C 4.26 g/m*3 4.7 C 0 km/h
291 18-02-2004 10:06:01 4.7 C 4.26 g/m*3 4.7 C 0 km/h
292 18-02-2004 10:18:01 4.6 C 4.17 g/m*3 4.6 C 0 km/h
293 18-02-2004 10:30:01 4.6 C 4.17 g/m*3 4.6 C 0 km/h
294 18-02-2004 10:42:01 5.3 C 3.95 g/m*3 5.3 C 0 km/h
295 18-02-2004 10:54:01 5.3 C 3.95 g/m*3 5.3 C 0 km/h
296 18-02-2004 11:06:01 5 C 4.01 g/m*3 5 C 0 km/h
297 18-02-2004 11:18:01 5 C 3.67 g/m*3 5 C 0 km/h
298 18-02-2004 11:30:01 5.6 C 3.25 g/m*3 5.6 C 0 km/h
299 18-02-2004 11:42:01 5.5 C 3.23 g/m*3 5.5 C 0 km/h
300 18-02-2004 11:54:00 5.6 C 3.18 g/m*3 5.6 C 0 km/h
Sensor: Nr:Datum:Temp:Abs-Feuchte:Windchill:Wind:
Aussen-T/F 301 18-02-2004 12:06:00 5.7 C 3.27 g/m*3 5.7 C 0 km/h
302 18-02-2004 12:18:59 5.7 C 3.42 g/m*3 5.7 C 0 km/h
303 18-02-2004 12:30:57 5.6 C 3.68 g/m*3 5.6 C 0 km/h
304 18-02-2004 12:42:57 5.5 C 3.72 g/m*3 5.5 C 0 km/h
305 18-02-2004 12:54:01 5.4 C 3.84 g/m*3 5.4 C 0 km/h
306 18-02-2004 13:06:01 5.5 C 4 g/m*3 5.5 C 0 km/h
307 18-02-2004 13:18:01 5.6 C 4.03 g/m*3 5.6 C 0 km/h
308 18-02-2004 13:30:01 5.6 C 4.03 g/m*3 5.6 C 0 km/h
309 18-02-2004 13:42:01 5.2 C 4.13 g/m*3 5.2 C 0 km/h
310 18-02-2004 13:54:00 4.8 C 4.43 g/m*3 4.8 C 0 km/h
311 18-02-2004 14:06:00 4.5 C 4.54 g/m*3 4.5 C 0 km/h
312 18-02-2004 14:18:58 4.7 C 4.6 g/m*3 4.7 C 0 km/h
313 18-02-2004 14:30:57 5.6 C 4.88 g/m*3 5.6 C 0 km/h
314 18-02-2004 14:42:57 5.8 C 4.51 g/m*3 5.8 C 0 km/h
315 18-02-2004 14:54:01 6.6 C 4.45 g/m*3 6.6 C 0 km/h
316 18-02-2004 15:06:01 6.9 C 3.93 g/m*3 6.9 C 0 km/h
317 18-02-2004 15:18:01 6.7 C 4.1 g/m*3 6.7 C 0 km/h
318 18-02-2004 15:30:01 6.3 C 3.78 g/m*3 6.3 C 0 km/h
319 18-02-2004 15:42:01 7 C 4.03 g/m*3 7 C 0 km/h
320 18-02-2004 15:54:01 7.8 C 3.75 g/m*3 7.8 C 0 km/h
321 18-02-2004 16:06:01 7.1 C 3.74 g/m*3 7.1 C 0 km/h
322 18-02-2004 16:18:01 6.6 C 3.62 g/m*3 6.6 C 0 km/h
323 18-02-2004 16:30:01 6.7 C 3.72 g/m*3 6.7 C 0 km/h
324 18-02-2004 16:42:01 7.2 C 3.61 g/m*3 7.2 C 0 km/h
325 18-02-2004 16:54:00 7 C 3.49 g/m*3 7 C 0 km/h
Sensor: Nr:Datum:Temp:Abs-Feuchte:Windchill:Wind:
Aussen-T/F 326 18-02-2004 17:06:00 7.2 C 3.53 g/m*3 7.2 C 0 km/h
327 18-02-2004 17:18:58 7.2 C 3.53 g/m*3 7.2 C 0 km/h
328 18-02-2004 17:30:57 6.5 C 3.45 g/m*3 6.5 C 0 km/h
329 18-02-2004 17:42:57 6 C 3.48 g/m*3 6 C 0 km/h
330 18-02-2004 17:54:01 5.6 C 3.53 g/m*3 5.6 C 0 km/h
331 18-02-2004 18:06:01 5.2 C 3.51 g/m*3 5.2 C 0 km/h
332 18-02-2004 18:18:01 4.9 C 3.58 g/m*3 4.9 C 0 km/h
333 18-02-2004 18:30:01 4.6 C 3.57 g/m*3 4.6 C 0 km/h
334 18-02-2004 18:42:01 4.3 C 3.63 g/m*3 4.3 C 0 km/h
335 18-02-2004 18:54:00 3.8 C 3.76 g/m*3 3.8 C 0 km/h
336 18-02-2004 19:06:59 3.9 C 3.79 g/m*3 3.9 C 0 km/h
337 18-02-2004 19:18:58 4.1 C 3.71 g/m*3 4.1 C 0 km/h
338 18-02-2004 19:30:57 4.1 C 3.71 g/m*3 4.1 C 0 km/h
339 18-02-2004 19:42:57 4.1 C 3.84 g/m*3 4.1 C 0 km/h
340 18-02-2004 19:54:01 3.7 C 3.8 g/m*3 3.7 C 0 km/h
341 18-02-2004 20:06:01 3.3 C 3.82 g/m*3 3.3 C 0 km/h
342 18-02-2004 20:18:01 2.7 C 3.79 g/m*3 2.7 C 0 km/h
343 18-02-2004 20:30:01 2.4 C 3.83 g/m*3 2.4 C 0 km/h
344 18-02-2004 20:42:01 2 C 3.72 g/m*3 2 C 0 km/h
345 18-02-2004 20:54:01 1.8 C 3.78 g/m*3 1.8 C 0 km/h
346 18-02-2004 21:06:01 1.6 C 3.79 g/m*3 1.6 C 0 km/h
347 18-02-2004 21:18:01 1.4 C 3.73 g/m*3 1.4 C 0 km/h
348 18-02-2004 21:30:01 1.2 C 3.74 g/m*3 1.2 C 0 km/h
349 18-02-2004 21:42:01 0.9 C 3.71 g/m*3 0.9 C 0 km/h
350 18-02-2004 21:54:00 0.7 C 3.66 g/m*3 0.7 C 0 km/h
Sensor: Nr:Datum:Temp:Abs-Feuchte:Windchill:Wind:
Aussen-T/F 351 18-02-2004 22:06:00 0.6 C 3.69 g/m*3 0.6 C 0 km/h
352 18-02-2004 22:18:58 0.5 C 3.71 g/m*3 0.5 C 0 km/h
353 18-02-2004 22:30:57 0.2 C 3.64 g/m*3 0.2 C 0 km/h
354 18-02-2004 22:42:57 0.1 C 3.61 g/m*3 0.1 C 0 km/h
355 18-02-2004 22:54:01 0.1 C 3.66 g/m*3 0.1 C 0 km/h
356 18-02-2004 23:06:01 0 C 3.68 g/m*3 0 C 0 km/h
357 18-02-2004 23:18:01 0.2 C 3.73 g/m*3 0.2 C 0 km/h
358 18-02-2004 23:30:01 0 C 3.63 g/m*3 0 C 0 km/h
359 18-02-2004 23:42:01 0.1 C 3.66 g/m*3 0.1 C 0 km/h
360 18-02-2004 23:54:00 0.4 C 3.74 g/m*3 0.4 C 0 km/h
361 19-02-2004 00:06:59 0.3 C 3.66 g/m*3 0.3 C 0 km/h
362 19-02-2004 00:18:58 0.1 C 3.61 g/m*3 0.1 C 0 km/h
363 19-02-2004 00:30:57 0.1 C 3.66 g/m*3 0.1 C 0 km/h
364 19-02-2004 00:42:57 0.2 C 3.68 g/m*3 0.2 C 0 km/h
365 19-02-2004 00:54:01 0.2 C 3.68 g/m*3 0.2 C 0 km/h
366 19-02-2004 01:06:01 0.3 C 3.71 g/m*3 0.3 C 0 km/h
367 19-02-2004 01:18:01 0.1 C 3.66 g/m*3 0.1 C 0 km/h
368 19-02-2004 01:30:01 -0.1 C 3.61 g/m*3 -0.1 C 0 km/h
369 19-02-2004 01:42:01 -0.3 C 3.61 g/m*3 -0.3 C 0 km/h
370 19-02-2004 01:54:01 -0.4 C 3.58 g/m*3 -0.4 C 0 km/h
371 19-02-2004 02:06:01 -0.6 C 3.53 g/m*3 -0.6 C 0 km/h
372 19-02-2004 02:18:01 -0.8 C 3.48 g/m*3 -0.8 C 0 km/h
373 19-02-2004 02:30:01 -1 C 3.48 g/m*3 -1 C 0 km/h
374 19-02-2004 02:42:01 -1 C 3.48 g/m*3 -1 C 0 km/h
375 19-02-2004 02:55:01 -1.2 C 3.43 g/m*3 -1.2 C 0 km/h
Sensor: Nr:Datum:Temp:Abs-Feuchte:Windchill:Wind:
Aussen-T/F 376 19-02-2004 03:07:01 -1.3 C 3.41 g/m*3 -1.3 C 0 km/h
377 19-02-2004 03:19:00 -1.2 C 3.48 g/m*3 -1.2 C 0 km/h
378 19-02-2004 03:31:01 -1.3 C 3.5 g/m*3 -1.3 C 0 km/h
379 19-02-2004 03:43:01 -1.5 C 3.41 g/m*3 -1.5 C 0 km/h
380 19-02-2004 03:55:01 -1.8 C 3.33 g/m*3 -1.8 C 0 km/h
381 19-02-2004 04:07:01 -1.9 C 3.31 g/m*3 -1.9 C 0 km/h
382 19-02-2004 04:19:00 -2 C 3.33 g/m*3 -2 C 0 km/h
383 19-02-2004 04:31:00 -2.1 C 3.31 g/m*3 -2.1 C 0 km/h
384 19-02-2004 04:43:00 -2 C 3.33 g/m*3 -2 C 0 km/h
385 19-02-2004 04:55:01 -1.2 C 3.57 g/m*3 -1.2 C 0 km/h
386 19-02-2004 05:07:01 -1.2 C 3.66 g/m*3 -1.2 C 0 km/h
387 19-02-2004 05:19:01 -1.1 C 3.68 g/m*3 -1.1 C 0 km/h
388 19-02-2004 05:31:01 -1 C 3.71 g/m*3 -1 C 0 km/h
389 19-02-2004 05:43:01 -1 C 3.71 g/m*3 -1 C 0 km/h
390 19-02-2004 05:55:01 -0.7 C 3.78 g/m*3 -0.7 C 0 km/h
391 19-02-2004 06:07:01 -0.5 C 3.84 g/m*3 -0.5 C 0 km/h
392 19-02-2004 06:19:01 -0.4 C 3.82 g/m*3 -0.4 C 0 km/h
393 19-02-2004 06:31:01 -0.3 C 3.8 g/m*3 -0.3 C 0 km/h
394 19-02-2004 06:43:01 -0.3 C 3.75 g/m*3 -0.3 C 0 km/h
395 19-02-2004 06:55:00 -0.2 C 3.73 g/m*3 -0.2 C 0 km/h
396 19-02-2004 07:07:00 -0.2 C 3.68 g/m*3 -0.2 C 0 km/h
397 19-02-2004 07:19:59 0 C 3.73 g/m*3 0 C 0 km/h
398 19-02-2004 07:31:57 0 C 3.73 g/m*3 0 C 0 km/h
399 19-02-2004 07:43:57 0.2 C 3.73 g/m*3 0.2 C 0 km/h
400 19-02-2004 07:55:01 0.3 C 3.71 g/m*3 0.3 C 0 km/h
Sensor: Nr:Datum:Temp:Abs-Feuchte:Windchill:Wind:
Aussen-T/F 401 19-02-2004 08:07:01 0.4 C 3.69 g/m*3 0.4 C 0 km/h
402 19-02-2004 08:19:01 0.5 C 3.71 g/m*3 0.5 C 0 km/h
403 19-02-2004 08:31:01 0.8 C 3.84 g/m*3 0.8 C 0 km/h
404 19-02-2004 08:43:01 1.1 C 3.81 g/m*3 1.1 C 0 km/h
405 19-02-2004 08:55:00 1.3 C 3.87 g/m*3 1.3 C 0 km/h
406 19-02-2004 09:06:59 1.7 C 3.92 g/m*3 1.7 C 0 km/h
407 19-02-2004 09:19:58 1.9 C 3.86 g/m*3 1.9 C 0 km/h
408 19-02-2004 09:31:57 2.2 C 3.83 g/m*3 2.2 C 0 km/h
409 19-02-2004 09:43:57 2.4 C 3.65 g/m*3 2.4 C 0 km/h
410 19-02-2004 09:55:01 2.7 C 3.5 g/m*3 2.7 C 0 km/h
411 19-02-2004 10:07:01 2.8 C 3.4 g/m*3 2.8 C 0 km/h
412 19-02-2004 10:19:01 2.5 C 3.33 g/m*3 2.5 C 0 km/h
413 19-02-2004 10:31:01 2.9 C 3.37 g/m*3 2.9 C 0 km/h
414 19-02-2004 10:43:01 3.2 C 3.07 g/m*3 3.2 C 0 km/h
415 19-02-2004 10:55:01 3.1 C 2.75 g/m*3 3.1 C 0 km/h
416 19-02-2004 11:07:01 3.1 C 2.69 g/m*3 3.1 C 0 km/h
417 19-02-2004 11:19:01 3.7 C 2.8 g/m*3 3.7 C 0 km/h
418 19-02-2004 11:31:01 3.7 C 2.8 g/m*3 3.7 C 0 km/h
419 19-02-2004 11:43:01 3.4 C 2.81 g/m*3 3.4 C 0 km/h
420 19-02-2004 11:55:00 3.7 C 2.68 g/m*3 3.7 C 0 km/h
421 19-02-2004 12:07:00 4.1 C 2.62 g/m*3 4.1 C 0 km/h
422 19-02-2004 12:19:58 4.5 C 2.56 g/m*3 4.5 C 0 km/h
423 19-02-2004 12:31:57 4.6 C 2.51 g/m*3 4.6 C 0 km/h
424 19-02-2004 12:43:57 4.7 C 2.6 g/m*3 4.7 C 0 km/h
425 19-02-2004 12:55:01 4.4 C 2.48 g/m*3 4.4 C 0 km/h
Sensor: Nr:Datum:Temp:Abs-Feuchte:Windchill:Wind:
Aussen-T/F 426 19-02-2004 13:07:01 4.2 C 2.38 g/m*3 4.2 C 0 km/h
427 19-02-2004 13:19:01 4.1 C 2.37 g/m*3 4.1 C 0 km/h
428 19-02-2004 13:31:01 3.8 C 2.45 g/m*3 3.8 C 0 km/h
429 19-02-2004 13:43:01 3.5 C 2.4 g/m*3 3.5 C 0 km/h
430 19-02-2004 13:55:00 3.5 C 2.4 g/m*3 3.5 C 0 km/h
431 19-02-2004 14:07:00 3.6 C 2.48 g/m*3 3.6 C 0 km/h
432 19-02-2004 14:19:58 3.4 C 2.57 g/m*3 3.4 C 0 km/h
433 19-02-2004 14:31:57 3.4 C 2.69 g/m*3 3.4 C 0 km/h
434 19-02-2004 14:43:57 3.3 C 2.73 g/m*3 3.3 C 0 km/h
435 19-02-2004 14:55:01 3.1 C 2.69 g/m*3 3.1 C 0 km/h
436 19-02-2004 15:07:01 3 C 2.68 g/m*3 3 C 0 km/h
437 19-02-2004 15:19:01 2.9 C 2.72 g/m*3 2.9 C 0 km/h
438 19-02-2004 15:31:02 2.8 C 2.7 g/m*3 2.8 C 0 km/h
439 19-02-2004 15:43:02 2.7 C 2.74 g/m*3 2.7 C 0 km/h
440 19-02-2004 15:55:00 2.6 C 2.72 g/m*3 2.6 C 0 km/h
441 19-02-2004 16:07:00 2.4 C 2.63 g/m*3 2.4 C 0 km/h
442 19-02-2004 16:19:59 2.4 C 2.63 g/m*3 2.4 C 0 km/h
443 19-02-2004 16:31:59 2.5 C 2.64 g/m*3 2.5 C 0 km/h
444 19-02-2004 16:43:59 2.3 C 2.55 g/m*3 2.3 C 0 km/h
445 19-02-2004 16:55:01 2.3 C 2.55 g/m*3 2.3 C 0 km/h
446 19-02-2004 17:07:01 2.2 C 2.53 g/m*3 2.2 C 0 km/h
447 19-02-2004 17:19:01 2 C 2.5 g/m*3 2 C 0 km/h
448 19-02-2004 17:31:02 1.8 C 2.52 g/m*3 1.8 C 0 km/h
449 19-02-2004 17:43:02 1.7 C 2.5 g/m*3 1.7 C 0 km/h
450 19-02-2004 17:55:01 1.6 C 2.49 g/m*3 1.6 C 0 km/h
Sensor: Nr:Datum:Temp:Abs-Feuchte:Windchill:Wind:
Aussen-T/F 451 19-02-2004 18:07:01 1.5 C 2.42 g/m*3 1.5 C 0 km/h
452 19-02-2004 18:19:01 1.4 C 2.45 g/m*3 1.4 C 0 km/h
453 19-02-2004 18:31:01 1.4 C 2.45 g/m*3 1.4 C 0 km/h
454 19-02-2004 18:43:01 1.3 C 2.44 g/m*3 1.3 C 0 km/h
455 19-02-2004 18:55:00 1.2 C 2.42 g/m*3 1.2 C 0 km/h
456 19-02-2004 19:07:00 1.2 C 2.42 g/m*3 1.2 C 0 km/h
457 19-02-2004 19:19:59 1.2 C 2.42 g/m*3 1.2 C 0 km/h
458 19-02-2004 19:31:57 1.2 C 2.42 g/m*3 1.2 C 0 km/h
459 19-02-2004 19:43:57 1.1 C 2.46 g/m*3 1.1 C 0 km/h
460 19-02-2004 19:55:01 1.1 C 2.46 g/m*3 1.1 C 0 km/h
461 19-02-2004 20:07:01 1.1 C 2.46 g/m*3 1.1 C 0 km/h
462 19-02-2004 20:19:01 1.1 C 2.46 g/m*3 1.1 C 0 km/h
463 19-02-2004 20:31:01 1.1 C 2.46 g/m*3 1.1 C 0 km/h
464 19-02-2004 20:43:01 1.1 C 2.46 g/m*3 1.1 C 0 km/h
465 19-02-2004 20:55:00 1.1 C 2.46 g/m*3 1.1 C 0 km/h
466 19-02-2004 21:07:00 1.1 C 2.51 g/m*3 1.1 C 0 km/h
467 19-02-2004 21:19:58 1.1 C 2.51 g/m*3 1.1 C 0 km/h
468 19-02-2004 21:31:57 1.1 C 2.51 g/m*3 1.1 C 0 km/h
469 19-02-2004 21:43:57 1.1 C 2.51 g/m*3 1.1 C 0 km/h
470 19-02-2004 21:55:01 1 C 2.49 g/m*3 1 C 0 km/h
471 19-02-2004 22:07:01 0.9 C 2.58 g/m*3 0.9 C 0 km/h
472 19-02-2004 22:19:01 1 C 2.49 g/m*3 1 C 0 km/h
473 19-02-2004 22:31:01 0.9 C 2.53 g/m*3 0.9 C 0 km/h
474 19-02-2004 22:43:01 0.9 C 2.47 g/m*3 0.9 C 0 km/h
475 19-02-2004 22:55:01 1 C 2.44 g/m*3 1 C 0 km/h
Sensor: Nr:Datum:Temp:Abs-Feuchte:Windchill:Wind:
Aussen-T/F 476 19-02-2004 23:07:01 0.9 C 2.53 g/m*3 0.9 C 0 km/h
477 19-02-2004 23:19:01 0.9 C 2.53 g/m*3 0.9 C 0 km/h
478 19-02-2004 23:31:01 0.9 C 2.53 g/m*3 0.9 C 0 km/h
479 19-02-2004 23:43:01 0.8 C 2.51 g/m*3 0.8 C 0 km/h
480 19-02-2004 23:55:01 0.8 C 2.56 g/m*3 0.8 C 0 km/h
481 20-02-2004 00:07:00 0.8 C 2.51 g/m*3 0.8 C 0 km/h
482 20-02-2004 00:19:59 0.8 C 2.51 g/m*3 0.8 C 0 km/h
483 20-02-2004 00:31:57 0.8 C 2.51 g/m*3 0.8 C 0 km/h
484 20-02-2004 00:43:57 0.7 C 2.49 g/m*3 0.7 C 0 km/h
485 20-02-2004 00:55:01 0.7 C 2.49 g/m*3 0.7 C 0 km/h
486 20-02-2004 01:07:01 0.7 C 2.49 g/m*3 0.7 C 0 km/h
487 20-02-2004 01:19:01 0.4 C 2.49 g/m*3 0.4 C 0 km/h
488 20-02-2004 01:31:01 0.3 C 2.52 g/m*3 0.3 C 0 km/h
489 20-02-2004 01:43:01 0.2 C 2.51 g/m*3 0.2 C 0 km/h
490 20-02-2004 01:55:00 0.3 C 2.52 g/m*3 0.3 C 0 km/h
491 20-02-2004 02:07:59 0.3 C 2.52 g/m*3 0.3 C 0 km/h
492 20-02-2004 02:19:58 0.1 C 2.54 g/m*3 0.1 C 0 km/h
493 20-02-2004 02:31:57 0 C 2.52 g/m*3 0 C 0 km/h
494 20-02-2004 02:43:57 -0.2 C 2.58 g/m*3 -0.2 C 0 km/h
495 20-02-2004 02:56:02 -0.2 C 2.58 g/m*3 -0.2 C 0 km/h
496 20-02-2004 03:08:02 -0.3 C 2.56 g/m*3 -0.3 C 0 km/h
497 20-02-2004 03:20:02 -0.3 C 2.61 g/m*3 -0.3 C 0 km/h
498 20-02-2004 03:32:00 -0.3 C 2.61 g/m*3 -0.3 C 0 km/h
499 20-02-2004 03:44:00 -0.3 C 2.61 g/m*3 -0.3 C 0 km/h
500 20-02-2004 03:56:00 -0.4 C 2.64 g/m*3 -0.4 C 0 km/h
Sensor: Nr:Datum:Temp:Abs-Feuchte:Windchill:Wind:
Aussen-T/F 501 20-02-2004 04:08:00 -0.6 C 2.6 g/m*3 -0.6 C 0 km/h
502 20-02-2004 04:20:59 -0.7 C 2.58 g/m*3 -0.7 C 0 km/h
503 20-02-2004 04:32:57 -1 C 2.58 g/m*3 -1 C 0 km/h
504 20-02-2004 04:44:01 -1.1 C 2.56 g/m*3 -1.1 C 0 km/h
505 20-02-2004 04:56:01 -1.1 C 2.56 g/m*3 -1.1 C 0 km/h
506 20-02-2004 05:08:01 -1.2 C 2.54 g/m*3 -1.2 C 0 km/h
507 20-02-2004 05:20:01 -1.2 C 2.54 g/m*3 -1.2 C 0 km/h
508 20-02-2004 05:32:01 -1.2 C 2.54 g/m*3 -1.2 C 0 km/h
509 20-02-2004 05:44:01 -1.3 C 2.57 g/m*3 -1.3 C 0 km/h
510 20-02-2004 05:56:00 -1.5 C 2.53 g/m*3 -1.5 C 0 km/h
511 20-02-2004 06:08:00 -1.6 C 2.6 g/m*3 -1.6 C 0 km/h
512 20-02-2004 06:20:58 -1.5 C 2.58 g/m*3 -1.5 C 0 km/h
513 20-02-2004 06:32:57 -1.4 C 2.59 g/m*3 -1.4 C 0 km/h
514 20-02-2004 06:44:01 -1.4 C 2.59 g/m*3 -1.4 C 0 km/h
515 20-02-2004 06:56:01 -1.5 C 2.58 g/m*3 -1.5 C 0 km/h
516 20-02-2004 07:08:01 -1.6 C 2.6 g/m*3 -1.6 C 0 km/h
517 20-02-2004 07:20:01 -1.6 C 2.64 g/m*3 -1.6 C 0 km/h
518 20-02-2004 07:32:01 -1.7 C 2.63 g/m*3 -1.7 C 0 km/h
519 20-02-2004 07:44:01 -1.8 C 2.61 g/m*3 -1.8 C 0 km/h
520 20-02-2004 07:56:01 -1.8 C 2.61 g/m*3 -1.8 C 0 km/h
521 20-02-2004 08:08:01 -1.6 C 2.64 g/m*3 -1.6 C 0 km/h
522 20-02-2004 08:20:01 -1.6 C 2.6 g/m*3 -1.6 C 0 km/h
523 20-02-2004 08:32:01 -1.5 C 2.62 g/m*3 -1.5 C 0 km/h
524 20-02-2004 08:44:01 -1.4 C 2.64 g/m*3 -1.4 C 0 km/h
525 20-02-2004 08:56:00 -1.2 C 2.63 g/m*3 -1.2 C 0 km/h
Sensor: Nr:Datum:Temp:Abs-Feuchte:Windchill:Wind:
Aussen-T/F 526 20-02-2004 09:08:00 -1.3 C 2.61 g/m*3 -1.3 C 0 km/h
527 20-02-2004 09:20:59 -1.2 C 2.63 g/m*3 -1.2 C 0 km/h
528 20-02-2004 09:32:58 -1.1 C 2.6 g/m*3 -1.1 C 0 km/h
529 20-02-2004 09:44:01 -0.8 C 2.61 g/m*3 -0.8 C 0 km/h
530 20-02-2004 09:56:01 -0.7 C 2.63 g/m*3 -0.7 C 0 km/h
531 20-02-2004 10:08:01 -0.6 C 2.6 g/m*3 -0.6 C 0 km/h
532 20-02-2004 10:20:01 -0.2 C 2.63 g/m*3 -0.2 C 0 km/h
533 20-02-2004 10:32:01 0.4 C 2.69 g/m*3 0.4 C 0 km/h
534 20-02-2004 10:44:01 0.7 C 2.64 g/m*3 0.7 C 0 km/h
535 20-02-2004 10:56:00 1.2 C 2.63 g/m*3 1.2 C 0 km/h
536 20-02-2004 11:08:00 1.5 C 2.63 g/m*3 1.5 C 0 km/h
537 20-02-2004 11:20:58 2 C 2.61 g/m*3 2 C 0 km/h
538 20-02-2004 11:32:57 2.2 C 2.59 g/m*3 2.2 C 0 km/h
539 20-02-2004 11:44:01 2.6 C 2.55 g/m*3 2.6 C 0 km/h
540 20-02-2004 11:56:01 2.9 C 2.54 g/m*3 2.9 C 0 km/h
541 20-02-2004 12:08:01 3.4 C 2.57 g/m*3 3.4 C 0 km/h
542 20-02-2004 12:20:01 3.9 C 2.53 g/m*3 3.9 C 0 km/h
543 20-02-2004 12:32:01 4.3 C 2.46 g/m*3 4.3 C 0 km/h
544 20-02-2004 12:44:01 4.6 C 2.45 g/m*3 4.6 C 0 km/h
545 20-02-2004 12:56:00 5 C 2.51 g/m*3 5 C 0 km/h
546 20-02-2004 13:08:59 5.6 C 2.55 g/m*3 5.6 C 0 km/h
547 20-02-2004 13:20:58 6 C 2.4 g/m*3 6 C 0 km/h
548 20-02-2004 13:32:57 6.6 C 2.57 g/m*3 6.6 C 0 km/h
549 20-02-2004 13:44:01 6.9 C 2.39 g/m*3 6.9 C 0 km/h
550 20-02-2004 13:56:01 7.1 C 2.34 g/m*3 7.1 C 0 km/h
Sensor: Nr:Datum:Temp:Abs-Feuchte:Windchill:Wind:
Aussen-T/F 551 20-02-2004 14:08:01 7.7 C 2.35 g/m*3 7.7 C 0 km/h
552 20-02-2004 14:20:01 8.2 C 2.43 g/m*3 8.2 C 0 km/h
553 20-02-2004 14:32:00 8.2 C 2.18 g/m*3 8.2 C 0 km/h
554 20-02-2004 14:44:00 8.4 C 2.29 g/m*3 8.4 C 0 km/h
555 20-02-2004 14:56:01 8.7 C 2.25 g/m*3 8.7 C 0 km/h
556 20-02-2004 15:08:01 9.1 C 2.22 g/m*3 9.1 C 0 km/h
557 20-02-2004 15:20:01 8.9 C 2.19 g/m*3 8.9 C 0 km/h
558 20-02-2004 15:32:01 9.1 C 2.22 g/m*3 9.1 C 0 km/h
559 20-02-2004 15:44:01 9.2 C 2.23 g/m*3 9.2 C 0 km/h
560 20-02-2004 15:56:00 9.3 C 2.25 g/m*3 9.3 C 0 km/h
561 20-02-2004 16:07:59 9.1 C 2.31 g/m*3 9.1 C 0 km/h
562 20-02-2004 16:20:58 9.3 C 2.25 g/m*3 9.3 C 0 km/h
563 20-02-2004 16:32:04 9.2 C 2.23 g/m*3 9.2 C 0 km/h
564 20-02-2004 16:44:04 8.8 C 2.26 g/m*3 8.8 C 0 km/h
565 20-02-2004 16:56:02 8.7 C 2.51 g/m*3 8.7 C 0 km/h
566 20-02-2004 17:08:02 8.6 C 2.58 g/m*3 8.6 C 0 km/h
567 20-02-2004 17:20:10 7.9 C 2.63 g/m*3 7.9 C 0 km/h
568 20-02-2004 17:32:13 7.1 C 2.65 g/m*3 7.1 C 0 km/h
569 20-02-2004 17:44:13 5.8 C 2.72 g/m*3 5.8 C 0 km/h
570 20-02-2004 17:56:01 5 C 2.72 g/m*3 5 C 0 km/h
571 20-02-2004 18:08:01 4.2 C 2.71 g/m*3 4.2 C 0 km/h
572 20-02-2004 18:20:01 3.6 C 2.79 g/m*3 3.6 C 0 km/h
573 20-02-2004 18:32:01 3.3 C 2.79 g/m*3 3.3 C 0 km/h
574 20-02-2004 18:44:01 3.1 C 2.75 g/m*3 3.1 C 0 km/h
575 20-02-2004 18:56:01 2.9 C 2.83 g/m*3 2.9 C 0 km/h
Sensor: Nr:Datum:Temp:Abs-Feuchte:Windchill:Wind:
Aussen-T/F 576 20-02-2004 19:08:01 2.7 C 2.8 g/m*3 2.7 C 0 km/h
577 20-02-2004 19:20:01 2.5 C 2.82 g/m*3 2.5 C 0 km/h
578 20-02-2004 19:32:01 2.4 C 2.85 g/m*3 2.4 C 0 km/h
579 20-02-2004 19:44:01 2.3 C 2.84 g/m*3 2.3 C 0 km/h
580 20-02-2004 19:56:00 2.3 C 2.84 g/m*3 2.3 C 0 km/h
581 20-02-2004 20:08:57 2.1 C 2.85 g/m*3 2.1 C 0 km/h
582 20-02-2004 20:20:56 1.9 C 2.87 g/m*3 1.9 C 0 km/h
583 20-02-2004 20:32:54 1.7 C 2.89 g/m*3 1.7 C 0 km/h
584 20-02-2004 20:44:00 1.5 C 2.85 g/m*3 1.5 C 0 km/h
585 20-02-2004 20:56:00 1.4 C 2.88 g/m*3 1.4 C 0 km/h
586 20-02-2004 21:08:00 1.3 C 2.91 g/m*3 1.3 C 0 km/h
587 20-02-2004 21:20:59 1.2 C 2.89 g/m*3 1.2 C 0 km/h
588 20-02-2004 21:32:58 1 C 2.91 g/m*3 1 C 0 km/h
589 20-02-2004 21:44:01 0.9 C 2.94 g/m*3 0.9 C 0 km/h
590 20-02-2004 21:56:01 0.7 C 2.9 g/m*3 0.7 C 0 km/h
591 20-02-2004 22:08:00 0.6 C 2.93 g/m*3 0.6 C 0 km/h
592 20-02-2004 22:20:59 0.5 C 2.96 g/m*3 0.5 C 0 km/h
593 20-02-2004 22:32:58 0.4 C 2.94 g/m*3 0.4 C 0 km/h
594 20-02-2004 22:44:01 0.2 C 2.9 g/m*3 0.2 C 0 km/h
595 20-02-2004 22:56:01 0.1 C 2.88 g/m*3 0.1 C 0 km/h
596 20-02-2004 23:08:01 0 C 2.91 g/m*3 0 C 0 km/h
597 20-02-2004 23:20:00 -0.1 C 2.89 g/m*3 -0.1 C 0 km/h
598 20-02-2004 23:32:00 -0.1 C 2.89 g/m*3 -0.1 C 0 km/h
599 20-02-2004 23:44:00 -0.1 C 2.84 g/m*3 -0.1 C 0 km/h
600 20-02-2004 23:56:01 -0.1 C 2.84 g/m*3 -0.1 C 0 km/h
Sensor: Nr:Datum:Temp:Abs-Feuchte:Windchill:Wind:
Aussen-T/F 601 21-02-2004 00:08:01 -0.2 C 2.82 g/m*3 -0.2 C 0 km/h
602 21-02-2004 00:20:02 -0.3 C 2.85 g/m*3 -0.3 C 0 km/h
603 21-02-2004 00:32:01 -0.3 C 2.85 g/m*3 -0.3 C 0 km/h
604 21-02-2004 00:44:01 -0.4 C 2.87 g/m*3 -0.4 C 0 km/h
605 21-02-2004 00:56:01 -0.6 C 2.88 g/m*3 -0.6 C 0 km/h
606 21-02-2004 01:08:01 -0.9 C 2.78 g/m*3 -0.9 C 0 km/h
607 21-02-2004 01:20:01 -1 C 2.8 g/m*3 -1 C 0 km/h
608 21-02-2004 01:32:01 -1.1 C 2.83 g/m*3 -1.1 C 0 km/h
609 21-02-2004 01:44:01 -1.3 C 2.83 g/m*3 -1.3 C 0 km/h
610 21-02-2004 01:56:01 -1.2 C 2.81 g/m*3 -1.2 C 0 km/h
611 21-02-2004 02:08:01 -1.4 C 2.77 g/m*3 -1.4 C 0 km/h
612 21-02-2004 02:20:01 -1.4 C 2.77 g/m*3 -1.4 C 0 km/h
613 21-02-2004 02:32:01 -1.3 C 2.79 g/m*3 -1.3 C 0 km/h
614 21-02-2004 02:44:01 -1.5 C 2.84 g/m*3 -1.5 C 0 km/h
615 21-02-2004 02:57:01 -1.6 C 2.86 g/m*3 -1.6 C 0 km/h
616 21-02-2004 03:09:01 -1.8 C 2.78 g/m*3 -1.8 C 0 km/h
617 21-02-2004 03:20:59 -1.9 C 2.8 g/m*3 -1.9 C 0 km/h
618 21-02-2004 03:33:01 -2 C 2.74 g/m*3 -2 C 0 km/h
619 21-02-2004 03:45:01 -2.1 C 2.76 g/m*3 -2.1 C 0 km/h
620 21-02-2004 03:57:01 -2.3 C 2.72 g/m*3 -2.3 C 0 km/h
621 21-02-2004 04:09:01 -2.5 C 2.69 g/m*3 -2.5 C 0 km/h
622 21-02-2004 04:21:01 -2.4 C 2.7 g/m*3 -2.4 C 0 km/h
623 21-02-2004 04:33:01 -2.3 C 2.77 g/m*3 -2.3 C 0 km/h
624 21-02-2004 04:45:00 -2 C 2.78 g/m*3 -2 C 0 km/h
625 21-02-2004 04:57:00 -1.9 C 2.76 g/m*3 -1.9 C 0 km/h
Sensor: Nr:Datum:Temp:Abs-Feuchte:Windchill:Wind:
Aussen-T/F 626 21-02-2004 05:09:59 -1.8 C 2.69 g/m*3 -1.8 C 0 km/h
627 21-02-2004 05:21:58 -1.8 C 2.69 g/m*3 -1.8 C 0 km/h
628 21-02-2004 05:33:57 -1.8 C 2.65 g/m*3 -1.8 C 0 km/h
629 21-02-2004 05:45:01 -1.8 C 2.65 g/m*3 -1.8 C 0 km/h
630 21-02-2004 05:57:01 -2 C 2.66 g/m*3 -2 C 0 km/h
631 21-02-2004 06:09:01 -1.9 C 2.67 g/m*3 -1.9 C 0 km/h
632 21-02-2004 06:21:01 -2 C 2.66 g/m*3 -2 C 0 km/h
633 21-02-2004 06:33:01 -2 C 2.66 g/m*3 -2 C 0 km/h
634 21-02-2004 06:45:01 -2 C 2.7 g/m*3 -2 C 0 km/h
635 21-02-2004 06:57:01 -1.8 C 2.69 g/m*3 -1.8 C 0 km/h
636 21-02-2004 07:09:01 -1.4 C 2.68 g/m*3 -1.4 C 0 km/h
637 21-02-2004 07:21:01 -1.4 C 2.64 g/m*3 -1.4 C 0 km/h
638 21-02-2004 07:33:01 -1.1 C 2.65 g/m*3 -1.1 C 0 km/h
639 21-02-2004 07:45:00 -1.1 C 2.6 g/m*3 -1.1 C 0 km/h
640 21-02-2004 07:57:00 -1.4 C 2.64 g/m*3 -1.4 C 0 km/h
641 21-02-2004 08:09:00 -0.9 C 2.64 g/m*3 -0.9 C 0 km/h
642 21-02-2004 08:21:58 -0.7 C 2.68 g/m*3 -0.7 C 0 km/h
643 21-02-2004 08:33:57 -0.4 C 2.64 g/m*3 -0.4 C 0 km/h
644 21-02-2004 08:45:01 -0.4 C 2.64 g/m*3 -0.4 C 0 km/h
645 21-02-2004 08:57:01 -0.4 C 2.69 g/m*3 -0.4 C 0 km/h
646 21-02-2004 09:09:01 -0.3 C 2.71 g/m*3 -0.3 C 0 km/h
647 21-02-2004 09:21:01 0.1 C 2.73 g/m*3 0.1 C 0 km/h
648 21-02-2004 09:33:01 0.4 C 2.74 g/m*3 0.4 C 0 km/h
649 21-02-2004 09:45:00 0.5 C 2.71 g/m*3 0.5 C 0 km/h
650 21-02-2004 09:57:00 0.7 C 2.75 g/m*3 0.7 C 0 km/h
Sensor: Nr:Datum:Temp:Abs-Feuchte:Windchill:Wind:
Aussen-T/F 651 21-02-2004 10:09:59 1 C 2.7 g/m*3 1 C 0 km/h
652 21-02-2004 10:21:58 1.1 C 2.72 g/m*3 1.1 C 0 km/h
653 21-02-2004 10:33:57 1.2 C 2.79 g/m*3 1.2 C 0 km/h
654 21-02-2004 10:45:01 1.3 C 2.7 g/m*3 1.3 C 0 km/h
655 21-02-2004 10:57:01 1.5 C 2.69 g/m*3 1.5 C 0 km/h
656 21-02-2004 11:09:01 1.5 C 2.69 g/m*3 1.5 C 0 km/h
657 21-02-2004 11:21:01 1.5 C 2.74 g/m*3 1.5 C 0 km/h
658 21-02-2004 11:33:01 1.6 C 2.76 g/m*3 1.6 C 0 km/h
659 21-02-2004 11:45:01 1.8 C 2.8 g/m*3 1.8 C 0 km/h
660 21-02-2004 11:57:01 2.2 C 2.82 g/m*3 2.2 C 0 km/h
661 21-02-2004 12:09:01 2.4 C 2.85 g/m*3 2.4 C 0 km/h
662 21-02-2004 12:21:01 3 C 2.73 g/m*3 3 C 0 km/h
663 21-02-2004 12:33:01 3.1 C 2.69 g/m*3 3.1 C 0 km/h
664 21-02-2004 12:45:00 3.3 C 2.79 g/m*3 3.3 C 0 km/h
665 21-02-2004 12:57:00 3.5 C 2.77 g/m*3 3.5 C 0 km/h
666 21-02-2004 13:09:00 3.4 C 2.75 g/m*3 3.4 C 0 km/h
667 21-02-2004 13:21:58 3.7 C 2.8 g/m*3 3.7 C 0 km/h
668 21-02-2004 13:33:57 3.7 C 2.8 g/m*3 3.7 C 0 km/h
669 21-02-2004 13:45:01 3.5 C 2.83 g/m*3 3.5 C 0 km/h
670 21-02-2004 13:57:01 3.5 C 2.83 g/m*3 3.5 C 0 km/h
671 21-02-2004 14:09:01 3.6 C 2.79 g/m*3 3.6 C 0 km/h
672 21-02-2004 14:21:01 3.6 C 2.79 g/m*3 3.6 C 0 km/h
673 21-02-2004 14:33:01 3.7 C 2.8 g/m*3 3.7 C 0 km/h
674 21-02-2004 14:45:01 3.9 C 2.84 g/m*3 3.9 C 0 km/h
675 21-02-2004 14:57:01 4.2 C 2.84 g/m*3 4.2 C 0 km/h
Sensor: Nr:Datum:Temp:Abs-Feuchte:Windchill:Wind:
Aussen-T/F 676 21-02-2004 15:09:28 4.4 C 2.87 g/m*3 4.4 C 0 km/h
677 21-02-2004 15:21:01 4.8 C 2.88 g/m*3 4.8 C 0 km/h
678 21-02-2004 15:33:01 5.3 C 2.84 g/m*3 5.3 C 0 km/h
679 21-02-2004 15:45:00 5.5 C 2.88 g/m*3 5.5 C 0 km/h
680 21-02-2004 15:57:00 5.5 C 2.88 g/m*3 5.5 C 0 km/h
681 21-02-2004 16:09:00 5.8 C 2.94 g/m*3 5.8 C 0 km/h
682 21-02-2004 16:21:59 5.7 C 2.85 g/m*3 5.7 C 0 km/h
683 21-02-2004 16:33:57 5.5 C 2.88 g/m*3 5.5 C 0 km/h
684 21-02-2004 16:45:02 5.1 C 2.87 g/m*3 5.1 C 0 km/h
685 21-02-2004 16:57:02 4.8 C 2.88 g/m*3 4.8 C 0 km/h
686 21-02-2004 17:09:04 4.6 C 2.91 g/m*3 4.6 C 0 km/h
687 21-02-2004 17:21:02 4.4 C 2.94 g/m*3 4.4 C 0 km/h
688 21-02-2004 17:33:02 4.3 C 2.92 g/m*3 4.3 C 0 km/h
689 21-02-2004 17:45:02 4.2 C 2.9 g/m*3 4.2 C 0 km/h
690 21-02-2004 17:57:02 4.1 C 2.94 g/m*3 4.1 C 0 km/h
691 21-02-2004 18:09:01 3.9 C 2.97 g/m*3 3.9 C 0 km/h
692 21-02-2004 18:21:59 3.8 C 3.07 g/m*3 3.8 C 0 km/h
693 21-02-2004 18:33:59 3.7 C 2.99 g/m*3 3.7 C 0 km/h
694 21-02-2004 18:45:01 3.7 C 3.12 g/m*3 3.7 C 0 km/h
695 21-02-2004 18:57:01 3.6 C 3.1 g/m*3 3.6 C 0 km/h
696 21-02-2004 19:09:01 3.4 C 3.11 g/m*3 3.4 C 0 km/h
697 21-02-2004 19:21:00 3 C 3.03 g/m*3 3 C 0 km/h
698 21-02-2004 19:33:00 2.7 C 3.09 g/m*3 2.7 C 0 km/h
699 21-02-2004 19:45:01 2.5 C 3.1 g/m*3 2.5 C 0 km/h
700 21-02-2004 19:57:01 2.5 C 3.16 g/m*3 2.5 C 0 km/h
Sensor: Nr:Datum:Temp:Abs-Feuchte:Windchill:Wind:
Aussen-T/F 701 21-02-2004 20:09:01 2.6 C 3.18 g/m*3 2.6 C 0 km/h
702 21-02-2004 20:21:01 2.7 C 3.2 g/m*3 2.7 C 0 km/h
703 21-02-2004 20:33:01 2.8 C 3.28 g/m*3 2.8 C 0 km/h
704 21-02-2004 20:45:01 2.9 C 3.25 g/m*3 2.9 C 0 km/h
705 21-02-2004 20:57:01 2.8 C 3.23 g/m*3 2.8 C 0 km/h
706 21-02-2004 21:09:01 2.8 C 3.28 g/m*3 2.8 C 0 km/h
707 21-02-2004 21:21:01 2.4 C 3.2 g/m*3 2.4 C 0 km/h
708 21-02-2004 21:33:01 1.9 C 3.2 g/m*3 1.9 C 0 km/h
709 21-02-2004 21:45:00 1.6 C 3.19 g/m*3 1.6 C 0 km/h
710 21-02-2004 21:57:00 1.4 C 3.15 g/m*3 1.4 C 0 km/h
711 21-02-2004 22:09:00 1.2 C 3.16 g/m*3 1.2 C 0 km/h
712 21-02-2004 22:21:58 1.1 C 3.19 g/m*3 1.1 C 0 km/h
713 21-02-2004 22:33:57 0.9 C 3.2 g/m*3 0.9 C 0 km/h
714 21-02-2004 22:45:01 0.9 C 3.2 g/m*3 0.9 C 0 km/h
715 21-02-2004 22:57:01 0.7 C 3.2 g/m*3 0.7 C 0 km/h
716 21-02-2004 23:09:01 0.6 C 3.23 g/m*3 0.6 C 0 km/h
717 21-02-2004 23:21:01 0.4 C 3.24 g/m*3 0.4 C 0 km/h
718 21-02-2004 23:33:01 0.3 C 3.22 g/m*3 0.3 C 0 km/h
719 21-02-2004 23:45:01 0.3 C 3.26 g/m*3 0.3 C 0 km/h
720 21-02-2004 23:57:01 0.1 C 3.22 g/m*3 0.1 C 0 km/h
721 22-02-2004 00:09:01 0.2 C 3.24 g/m*3 0.2 C 0 km/h
722 22-02-2004 00:21:01 0.1 C 3.22 g/m*3 0.1 C 0 km/h
723 22-02-2004 00:33:01 0 C 3.2 g/m*3 0 C 0 km/h
724 22-02-2004 00:45:00 0 C 3.15 g/m*3 0 C 0 km/h
725 22-02-2004 00:57:00 -0.1 C 3.18 g/m*3 -0.1 C 0 km/h
Sensor: Nr:Datum:Temp:Abs-Feuchte:Windchill:Wind:
Aussen-T/F 726 22-02-2004 01:09:00 -0.2 C 3.2 g/m*3 -0.2 C 0 km/h
727 22-02-2004 01:21:59 -0.1 C 3.22 g/m*3 -0.1 C 0 km/h
728 22-02-2004 01:33:57 -0.1 C 3.27 g/m*3 -0.1 C 0 km/h
729 22-02-2004 01:45:01 0 C 3.25 g/m*3 0 C 0 km/h
730 22-02-2004 01:57:01 0.2 C 3.29 g/m*3 0.2 C 0 km/h
731 22-02-2004 02:09:01 0.3 C 3.31 g/m*3 0.3 C 0 km/h
732 22-02-2004 02:21:01 0.2 C 3.24 g/m*3 0.2 C 0 km/h
733 22-02-2004 02:33:01 0.1 C 3.27 g/m*3 0.1 C 0 km/h
734 22-02-2004 02:46:01 -0.1 C 3.22 g/m*3 -0.1 C 0 km/h
735 22-02-2004 02:58:01 -0.2 C 3.25 g/m*3 -0.2 C 0 km/h
736 22-02-2004 03:10:00 -0.3 C 3.27 g/m*3 -0.3 C 0 km/h
737 22-02-2004 03:22:00 -0.3 C 3.27 g/m*3 -0.3 C 0 km/h
738 22-02-2004 03:34:01 -0.1 C 3.32 g/m*3 -0.1 C 0 km/h
739 22-02-2004 03:46:01 0.2 C 3.34 g/m*3 0.2 C 0 km/h
740 22-02-2004 03:58:01 0.1 C 3.37 g/m*3 0.1 C 0 km/h
741 22-02-2004 04:10:00 0.1 C 3.37 g/m*3 0.1 C 0 km/h
742 22-02-2004 04:22:00 0.2 C 3.34 g/m*3 0.2 C 0 km/h
743 22-02-2004 04:34:00 0.2 C 3.34 g/m*3 0.2 C 0 km/h
744 22-02-2004 04:46:01 0.3 C 3.36 g/m*3 0.3 C 0 km/h
745 22-02-2004 04:58:01 0.4 C 3.34 g/m*3 0.4 C 0 km/h
746 22-02-2004 05:10:01 0.4 C 3.34 g/m*3 0.4 C 0 km/h
747 22-02-2004 05:22:01 0.4 C 3.39 g/m*3 0.4 C 0 km/h
748 22-02-2004 05:34:00 0.4 C 3.44 g/m*3 0.4 C 0 km/h
749 22-02-2004 05:46:01 0.4 C 3.44 g/m*3 0.4 C 0 km/h
750 22-02-2004 05:58:01 0.4 C 3.44 g/m*3 0.4 C 0 km/h
Sensor: Nr:Datum:Temp:Abs-Feuchte:Windchill:Wind:
Aussen-T/F 751 22-02-2004 06:10:01 0.4 C 3.44 g/m*3 0.4 C 0 km/h
752 22-02-2004 06:22:01 0.4 C 3.44 g/m*3 0.4 C 0 km/h
753 22-02-2004 06:34:01 0.5 C 3.46 g/m*3 0.5 C 0 km/h
754 22-02-2004 06:46:00 0.4 C 3.44 g/m*3 0.4 C 0 km/h
755 22-02-2004 06:58:00 0.4 C 3.49 g/m*3 0.4 C 0 km/h
756 22-02-2004 07:10:00 0.5 C 3.46 g/m*3 0.5 C 0 km/h
757 22-02-2004 07:22:58 0.6 C 3.48 g/m*3 0.6 C 0 km/h
758 22-02-2004 07:34:57 0.7 C 3.46 g/m*3 0.7 C 0 km/h
759 22-02-2004 07:46:01 1 C 3.48 g/m*3 1 C 0 km/h
760 22-02-2004 07:58:01 1.2 C 3.47 g/m*3 1.2 C 0 km/h
761 22-02-2004 08:10:01 1.3 C 3.5 g/m*3 1.3 C 0 km/h
762 22-02-2004 08:22:01 1.4 C 3.52 g/m*3 1.4 C 0 km/h
763 22-02-2004 08:34:01 1.5 C 3.54 g/m*3 1.5 C 0 km/h
764 22-02-2004 08:46:00 1.6 C 3.51 g/m*3 1.6 C 0 km/h
765 22-02-2004 08:58:00 1.7 C 3.54 g/m*3 1.7 C 0 km/h
766 22-02-2004 09:10:59 1.8 C 3.56 g/m*3 1.8 C 0 km/h
767 22-02-2004 09:22:58 1.8 C 3.56 g/m*3 1.8 C 0 km/h
768 22-02-2004 09:34:57 2 C 3.61 g/m*3 2 C 0 km/h
769 22-02-2004 09:46:01 1.9 C 3.64 g/m*3 1.9 C 0 km/h
770 22-02-2004 09:58:01 1.9 C 3.64 g/m*3 1.9 C 0 km/h
771 22-02-2004 10:10:01 1.8 C 3.62 g/m*3 1.8 C 0 km/h
772 22-02-2004 10:22:01 1.6 C 3.57 g/m*3 1.6 C 0 km/h
773 22-02-2004 10:34:00 1.7 C 3.59 g/m*3 1.7 C 0 km/h
774 22-02-2004 10:46:16 1.5 C 3.54 g/m*3 1.5 C 0 km/h
775 22-02-2004 10:58:01 1.7 C 3.59 g/m*3 1.7 C 0 km/h
Sensor: Nr:Datum:Temp:Abs-Feuchte:Windchill:Wind:
Aussen-T/F 776 22-02-2004 11:10:01 1.8 C 3.62 g/m*3 1.8 C 0 km/h
777 22-02-2004 11:22:01 1.7 C 3.59 g/m*3 1.7 C 0 km/h
778 22-02-2004 11:34:01 1.9 C 3.64 g/m*3 1.9 C 0 km/h
779 22-02-2004 11:46:40 2.1 C 3.58 g/m*3 2.1 C 0 km/h
780 22-02-2004 11:58:00 2 C 3.5 g/m*3 2 C 0 km/h
781 22-02-2004 12:10:00 1.9 C 3.59 g/m*3 1.9 C 0 km/h
782 22-02-2004 12:22:59 1.6 C 3.46 g/m*3 1.6 C 0 km/h
783 22-02-2004 12:34:58 2 C 3.5 g/m*3 2 C 0 km/h
784 22-02-2004 12:46:01 1.9 C 3.48 g/m*3 1.9 C 0 km/h
785 22-02-2004 12:58:01 2.1 C 3.47 g/m*3 2.1 C 0 km/h
786 22-02-2004 13:10:01 2.3 C 3.4 g/m*3 2.3 C 0 km/h
787 22-02-2004 13:22:01 2.5 C 3.33 g/m*3 2.5 C 0 km/h
788 22-02-2004 13:34:01 2.8 C 3.4 g/m*3 2.8 C 0 km/h
789 22-02-2004 13:46:00 2.8 C 3.28 g/m*3 2.8 C 0 km/h
790 22-02-2004 13:58:00 3.3 C 3.28 g/m*3 3.3 C 0 km/h
791 22-02-2004 14:10:00 3.3 C 3.22 g/m*3 3.3 C 0 km/h
792 22-02-2004 14:22:59 3.4 C 3.18 g/m*3 3.4 C 0 km/h
793 22-02-2004 14:34:57 3.6 C 3.16 g/m*3 3.6 C 0 km/h
794 22-02-2004 14:46:01 4 C 3.12 g/m*3 4 C 0 km/h
795 22-02-2004 14:58:01 4.3 C 2.98 g/m*3 4.3 C 0 km/h
796 22-02-2004 15:10:01 4.5 C 2.89 g/m*3 4.5 C 0 km/h
797 22-02-2004 15:22:01 5.1 C 2.8 g/m*3 5.1 C 0 km/h
798 22-02-2004 15:34:01 5.4 C 2.65 g/m*3 5.4 C 0 km/h
799 22-02-2004 15:46:00 5.8 C 2.65 g/m*3 5.8 C 0 km/h
800 22-02-2004 15:58:00 5.5 C 2.53 g/m*3 5.5 C 0 km/h
Sensor: Nr:Datum:Temp:Abs-Feuchte:Windchill:Wind:
Aussen-T/F 801 22-02-2004 16:09:59 4.8 C 2.75 g/m*3 4.8 C 0 km/h
802 22-02-2004 16:22:58 4.7 C 2.86 g/m*3 4.7 C 0 km/h
803 22-02-2004 16:34:57 4.6 C 2.98 g/m*3 4.6 C 0 km/h
804 22-02-2004 16:46:01 4.4 C 3 g/m*3 4.4 C 0 km/h
805 22-02-2004 16:58:01 4.1 C 2.94 g/m*3 4.1 C 0 km/h
806 22-02-2004 17:10:01 3.9 C 2.97 g/m*3 3.9 C 0 km/h
807 22-02-2004 17:22:01 3.7 C 2.93 g/m*3 3.7 C 0 km/h
808 22-02-2004 17:34:01 3.6 C 2.97 g/m*3 3.6 C 0 km/h
809 22-02-2004 17:46:01 3.6 C 3.03 g/m*3 3.6 C 0 km/h
810 22-02-2004 17:58:01 3.6 C 3.03 g/m*3 3.6 C 0 km/h
811 22-02-2004 18:10:01 3.5 C 3.01 g/m*3 3.5 C 0 km/h
812 22-02-2004 18:22:01 3.5 C 3.07 g/m*3 3.5 C 0 km/h
813 22-02-2004 18:34:01 3.5 C 3.07 g/m*3 3.5 C 0 km/h
814 22-02-2004 18:46:00 3.5 C 3.14 g/m*3 3.5 C 0 km/h
815 22-02-2004 18:58:00 3.5 C 3.14 g/m*3 3.5 C 0 km/h
816 22-02-2004 19:10:00 3.5 C 3.2 g/m*3 3.5 C 0 km/h
817 22-02-2004 19:22:59 3.5 C 3.26 g/m*3 3.5 C 0 km/h
818 22-02-2004 19:34:57 3.3 C 3.22 g/m*3 3.3 C 0 km/h
819 22-02-2004 19:46:01 2.7 C 3.26 g/m*3 2.7 C 0 km/h
820 22-02-2004 19:58:01 2.4 C 3.31 g/m*3 2.4 C 0 km/h
821 22-02-2004 20:10:01 2.5 C 3.33 g/m*3 2.5 C 0 km/h
822 22-02-2004 20:22:01 2.6 C 3.41 g/m*3 2.6 C 0 km/h
823 22-02-2004 20:34:01 2.7 C 3.38 g/m*3 2.7 C 0 km/h
824 22-02-2004 20:46:00 2.8 C 3.4 g/m*3 2.8 C 0 km/h
825 22-02-2004 20:58:00 2.9 C 3.48 g/m*3 2.9 C 0 km/h
Sensor: Nr:Datum:Temp:Abs-Feuchte:Windchill:Wind:
Aussen-T/F 826 22-02-2004 21:10:59 2.9 C 3.54 g/m*3 2.9 C 0 km/h
827 22-02-2004 21:22:58 3 C 3.45 g/m*3 3 C 0 km/h
828 22-02-2004 21:34:57 3 C 3.45 g/m*3 3 C 0 km/h
829 22-02-2004 21:46:01 3 C 3.45 g/m*3 3 C 0 km/h
830 22-02-2004 21:58:01 3.1 C 3.47 g/m*3 3.1 C 0 km/h
831 22-02-2004 22:10:01 3.1 C 3.35 g/m*3 3.1 C 0 km/h
832 22-02-2004 22:22:01 3 C 3.15 g/m*3 3 C 0 km/h
833 22-02-2004 22:34:01 2.8 C 2.99 g/m*3 2.8 C 0 km/h
834 22-02-2004 22:46:01 2.6 C 2.84 g/m*3 2.6 C 0 km/h
835 22-02-2004 22:58:01 2.2 C 2.7 g/m*3 2.2 C 0 km/h
836 22-02-2004 23:10:01 2 C 2.61 g/m*3 2 C 0 km/h
837 22-02-2004 23:22:01 1.8 C 2.63 g/m*3 1.8 C 0 km/h
838 22-02-2004 23:34:01 1.5 C 2.69 g/m*3 1.5 C 0 km/h
839 22-02-2004 23:46:00 1.3 C 2.7 g/m*3 1.3 C 0 km/h
840 22-02-2004 23:58:00 1.1 C 2.72 g/m*3 1.1 C 0 km/h
841 23-02-2004 00:10:00 0.8 C 2.76 g/m*3 0.8 C 0 km/h
842 23-02-2004 00:22:59 0.8 C 2.82 g/m*3 0.8 C 0 km/h
843 23-02-2004 00:34:57 0.6 C 2.83 g/m*3 0.6 C 0 km/h
844 23-02-2004 00:46:01 0.4 C 2.79 g/m*3 0.4 C 0 km/h
845 23-02-2004 00:58:01 0.3 C 2.82 g/m*3 0.3 C 0 km/h
846 23-02-2004 01:10:01 0.2 C 2.85 g/m*3 0.2 C 0 km/h
847 23-02-2004 01:22:01 0 C 2.91 g/m*3 0 C 0 km/h
848 23-02-2004 01:34:01 -0.3 C 2.89 g/m*3 -0.3 C 0 km/h
849 23-02-2004 01:46:00 -0.4 C 2.87 g/m*3 -0.4 C 0 km/h
850 23-02-2004 01:58:00 -0.3 C 2.94 g/m*3 -0.3 C 0 km/h
Sensor: Nr:Datum:Temp:Abs-Feuchte:Windchill:Wind:
Aussen-T/F 851 23-02-2004 02:09:59 -0.3 C 2.94 g/m*3 -0.3 C 0 km/h
852 23-02-2004 02:22:58 -0.6 C 2.93 g/m*3 -0.6 C 0 km/h
853 23-02-2004 02:34:57 -0.9 C 2.87 g/m*3 -0.9 C 0 km/h
854 23-02-2004 02:47:02 -0.9 C 2.96 g/m*3 -0.9 C 0 km/h
855 23-02-2004 02:59:02 -1 C 2.98 g/m*3 -1 C 0 km/h
856 23-02-2004 03:11:02 -1.1 C 3.01 g/m*3 -1.1 C 0 km/h
857 23-02-2004 03:23:02 -1.1 C 3.01 g/m*3 -1.1 C 0 km/h
858 23-02-2004 03:35:00 -1.5 C 2.92 g/m*3 -1.5 C 0 km/h
859 23-02-2004 03:47:00 -1.7 C 2.97 g/m*3 -1.7 C 0 km/h
860 23-02-2004 03:59:00 -1.9 C 2.97 g/m*3 -1.9 C 0 km/h
861 23-02-2004 04:11:00 -1.6 C 3.08 g/m*3 -1.6 C 0 km/h
862 23-02-2004 04:23:59 -1.4 C 3.08 g/m*3 -1.4 C 0 km/h
863 23-02-2004 04:35:57 -1.4 C 3.08 g/m*3 -1.4 C 0 km/h
864 23-02-2004 04:47:01 -1.4 C 3.08 g/m*3 -1.4 C 0 km/h
865 23-02-2004 04:59:01 -1.4 C 3.03 g/m*3 -1.4 C 0 km/h
866 23-02-2004 05:11:01 -1.4 C 3.08 g/m*3 -1.4 C 0 km/h
867 23-02-2004 05:23:01 -1 C 3.12 g/m*3 -1 C 0 km/h
868 23-02-2004 05:35:01 -0.9 C 3.1 g/m*3 -0.9 C 0 km/h
869 23-02-2004 05:47:00 -0.9 C 3.05 g/m*3 -0.9 C 0 km/h
870 23-02-2004 05:59:00 -0.9 C 3.05 g/m*3 -0.9 C 0 km/h
871 23-02-2004 06:11:00 -0.8 C 3.12 g/m*3 -0.8 C 0 km/h
872 23-02-2004 06:23:58 -0.7 C 3.09 g/m*3 -0.7 C 0 km/h
873 23-02-2004 06:35:57 -0.7 C 3.14 g/m*3 -0.7 C 0 km/h
874 23-02-2004 06:47:01 -0.7 C 3.14 g/m*3 -0.7 C 0 km/h
875 23-02-2004 06:59:01 -0.6 C 3.16 g/m*3 -0.6 C 0 km/h
Sensor: Nr:Datum:Temp:Abs-Feuchte:Windchill:Wind:
Aussen-T/F 876 23-02-2004 07:11:01 -0.6 C 3.16 g/m*3 -0.6 C 0 km/h
877 23-02-2004 07:23:01 -0.6 C 3.16 g/m*3 -0.6 C 0 km/h
878 23-02-2004 07:35:01 -0.5 C 3.18 g/m*3 -0.5 C 0 km/h
879 23-02-2004 07:47:01 -0.4 C 3.2 g/m*3 -0.4 C 0 km/h
880 23-02-2004 07:59:01 -0.4 C 3.2 g/m*3 -0.4 C 0 km/h
881 23-02-2004 08:11:01 -0.3 C 3.23 g/m*3 -0.3 C 0 km/h
882 23-02-2004 08:23:01 -0.3 C 3.23 g/m*3 -0.3 C 0 km/h
883 23-02-2004 08:35:01 -0.3 C 3.23 g/m*3 -0.3 C 0 km/h
884 23-02-2004 08:47:00 -0.4 C 3.25 g/m*3 -0.4 C 0 km/h
885 23-02-2004 08:59:00 -0.1 C 3.32 g/m*3 -0.1 C 0 km/h
886 23-02-2004 09:11:00 0.2 C 3.34 g/m*3 0.2 C 0 km/h
887 23-02-2004 09:23:59 0.5 C 3.31 g/m*3 0.5 C 0 km/h
888 23-02-2004 09:35:57 0.7 C 3.3 g/m*3 0.7 C 0 km/h
889 23-02-2004 09:47:23 0.8 C 3.33 g/m*3 0.8 C 0 km/h
890 23-02-2004 09:59:02 1.1 C 3.29 g/m*3 1.1 C 0 km/h
891 23-02-2004 10:02:24 0.8 C 3.28 g/m*3 0.8 C 0 km/h
892 23-02-2004 10:05:01 0.8 C 3.28 g/m*3 0.8 C 0 km/h
893 23-02-2004 10:14:01 1 C 3.27 g/m*3 1 C 0 km/h
894 23-02-2004 10:26:01 1 C 3.27 g/m*3 1 C 0 km/h
895 23-02-2004 10:38:01 1 C 3.27 g/m*3 1 C 0 km/h
896 23-02-2004 10:50:01 1.3 C 3.34 g/m*3 1.3 C 0 km/h
897 23-02-2004 11:13:59 1.4 C 3.31 g/m*3 1.4 C 0 km/h
898 23-02-2004 11:14:58 1.5 C 3.22 g/m*3 1.5 C 0 km/h
899 23-02-2004 11:26:58 1.9 C 3.15 g/m*3 1.9 C 0 km/h
900 23-02-2004 11:38:57 1.9 C 3.2 g/m*3 1.9 C 0 km/h
Sensor: Nr:Datum:Temp:Abs-Feuchte:Windchill:Wind:
Aussen-T/F 901 23-02-2004 11:50:01 2.5 C 3.22 g/m*3 2.5 C 0 km/h
902 23-02-2004 12:02:01 2.2 C 3.15 g/m*3 2.2 C 0 km/h
903 23-02-2004 12:14:01 2.6 C 3.3 g/m*3 2.6 C 0 km/h
904 23-02-2004 12:26:01 2.8 C 3.23 g/m*3 2.8 C 0 km/h
905 23-02-2004 12:38:01 3 C 3.03 g/m*3 3 C 0 km/h
906 23-02-2004 12:50:01 3.8 C 3.01 g/m*3 3.8 C 0 km/h
907 23-02-2004 13:02:01 3.7 C 2.8 g/m*3 3.7 C 0 km/h
908 23-02-2004 13:14:01 4.1 C 2.82 g/m*3 4.1 C 0 km/h
909 23-02-2004 13:26:01 4.3 C 2.79 g/m*3 4.3 C 0 km/h
910 23-02-2004 13:38:01 4.6 C 2.78 g/m*3 4.6 C 0 km/h
911 23-02-2004 13:50:00 5 C 2.65 g/m*3 5 C 0 km/h
912 23-02-2004 14:02:00 3.6 C 2.85 g/m*3 3.6 C 0 km/h
913 23-02-2004 14:14:00 1.7 C 3.27 g/m*3 1.7 C 0 km/h
914 23-02-2004 14:26:59 2.1 C 3.19 g/m*3 2.1 C 0 km/h
915 23-02-2004 14:38:57 3 C 3.09 g/m*3 3 C 0 km/h
916 23-02-2004 14:50:01 3.3 C 3.22 g/m*3 3.3 C 0 km/h
917 23-02-2004 15:02:01 4.2 C 3.22 g/m*3 4.2 C 0 km/h
918 23-02-2004 15:14:01 4.9 C 3.17 g/m*3 4.9 C 0 km/h
919 23-02-2004 15:26:01 3.6 C 2.91 g/m*3 3.6 C 0 km/h
920 23-02-2004 15:38:01 2.9 C 3.01 g/m*3 2.9 C 0 km/h
921 23-02-2004 15:50:01 2.7 C 2.85 g/m*3 2.7 C 0 km/h
922 23-02-2004 16:02:59 3.1 C 2.69 g/m*3 3.1 C 0 km/h
923 23-02-2004 16:13:59 3.6 C 2.6 g/m*3 3.6 C 0 km/h
924 23-02-2004 16:26:58 3.2 C 2.29 g/m*3 3.2 C 0 km/h
925 23-02-2004 16:38:57 3.5 C 2.28 g/m*3 3.5 C 0 km/h
Sensor: Nr:Datum:Temp:Abs-Feuchte:Windchill:Wind:
Aussen-T/F 926 23-02-2004 16:50:01 3.8 C 2.2 g/m*3 3.8 C 0 km/h
927 23-02-2004 17:02:01 3.8 C 2.2 g/m*3 3.8 C 0 km/h
928 23-02-2004 17:14:01 3.7 C 2.18 g/m*3 3.7 C 0 km/h
929 23-02-2004 17:26:01 3.2 C 2.23 g/m*3 3.2 C 0 km/h
930 23-02-2004 17:38:01 2.6 C 2.31 g/m*3 2.6 C 0 km/h
931 23-02-2004 17:50:01 2.4 C 2.4 g/m*3 2.4 C 0 km/h
932 23-02-2004 18:02:01 2.3 C 2.55 g/m*3 2.3 C 0 km/h
933 23-02-2004 18:14:01 2 C 2.78 g/m*3 2 C 0 km/h
934 23-02-2004 18:26:01 1.5 C 2.9 g/m*3 1.5 C 0 km/h
935 23-02-2004 18:38:01 1 C 2.91 g/m*3 1 C 0 km/h
936 23-02-2004 18:50:00 0.6 C 2.98 g/m*3 0.6 C 0 km/h
937 23-02-2004 19:02:00 0.2 C 2.95 g/m*3 0.2 C 0 km/h
938 23-02-2004 19:14:00 0.2 C 2.9 g/m*3 0.2 C 0 km/h
939 23-02-2004 19:26:59 -0.2 C 2.87 g/m*3 -0.2 C 0 km/h
940 23-02-2004 19:38:58 -0.5 C 2.86 g/m*3 -0.5 C 0 km/h
941 23-02-2004 19:50:01 -0.5 C 2.86 g/m*3 -0.5 C 0 km/h
942 23-02-2004 20:02:01 -0.8 C 2.84 g/m*3 -0.8 C 0 km/h
943 23-02-2004 20:14:01 -0.9 C 2.91 g/m*3 -0.9 C 0 km/h
944 23-02-2004 20:26:01 -1 C 2.94 g/m*3 -1 C 0 km/h
945 23-02-2004 20:38:01 -1.3 C 2.88 g/m*3 -1.3 C 0 km/h
946 23-02-2004 20:50:00 -1.3 C 2.97 g/m*3 -1.3 C 0 km/h
947 23-02-2004 21:02:00 -1.6 C 2.9 g/m*3 -1.6 C 0 km/h
948 23-02-2004 21:14:00 -1.8 C 2.86 g/m*3 -1.8 C 0 km/h
949 23-02-2004 21:26:59 -2 C 2.82 g/m*3 -2 C 0 km/h
950 23-02-2004 21:38:57 -2.1 C 2.85 g/m*3 -2.1 C 0 km/h
Sensor: Nr:Datum:Temp:Abs-Feuchte:Windchill:Wind:
Aussen-T/F 951 23-02-2004 21:50:01 -2.3 C 2.81 g/m*3 -2.3 C 0 km/h
952 23-02-2004 22:02:01 -2.3 C 2.85 g/m*3 -2.3 C 0 km/h
953 23-02-2004 22:14:01 -2.4 C 2.83 g/m*3 -2.4 C 0 km/h
954 23-02-2004 22:26:01 -2.4 C 2.83 g/m*3 -2.4 C 0 km/h
955 23-02-2004 22:38:01 -2.6 C 2.83 g/m*3 -2.6 C 0 km/h
956 23-02-2004 22:50:00 -2.6 C 2.83 g/m*3 -2.6 C 0 km/h
957 23-02-2004 23:02:59 -2.7 C 2.85 g/m*3 -2.7 C 0 km/h
958 23-02-2004 23:14:58 -3 C 2.79 g/m*3 -3 C 0 km/h
959 23-02-2004 23:26:58 -2.9 C 2.85 g/m*3 -2.9 C 0 km/h
960 23-02-2004 23:38:57 -2.9 C 2.85 g/m*3 -2.9 C 0 km/h
961 23-02-2004 23:50:01 -3 C 2.87 g/m*3 -3 C 0 km/h
962 24-02-2004 00:02:01 -3.2 C 2.83 g/m*3 -3.2 C 0 km/h
963 24-02-2004 00:14:01 -3.2 C 2.83 g/m*3 -3.2 C 0 km/h
964 24-02-2004 00:26:01 -3.4 C 2.75 g/m*3 -3.4 C 0 km/h
965 24-02-2004 00:38:01 -3.2 C 2.79 g/m*3 -3.2 C 0 km/h
966 24-02-2004 00:50:01 -3.4 C 2.79 g/m*3 -3.4 C 0 km/h
967 24-02-2004 01:02:01 -3.5 C 2.77 g/m*3 -3.5 C 0 km/h
968 24-02-2004 01:14:01 -3.7 C 2.77 g/m*3 -3.7 C 0 km/h
969 24-02-2004 01:26:01 -3.7 C 2.77 g/m*3 -3.7 C 0 km/h
970 24-02-2004 01:38:01 -3.8 C 2.75 g/m*3 -3.8 C 0 km/h
971 24-02-2004 01:50:00 -4 C 2.71 g/m*3 -4 C 0 km/h
972 24-02-2004 02:02:00 -4 C 2.71 g/m*3 -4 C 0 km/h
973 24-02-2004 02:14:00 -4 C 2.71 g/m*3 -4 C 0 km/h
974 24-02-2004 02:26:58 -4.2 C 2.67 g/m*3 -4.2 C 0 km/h
975 24-02-2004 02:38:57 -4.3 C 2.65 g/m*3 -4.3 C 0 km/h
Sensor: Nr:Datum:Temp:Abs-Feuchte:Windchill:Wind:
Aussen-T/F 976 24-02-2004 02:51:03 -4.5 C 2.61 g/m*3 -4.5 C 0 km/h
977 24-02-2004 03:03:03 -4.6 C 2.59 g/m*3 -4.6 C 0 km/h
978 24-02-2004 03:15:02 -4.6 C 2.59 g/m*3 -4.6 C 0 km/h
979 24-02-2004 03:27:02 -4.8 C 2.56 g/m*3 -4.8 C 0 km/h
980 24-02-2004 03:39:00 -4.8 C 2.56 g/m*3 -4.8 C 0 km/h
981 24-02-2004 03:51:00 -5.1 C 2.47 g/m*3 -5.1 C 0 km/h
982 24-02-2004 04:03:00 -4.9 C 2.5 g/m*3 -4.9 C 0 km/h
983 24-02-2004 04:15:59 -5 C 2.49 g/m*3 -5 C 0 km/h
984 24-02-2004 04:27:59 -5.3 C 2.43 g/m*3 -5.3 C 0 km/h
985 24-02-2004 04:39:58 -5.2 C 2.45 g/m*3 -5.2 C 0 km/h
986 24-02-2004 04:51:01 -5.3 C 2.43 g/m*3 -5.3 C 0 km/h
987 24-02-2004 05:03:01 -5.6 C 2.38 g/m*3 -5.6 C 0 km/h
988 24-02-2004 05:15:01 -5.7 C 2.36 g/m*3 -5.7 C 0 km/h
989 24-02-2004 05:27:01 -5.6 C 2.38 g/m*3 -5.6 C 0 km/h
990 24-02-2004 05:39:01 -5.6 C 2.38 g/m*3 -5.6 C 0 km/h
991 24-02-2004 05:51:00 -5.8 C 2.35 g/m*3 -5.8 C 0 km/h
992 24-02-2004 06:03:00 -5.8 C 2.35 g/m*3 -5.8 C 0 km/h
993 24-02-2004 06:15:59 -6 C 2.31 g/m*3 -6 C 0 km/h
994 24-02-2004 06:27:59 -6.1 C 2.3 g/m*3 -6.1 C 0 km/h
995 24-02-2004 06:39:57 -6.1 C 2.3 g/m*3 -6.1 C 0 km/h
996 24-02-2004 06:51:01 -6.1 C 2.3 g/m*3 -6.1 C 0 km/h
997 24-02-2004 07:03:01 -6.2 C 2.25 g/m*3 -6.2 C 0 km/h
998 24-02-2004 07:15:01 -6.2 C 2.28 g/m*3 -6.2 C 0 km/h
999 24-02-2004 07:27:01 -6.1 C 2.26 g/m*3 -6.1 C 0 km/h
1000 24-02-2004 07:39:01 -6 C 2.28 g/m*3 -6 C 0 km/h
Sensor: Nr:Datum:Temp:Abs-Feuchte:Windchill:Wind:
Aussen-T/F 1001 24-02-2004 07:51:00 -5.7 C 2.3 g/m*3 -5.7 C 0 km/h
1002 24-02-2004 08:03:59 -5.5 C 2.3 g/m*3 -5.5 C 0 km/h
1003 24-02-2004 08:15:58 -5.3 C 2.3 g/m*3 -5.3 C 0 km/h
1004 24-02-2004 08:27:58 -4.8 C 2.38 g/m*3 -4.8 C 0 km/h
1005 24-02-2004 08:39:57 -4.4 C 2.38 g/m*3 -4.4 C 0 km/h
1006 24-02-2004 08:51:01 -4.4 C 2.38 g/m*3 -4.4 C 0 km/h
1007 24-02-2004 09:03:01 -4.1 C 2.43 g/m*3 -4.1 C 0 km/h
1008 24-02-2004 09:15:01 -3.9 C 2.47 g/m*3 -3.9 C 0 km/h
1009 24-02-2004 09:27:01 -3.5 C 2.54 g/m*3 -3.5 C 0 km/h
1010 24-02-2004 09:39:01 -3.1 C 2.57 g/m*3 -3.1 C 0 km/h
1011 24-02-2004 09:51:01 -2.6 C 2.63 g/m*3 -2.6 C 0 km/h
1012 24-02-2004 10:03:01 -2.3 C 2.64 g/m*3 -2.3 C 0 km/h
1013 24-02-2004 10:15:01 -1.9 C 2.72 g/m*3 -1.9 C 0 km/h
1014 24-02-2004 10:27:01 -1.4 C 2.73 g/m*3 -1.4 C 0 km/h
1015 24-02-2004 10:39:01 -1.1 C 2.74 g/m*3 -1.1 C 0 km/h
1016 24-02-2004 10:51:01 -0.6 C 2.79 g/m*3 -0.6 C 0 km/h
1017 24-02-2004 11:03:01 -0.1 C 2.84 g/m*3 -0.1 C 0 km/h
1018 24-02-2004 11:15:01 0 C 2.71 g/m*3 0 C 0 km/h
1019 24-02-2004 11:27:01 0.2 C 2.75 g/m*3 0.2 C 0 km/h
1020 24-02-2004 11:39:01 0.5 C 2.76 g/m*3 0.5 C 0 km/h
1021 24-02-2004 11:51:01 0.8 C 2.66 g/m*3 0.8 C 0 km/h
1022 24-02-2004 12:03:01 1.3 C 2.7 g/m*3 1.3 C 0 km/h
1023 24-02-2004 12:15:01 1.9 C 2.76 g/m*3 1.9 C 0 km/h
1024 24-02-2004 12:27:01 2.3 C 2.61 g/m*3 2.3 C 0 km/h
1025 24-02-2004 12:39:01 2.3 C 2.55 g/m*3 2.3 C 0 km/h
Sensor: Nr:Datum:Temp:Abs-Feuchte:Windchill:Wind:
Aussen-T/F 1026 24-02-2004 12:51:01 2.5 C 2.53 g/m*3 2.5 C 0 km/h
1027 24-02-2004 13:03:02 2.6 C 2.43 g/m*3 2.6 C 0 km/h
1028 24-02-2004 13:15:01 3.1 C 2.39 g/m*3 3.1 C 0 km/h
1029 24-02-2004 13:27:01 3.1 C 2.39 g/m*3 3.1 C 0 km/h
1030 24-02-2004 13:39:01 3.4 C 2.44 g/m*3 3.4 C 0 km/h
1031 24-02-2004 13:51:01 3.8 C 2.51 g/m*3 3.8 C 0 km/h
1032 24-02-2004 14:03:01 3.3 C 2.49 g/m*3 3.3 C 0 km/h
1033 24-02-2004 14:15:01 3.4 C 2.63 g/m*3 3.4 C 0 km/h
1034 24-02-2004 14:27:01 3.5 C 2.71 g/m*3 3.5 C 0 km/h
1035 24-02-2004 14:39:01 3.5 C 2.83 g/m*3 3.5 C 0 km/h
1036 24-02-2004 14:51:00 3.3 C 2.79 g/m*3 3.3 C 0 km/h
1037 24-02-2004 15:03:00 3.3 C 2.79 g/m*3 3.3 C 0 km/h
1038 24-02-2004 15:15:59 3.2 C 2.83 g/m*3 3.2 C 0 km/h
1039 24-02-2004 15:27:59 3.2 C 2.83 g/m*3 3.2 C 0 km/h
1040 24-02-2004 15:39:58 3.3 C 2.85 g/m*3 3.3 C 0 km/h
1041 24-02-2004 15:51:01 3.3 C 2.85 g/m*3 3.3 C 0 km/h
1042 24-02-2004 16:03:01 3.2 C 2.83 g/m*3 3.2 C 0 km/h
1043 24-02-2004 16:15:01 3.2 C 2.89 g/m*3 3.2 C 0 km/h
1044 24-02-2004 16:27:01 3 C 2.85 g/m*3 3 C 0 km/h
1045 24-02-2004 16:39:01 2.7 C 2.91 g/m*3 2.7 C 0 km/h
1046 24-02-2004 16:51:01 2.7 C 2.97 g/m*3 2.7 C 0 km/h
1047 24-02-2004 17:03:01 2.7 C 3.03 g/m*3 2.7 C 0 km/h
1048 24-02-2004 17:15:01 2.7 C 3.09 g/m*3 2.7 C 0 km/h
1049 24-02-2004 17:27:01 2.5 C 3.1 g/m*3 2.5 C 0 km/h
1050 24-02-2004 17:39:01 2.1 C 3.13 g/m*3 2.1 C 0 km/h
Sensor: Nr:Datum:Temp:Abs-Feuchte:Windchill:Wind:
Aussen-T/F 1051 24-02-2004 17:51:00 1.8 C 3.23 g/m*3 1.8 C 0 km/h
1052 24-02-2004 18:03:00 1.7 C 3.27 g/m*3 1.7 C 0 km/h
1053 24-02-2004 18:15:59 1.7 C 3.27 g/m*3 1.7 C 0 km/h
1054 24-02-2004 18:27:59 1.6 C 3.24 g/m*3 1.6 C 0 km/h
1055 24-02-2004 18:39:58 1.6 C 3.24 g/m*3 1.6 C 0 km/h
1056 24-02-2004 18:51:01 1.5 C 3.22 g/m*3 1.5 C 0 km/h
1057 24-02-2004 19:03:01 1.6 C 3.24 g/m*3 1.6 C 0 km/h
1058 24-02-2004 19:15:01 1.6 C 3.19 g/m*3 1.6 C 0 km/h
1059 24-02-2004 19:27:01 1.6 C 3.19 g/m*3 1.6 C 0 km/h
1060 24-02-2004 19:39:02 1.5 C 3.17 g/m*3 1.5 C 0 km/h
1061 24-02-2004 19:51:00 1.5 C 3.12 g/m*3 1.5 C 0 km/h
1062 24-02-2004 20:03:00 1.4 C 3.09 g/m*3 1.4 C 0 km/h
1063 24-02-2004 20:15:59 1.4 C 3.09 g/m*3 1.4 C 0 km/h
1064 24-02-2004 20:27:59 1.4 C 3.09 g/m*3 1.4 C 0 km/h
1065 24-02-2004 20:39:57 1.2 C 3.05 g/m*3 1.2 C 0 km/h
1066 24-02-2004 20:51:01 1.2 C 3.1 g/m*3 1.2 C 0 km/h
1067 24-02-2004 21:03:01 1.2 C 3.1 g/m*3 1.2 C 0 km/h
1068 24-02-2004 21:15:01 1.2 C 3.05 g/m*3 1.2 C 0 km/h
1069 24-02-2004 21:27:01 1.3 C 3.07 g/m*3 1.3 C 0 km/h
1070 24-02-2004 21:39:01 1.2 C 3.1 g/m*3 1.2 C 0 km/h
1071 24-02-2004 21:51:01 1.1 C 3.14 g/m*3 1.1 C 0 km/h
1072 24-02-2004 22:03:00 1.2 C 3.16 g/m*3 1.2 C 0 km/h
1073 24-02-2004 22:15:58 1.3 C 3.18 g/m*3 1.3 C 0 km/h
1074 24-02-2004 22:27:58 1.3 C 3.18 g/m*3 1.3 C 0 km/h
1075 24-02-2004 22:39:57 1.3 C 3.23 g/m*3 1.3 C 0 km/h
Sensor: Nr:Datum:Temp:Abs-Feuchte:Windchill:Wind:
Aussen-T/F 1076 24-02-2004 22:51:01 1.3 C 3.23 g/m*3 1.3 C 0 km/h
1077 24-02-2004 23:03:01 1.4 C 3.25 g/m*3 1.4 C 0 km/h
1078 24-02-2004 23:15:01 1.3 C 3.34 g/m*3 1.3 C 0 km/h
1079 24-02-2004 23:27:01 1.3 C 3.44 g/m*3 1.3 C 0 km/h
1080 24-02-2004 23:39:01 1.3 C 3.5 g/m*3 1.3 C 0 km/h
1081 24-02-2004 23:51:01 1.2 C 3.53 g/m*3 1.2 C 0 km/h
1082 25-02-2004 00:03:01 1.2 C 3.53 g/m*3 1.2 C 0 km/h
1083 25-02-2004 00:15:01 1.5 C 3.49 g/m*3 1.5 C 0 km/h
1084 25-02-2004 00:27:01 1.5 C 3.44 g/m*3 1.5 C 0 km/h
1085 25-02-2004 00:39:02 1.6 C 3.41 g/m*3 1.6 C 0 km/h
1086 25-02-2004 00:51:00 1.6 C 3.41 g/m*3 1.6 C 0 km/h
1087 25-02-2004 01:03:00 1.6 C 3.41 g/m*3 1.6 C 0 km/h
1088 25-02-2004 01:15:59 1.6 C 3.41 g/m*3 1.6 C 0 km/h
1089 25-02-2004 01:27:59 1.6 C 3.41 g/m*3 1.6 C 0 km/h
1090 25-02-2004 01:39:58 1.5 C 3.44 g/m*3 1.5 C 0 km/h
1091 25-02-2004 01:51:01 1.5 C 3.49 g/m*3 1.5 C 0 km/h
1092 25-02-2004 02:03:01 1.5 C 3.49 g/m*3 1.5 C 0 km/h
1093 25-02-2004 02:15:01 1.4 C 3.47 g/m*3 1.4 C 0 km/h
1094 25-02-2004 02:27:01 1.2 C 3.58 g/m*3 1.2 C 0 km/h
1095 25-02-2004 02:39:00 1.2 C 3.58 g/m*3 1.2 C 0 km/h
1096 25-02-2004 02:52:03 1.2 C 3.58 g/m*3 1.2 C 0 km/h
1097 25-02-2004 03:04:03 1.3 C 3.55 g/m*3 1.3 C 0 km/h
1098 25-02-2004 03:16:02 1.3 C 3.55 g/m*3 1.3 C 0 km/h
1099 25-02-2004 03:28:02 1.3 C 3.5 g/m*3 1.3 C 0 km/h
1100 25-02-2004 03:40:00 1.3 C 3.55 g/m*3 1.3 C 0 km/h
Sensor: Nr:Datum:Temp:Abs-Feuchte:Windchill:Wind:
Aussen-T/F 1101 25-02-2004 03:52:00 1.2 C 3.63 g/m*3 1.2 C 0 km/h
1102 25-02-2004 04:04:00 1 C 3.74 g/m*3 1 C 0 km/h
1103 25-02-2004 04:16:59 0.7 C 3.81 g/m*3 0.7 C 0 km/h
1104 25-02-2004 04:28:59 0.7 C 3.86 g/m*3 0.7 C 0 km/h
1105 25-02-2004 04:40:58 0.7 C 3.86 g/m*3 0.7 C 0 km/h
1106 25-02-2004 04:52:00 0.7 C 3.81 g/m*3 0.7 C 0 km/h
1107 25-02-2004 05:04:00 0.6 C 3.89 g/m*3 0.6 C 0 km/h
1108 25-02-2004 05:16:00 0.6 C 3.89 g/m*3 0.6 C 0 km/h
1109 25-02-2004 05:28:00 0.5 C 3.91 g/m*3 0.5 C 0 km/h
1110 25-02-2004 05:40:00 0.5 C 3.96 g/m*3 0.5 C 0 km/h
1111 25-02-2004 05:52:01 0.4 C 3.93 g/m*3 0.4 C 0 km/h
1112 25-02-2004 06:04:01 0.5 C 3.96 g/m*3 0.5 C 0 km/h
1113 25-02-2004 06:16:01 0.5 C 3.96 g/m*3 0.5 C 0 km/h
1114 25-02-2004 06:28:01 0.5 C 3.96 g/m*3 0.5 C 0 km/h
1115 25-02-2004 06:40:01 0.6 C 3.99 g/m*3 0.6 C 0 km/h
1116 25-02-2004 06:52:00 0.5 C 4.01 g/m*3 0.5 C 0 km/h
1117 25-02-2004 07:04:00 0.4 C 4.03 g/m*3 0.4 C 0 km/h
1118 25-02-2004 07:16:58 0.4 C 4.08 g/m*3 0.4 C 0 km/h
1119 25-02-2004 07:28:58 0.4 C 4.08 g/m*3 0.4 C 0 km/h
1120 25-02-2004 07:40:57 0.4 C 4.08 g/m*3 0.4 C 0 km/h
1121 25-02-2004 07:52:01 0.5 C 4.11 g/m*3 0.5 C 0 km/h
1122 25-02-2004 08:04:01 0.5 C 4.11 g/m*3 0.5 C 0 km/h
1123 25-02-2004 08:16:01 0.4 C 4.13 g/m*3 0.4 C 0 km/h
1124 25-02-2004 08:28:01 0.4 C 4.13 g/m*3 0.4 C 0 km/h
1125 25-02-2004 08:40:01 0.4 C 4.18 g/m*3 0.4 C 0 km/h
Sensor: Nr:Datum:Temp:Abs-Feuchte:Windchill:Wind:
Aussen-T/F 1126 25-02-2004 08:52:00 0.4 C 4.18 g/m*3 0.4 C 0 km/h
1127 25-02-2004 09:04:59 0.4 C 4.18 g/m*3 0.4 C 0 km/h
1128 25-02-2004 09:16:58 0.5 C 4.21 g/m*3 0.5 C 0 km/h
1129 25-02-2004 09:28:58 0.6 C 4.24 g/m*3 0.6 C 0 km/h
1130 25-02-2004 09:40:57 0.8 C 4.2 g/m*3 0.8 C 0 km/h
1131 25-02-2004 09:52:01 1 C 4.2 g/m*3 1 C 0 km/h
1132 25-02-2004 10:04:01 1.2 C 4.21 g/m*3 1.2 C 0 km/h
1133 25-02-2004 10:16:01 1.5 C 4.3 g/m*3 1.5 C 0 km/h
1134 25-02-2004 10:28:01 1.6 C 4.33 g/m*3 1.6 C 0 km/h
1135 25-02-2004 10:40:00 1.9 C 4.36 g/m*3 1.9 C 0 km/h
1136 25-02-2004 10:52:01 2.2 C 4.34 g/m*3 2.2 C 0 km/h
1137 25-02-2004 11:04:01 2.2 C 4.22 g/m*3 2.2 C 0 km/h
1138 25-02-2004 11:16:01 2.6 C 4.28 g/m*3 2.6 C 0 km/h
1139 25-02-2004 11:28:01 3 C 4.22 g/m*3 3 C 0 km/h
1140 25-02-2004 11:40:01 3.7 C 4.24 g/m*3 3.7 C 0 km/h
1141 25-02-2004 11:52:00 3.6 C 4.02 g/m*3 3.6 C 0 km/h
1142 25-02-2004 12:04:00 3.4 C 4.03 g/m*3 3.4 C 0 km/h
1143 25-02-2004 12:16:59 3.7 C 3.99 g/m*3 3.7 C 0 km/h
1144 25-02-2004 12:28:59 3.8 C 4.02 g/m*3 3.8 C 0 km/h
1145 25-02-2004 12:40:58 3.8 C 3.95 g/m*3 3.8 C 0 km/h
1146 25-02-2004 12:52:01 3.8 C 3.95 g/m*3 3.8 C 0 km/h
1147 25-02-2004 13:04:00 3.8 C 3.83 g/m*3 3.8 C 0 km/h
1148 25-02-2004 13:16:00 3.6 C 3.84 g/m*3 3.6 C 0 km/h
1149 25-02-2004 13:28:00 3.7 C 3.99 g/m*3 3.7 C 0 km/h
1150 25-02-2004 13:40:00 4.4 C 3.98 g/m*3 4.4 C 0 km/h
Sensor: Nr:Datum:Temp:Abs-Feuchte:Windchill:Wind:
Aussen-T/F 1151 25-02-2004 13:52:01 5 C 3.81 g/m*3 5 C 0 km/h
1152 25-02-2004 14:04:01 5 C 3.67 g/m*3 5 C 0 km/h
1153 25-02-2004 14:16:01 4.6 C 3.57 g/m*3 4.6 C 0 km/h
1154 25-02-2004 14:28:01 4.4 C 3.59 g/m*3 4.4 C 0 km/h
1155 25-02-2004 14:40:01 4.3 C 3.5 g/m*3 4.3 C 0 km/h
1156 25-02-2004 14:52:01 4.1 C 3.52 g/m*3 4.1 C 0 km/h
1157 25-02-2004 15:04:01 4.2 C 3.54 g/m*3 4.2 C 0 km/h
1158 25-02-2004 15:16:01 4 C 3.5 g/m*3 4 C 0 km/h
1159 25-02-2004 15:28:01 3.7 C 3.55 g/m*3 3.7 C 0 km/h
1160 25-02-2004 15:40:01 3.4 C 3.66 g/m*3 3.4 C 0 km/h
1161 25-02-2004 15:52:00 3.1 C 3.77 g/m*3 3.1 C 0 km/h
1162 25-02-2004 16:04:00 3.3 C 4.06 g/m*3 3.3 C 0 km/h
1163 25-02-2004 16:16:58 1.1 C 3.76 g/m*3 1.1 C 0 km/h
1164 25-02-2004 16:28:58 0.8 C 3.99 g/m*3 0.8 C 0 km/h
1165 25-02-2004 16:40:57 0.7 C 4.02 g/m*3 0.7 C 0 km/h
1166 25-02-2004 16:52:01 0.7 C 4.02 g/m*3 0.7 C 0 km/h
1167 25-02-2004 17:04:01 0.6 C 4.04 g/m*3 0.6 C 0 km/h
1168 25-02-2004 17:16:01 0.7 C 4.07 g/m*3 0.7 C 0 km/h
1169 25-02-2004 17:28:01 0.7 C 4.07 g/m*3 0.7 C 0 km/h
1170 25-02-2004 17:40:01 0.7 C 4.07 g/m*3 0.7 C 0 km/h
1171 25-02-2004 17:52:00 0.6 C 4.04 g/m*3 0.6 C 0 km/h
1172 25-02-2004 18:04:00 0.6 C 4.04 g/m*3 0.6 C 0 km/h
1173 25-02-2004 18:16:59 0.7 C 4.07 g/m*3 0.7 C 0 km/h
1174 25-02-2004 18:28:59 0.7 C 4.12 g/m*3 0.7 C 0 km/h
1175 25-02-2004 18:40:58 0.5 C 4.01 g/m*3 0.5 C 0 km/h
Sensor: Nr:Datum:Temp:Abs-Feuchte:Windchill:Wind:
Aussen-T/F 1176 25-02-2004 18:52:01 0.3 C 4.01 g/m*3 0.3 C 0 km/h
1177 25-02-2004 19:04:02 0.3 C 4.01 g/m*3 0.3 C 0 km/h
1178 25-02-2004 19:16:01 0.1 C 3.95 g/m*3 0.1 C 0 km/h
1179 25-02-2004 19:28:01 0.1 C 4 g/m*3 0.1 C 0 km/h
1180 25-02-2004 19:40:01 0.1 C 3.95 g/m*3 0.1 C 0 km/h
1181 25-02-2004 19:52:00 0.1 C 3.95 g/m*3 0.1 C 0 km/h
1182 25-02-2004 20:04:00 0.1 C 3.95 g/m*3 0.1 C 0 km/h
1183 25-02-2004 20:16:58 0 C 3.92 g/m*3 0 C 0 km/h
1184 25-02-2004 20:28:58 0 C 3.92 g/m*3 0 C 0 km/h
1185 25-02-2004 20:40:57 0 C 3.92 g/m*3 0 C 0 km/h
1186 25-02-2004 20:52:01 0 C 3.92 g/m*3 0 C 0 km/h
1187 25-02-2004 21:04:01 0.1 C 3.95 g/m*3 0.1 C 0 km/h
1188 25-02-2004 21:16:01 0 C 3.92 g/m*3 0 C 0 km/h
1189 25-02-2004 21:28:01 -0.1 C 3.9 g/m*3 -0.1 C 0 km/h
1190 25-02-2004 21:40:01 -0.1 C 3.9 g/m*3 -0.1 C 0 km/h
1191 25-02-2004 21:52:00 0 C 3.88 g/m*3 0 C 0 km/h
1192 25-02-2004 22:04:59 0 C 3.88 g/m*3 0 C 0 km/h
1193 25-02-2004 22:16:58 0 C 3.88 g/m*3 0 C 0 km/h
1194 25-02-2004 22:28:58 0.1 C 3.9 g/m*3 0.1 C 0 km/h
1195 25-02-2004 22:40:57 0 C 3.83 g/m*3 0 C 0 km/h
1196 25-02-2004 22:52:01 0.1 C 3.85 g/m*3 0.1 C 0 km/h
1197 25-02-2004 23:04:01 0 C 3.78 g/m*3 0 C 0 km/h
1198 25-02-2004 23:16:01 0 C 3.78 g/m*3 0 C 0 km/h
1199 25-02-2004 23:28:01 0 C 3.88 g/m*3 0 C 0 km/h
1200 25-02-2004 23:40:01 0 C 3.88 g/m*3 0 C 0 km/h
Sensor: Nr:Datum:Temp:Abs-Feuchte:Windchill:Wind:
Aussen-T/F 1201 25-02-2004 23:52:01 0 C 3.92 g/m*3 0 C 0 km/h
1202 26-02-2004 00:04:01 -0.1 C 3.8 g/m*3 -0.1 C 0 km/h
1203 26-02-2004 00:16:01 -0.1 C 3.8 g/m*3 -0.1 C 0 km/h
1204 26-02-2004 00:28:01 -0.1 C 3.85 g/m*3 -0.1 C 0 km/h
1205 26-02-2004 00:40:01 -0.1 C 3.85 g/m*3 -0.1 C 0 km/h
1206 26-02-2004 00:52:01 -0.1 C 3.85 g/m*3 -0.1 C 0 km/h
1207 26-02-2004 01:04:00 -0.1 C 3.85 g/m*3 -0.1 C 0 km/h
1208 26-02-2004 01:16:58 -0.1 C 3.8 g/m*3 -0.1 C 0 km/h
1209 26-02-2004 01:28:58 -0.1 C 3.8 g/m*3 -0.1 C 0 km/h
1210 26-02-2004 01:40:57 -0.2 C 3.78 g/m*3 -0.2 C 0 km/h
1211 26-02-2004 01:52:01 -0.2 C 3.78 g/m*3 -0.2 C 0 km/h
1212 26-02-2004 02:04:01 -0.3 C 3.7 g/m*3 -0.3 C 0 km/h
1213 26-02-2004 02:16:01 -0.3 C 3.65 g/m*3 -0.3 C 0 km/h
1214 26-02-2004 02:28:01 -0.4 C 3.63 g/m*3 -0.4 C 0 km/h
1215 26-02-2004 02:40:01 -0.6 C 3.53 g/m*3 -0.6 C 0 km/h
1216 26-02-2004 02:53:02 -0.7 C 3.51 g/m*3 -0.7 C 0 km/h
1217 26-02-2004 03:05:02 -1.1 C 3.41 g/m*3 -1.1 C 0 km/h
1218 26-02-2004 03:17:02 -1.3 C 3.36 g/m*3 -1.3 C 0 km/h
1219 26-02-2004 03:29:02 -1.4 C 3.34 g/m*3 -1.4 C 0 km/h
1220 26-02-2004 03:41:00 -1.5 C 3.36 g/m*3 -1.5 C 0 km/h
1221 26-02-2004 03:53:00 -1.6 C 3.34 g/m*3 -1.6 C 0 km/h
1222 26-02-2004 04:05:00 -1.9 C 3.23 g/m*3 -1.9 C 0 km/h
1223 26-02-2004 04:17:59 -2.1 C 3.18 g/m*3 -2.1 C 0 km/h
1224 26-02-2004 04:29:59 -2.1 C 3.22 g/m*3 -2.1 C 0 km/h
1225 26-02-2004 04:41:57 -1.8 C 3.29 g/m*3 -1.8 C 0 km/h
Sensor: Nr:Datum:Temp:Abs-Feuchte:Windchill:Wind:
Aussen-T/F 1226 26-02-2004 04:53:01 -1.7 C 3.31 g/m*3 -1.7 C 0 km/h
1227 26-02-2004 05:05:01 -1.6 C 3.29 g/m*3 -1.6 C 0 km/h
1228 26-02-2004 05:17:01 -1.6 C 3.29 g/m*3 -1.6 C 0 km/h
1229 26-02-2004 05:29:01 -1.6 C 3.29 g/m*3 -1.6 C 0 km/h
1230 26-02-2004 05:41:01 -1.5 C 3.32 g/m*3 -1.5 C 0 km/h
1231 26-02-2004 05:53:00 -1.6 C 3.29 g/m*3 -1.6 C 0 km/h
1232 26-02-2004 06:04:59 -1.6 C 3.29 g/m*3 -1.6 C 0 km/h
1233 26-02-2004 06:17:58 -1.7 C 3.27 g/m*3 -1.7 C 0 km/h
1234 26-02-2004 06:29:58 -1.7 C 3.27 g/m*3 -1.7 C 0 km/h
1235 26-02-2004 06:41:57 -1.7 C 3.27 g/m*3 -1.7 C 0 km/h
1236 26-02-2004 06:53:01 -1.9 C 3.18 g/m*3 -1.9 C 0 km/h
1237 26-02-2004 07:05:01 -2.1 C 3.14 g/m*3 -2.1 C 0 km/h
1238 26-02-2004 07:17:01 -2.5 C 3.01 g/m*3 -2.5 C 0 km/h
1239 26-02-2004 07:29:01 -2.6 C 2.99 g/m*3 -2.6 C 0 km/h
1240 26-02-2004 07:41:01 -2.6 C 3.03 g/m*3 -2.6 C 0 km/h
1241 26-02-2004 07:53:01 -2.3 C 3.1 g/m*3 -2.3 C 0 km/h
1242 26-02-2004 08:05:01 -2 C 3.12 g/m*3 -2 C 0 km/h
1243 26-02-2004 08:17:01 -1.8 C 3.04 g/m*3 -1.8 C 0 km/h
1244 26-02-2004 08:29:01 -1.9 C 2.97 g/m*3 -1.9 C 0 km/h
1245 26-02-2004 08:41:01 -2.1 C 2.93 g/m*3 -2.1 C 0 km/h
1246 26-02-2004 08:53:00 -2.2 C 2.91 g/m*3 -2.2 C 0 km/h
1247 26-02-2004 09:05:00 -2.4 C 2.91 g/m*3 -2.4 C 0 km/h
1248 26-02-2004 09:17:58 -2.2 C 2.87 g/m*3 -2.2 C 0 km/h
1249 26-02-2004 09:29:58 -2 C 2.87 g/m*3 -2 C 0 km/h
1250 26-02-2004 09:41:57 -1.9 C 2.89 g/m*3 -1.9 C 0 km/h
Sensor: Nr:Datum:Temp:Abs-Feuchte:Windchill:Wind:
Aussen-T/F 1251 26-02-2004 09:53:01 -1.7 C 2.93 g/m*3 -1.7 C 0 km/h
1252 26-02-2004 10:05:01 -1.4 C 2.99 g/m*3 -1.4 C 0 km/h
1253 26-02-2004 10:17:01 -1.1 C 3.01 g/m*3 -1.1 C 0 km/h
1254 26-02-2004 10:29:01 -1.1 C 2.96 g/m*3 -1.1 C 0 km/h
1255 26-02-2004 10:41:01 -0.9 C 2.91 g/m*3 -0.9 C 0 km/h
1256 26-02-2004 10:53:00 -0.6 C 2.79 g/m*3 -0.6 C 0 km/h
1257 26-02-2004 11:05:59 -0.4 C 2.83 g/m*3 -0.4 C 0 km/h
1258 26-02-2004 11:17:58 -0.3 C 2.85 g/m*3 -0.3 C 0 km/h
1259 26-02-2004 11:29:58 -0.1 C 2.74 g/m*3 -0.1 C 0 km/h
1260 26-02-2004 11:41:57 0.1 C 2.73 g/m*3 0.1 C 0 km/h
1261 26-02-2004 11:53:01 0.1 C 2.59 g/m*3 0.1 C 0 km/h
1262 26-02-2004 12:05:01 0.4 C 2.59 g/m*3 0.4 C 0 km/h
1263 26-02-2004 12:17:01 0.4 C 2.59 g/m*3 0.4 C 0 km/h
1264 26-02-2004 12:29:01 0.5 C 2.56 g/m*3 0.5 C 0 km/h
1265 26-02-2004 12:41:00 1.1 C 2.61 g/m*3 1.1 C 0 km/h
1266 26-02-2004 12:53:01 1.5 C 2.52 g/m*3 1.5 C 0 km/h
1267 26-02-2004 13:05:01 1.7 C 2.45 g/m*3 1.7 C 0 km/h
1268 26-02-2004 13:17:01 2 C 2.5 g/m*3 2 C 0 km/h
1269 26-02-2004 13:29:01 2.2 C 2.53 g/m*3 2.2 C 0 km/h
1270 26-02-2004 13:41:01 2.6 C 2.43 g/m*3 2.6 C 0 km/h
1271 26-02-2004 13:53:00 2.7 C 2.56 g/m*3 2.7 C 0 km/h
1272 26-02-2004 14:05:00 3.2 C 2.47 g/m*3 3.2 C 0 km/h
1273 26-02-2004 14:17:58 3.3 C 2.55 g/m*3 3.3 C 0 km/h
1274 26-02-2004 14:29:58 3.1 C 2.45 g/m*3 3.1 C 0 km/h
1275 26-02-2004 14:41:57 3.3 C 2.49 g/m*3 3.3 C 0 km/h
Sensor: Nr:Datum:Temp:Abs-Feuchte:Windchill:Wind:
Aussen-T/F 1276 26-02-2004 14:53:01 3.4 C 2.5 g/m*3 3.4 C 0 km/h
1277 26-02-2004 15:05:01 3.4 C 2.44 g/m*3 3.4 C 0 km/h
1278 26-02-2004 15:17:01 2.6 C 2.37 g/m*3 2.6 C 0 km/h
1279 26-02-2004 15:29:01 2.4 C 2.46 g/m*3 2.4 C 0 km/h
1280 26-02-2004 15:41:01 2.6 C 2.55 g/m*3 2.6 C 0 km/h
1281 26-02-2004 15:53:01 2.6 C 2.6 g/m*3 2.6 C 0 km/h
1282 26-02-2004 16:05:01 2.7 C 2.62 g/m*3 2.7 C 0 km/h
1283 26-02-2004 16:17:01 2.1 C 2.57 g/m*3 2.1 C 0 km/h
1284 26-02-2004 16:29:01 1.7 C 2.78 g/m*3 1.7 C 0 km/h
1285 26-02-2004 16:41:01 1.5 C 2.79 g/m*3 1.5 C 0 km/h
1286 26-02-2004 16:53:00 1.3 C 2.86 g/m*3 1.3 C 0 km/h
1287 26-02-2004 17:05:00 1.1 C 3.14 g/m*3 1.1 C 0 km/h
1288 26-02-2004 17:17:59 1.2 C 3.16 g/m*3 1.2 C 0 km/h
1289 26-02-2004 17:29:59 1.2 C 3.21 g/m*3 1.2 C 0 km/h
1290 26-02-2004 17:41:57 1.1 C 3.24 g/m*3 1.1 C 0 km/h
1291 26-02-2004 17:53:01 1.1 C 3.29 g/m*3 1.1 C 0 km/h
1292 26-02-2004 18:05:01 1.2 C 3.26 g/m*3 1.2 C 0 km/h
1293 26-02-2004 18:17:01 0.7 C 3.41 g/m*3 0.7 C 0 km/h
1294 26-02-2004 18:29:01 0.5 C 3.51 g/m*3 0.5 C 0 km/h
1295 26-02-2004 18:41:01 0.5 C 3.41 g/m*3 0.5 C 0 km/h
1296 26-02-2004 18:53:00 0.5 C 3.31 g/m*3 0.5 C 0 km/h
1297 26-02-2004 19:04:59 0.6 C 3.18 g/m*3 0.6 C 0 km/h
1298 26-02-2004 19:17:58 0.6 C 3.08 g/m*3 0.6 C 0 km/h
1299 26-02-2004 19:29:58 0.7 C 3.05 g/m*3 0.7 C 0 km/h
1300 26-02-2004 19:41:57 0.8 C 3.02 g/m*3 0.8 C 0 km/h
Sensor: Nr:Datum:Temp:Abs-Feuchte:Windchill:Wind:
Aussen-T/F 1301 26-02-2004 19:53:01 0.8 C 2.97 g/m*3 0.8 C 0 km/h
1302 26-02-2004 20:05:01 0.6 C 2.98 g/m*3 0.6 C 0 km/h
1303 26-02-2004 20:17:01 0.5 C 3.01 g/m*3 0.5 C 0 km/h
1304 26-02-2004 20:29:01 0.4 C 2.99 g/m*3 0.4 C 0 km/h
1305 26-02-2004 20:41:01 0.2 C 3 g/m*3 0.2 C 0 km/h
1306 26-02-2004 20:53:01 0 C 2.96 g/m*3 0 C 0 km/h
1307 26-02-2004 21:05:01 -0.2 C 2.91 g/m*3 -0.2 C 0 km/h
1308 26-02-2004 21:17:01 -0.3 C 2.94 g/m*3 -0.3 C 0 km/h
1309 26-02-2004 21:29:01 -0.4 C 2.97 g/m*3 -0.4 C 0 km/h
1310 26-02-2004 21:41:01 -0.7 C 2.95 g/m*3 -0.7 C 0 km/h
1311 26-02-2004 21:53:00 -1 C 2.98 g/m*3 -1 C 0 km/h
1312 26-02-2004 22:05:00 -1.1 C 3.01 g/m*3 -1.1 C 0 km/h
1313 26-02-2004 22:17:58 -1.2 C 2.94 g/m*3 -1.2 C 0 km/h
1314 26-02-2004 22:29:58 -1.4 C 2.9 g/m*3 -1.4 C 0 km/h
1315 26-02-2004 22:41:57 -1.7 C 2.84 g/m*3 -1.7 C 0 km/h
1316 26-02-2004 22:53:01 -1.7 C 2.88 g/m*3 -1.7 C 0 km/h
1317 26-02-2004 23:05:01 -1.9 C 2.89 g/m*3 -1.9 C 0 km/h
1318 26-02-2004 23:17:01 -1.9 C 2.89 g/m*3 -1.9 C 0 km/h
1319 26-02-2004 23:29:01 -2 C 2.87 g/m*3 -2 C 0 km/h
1320 26-02-2004 23:41:01 -2.1 C 2.8 g/m*3 -2.1 C 0 km/h
1321 26-02-2004 23:53:00 -2.2 C 2.83 g/m*3 -2.2 C 0 km/h
1322 27-02-2004 00:05:59 -2.1 C 2.8 g/m*3 -2.1 C 0 km/h
1323 27-02-2004 00:17:58 -2.2 C 2.74 g/m*3 -2.2 C 0 km/h
1324 27-02-2004 00:29:58 -2.3 C 2.72 g/m*3 -2.3 C 0 km/h
1325 27-02-2004 00:41:57 -2.2 C 2.7 g/m*3 -2.2 C 0 km/h
Sensor: Nr:Datum:Temp:Abs-Feuchte:Windchill:Wind:
Aussen-T/F 1326 27-02-2004 00:53:01 -2.3 C 2.68 g/m*3 -2.3 C 0 km/h
1327 27-02-2004 01:05:01 -2.3 C 2.72 g/m*3 -2.3 C 0 km/h
1328 27-02-2004 01:17:01 -2.6 C 2.67 g/m*3 -2.6 C 0 km/h
1329 27-02-2004 01:29:01 -2.7 C 2.65 g/m*3 -2.7 C 0 km/h
1330 27-02-2004 01:41:00 -2.6 C 2.63 g/m*3 -2.6 C 0 km/h
1331 27-02-2004 01:53:01 -2.8 C 2.59 g/m*3 -2.8 C 0 km/h
1332 27-02-2004 02:05:01 -3.1 C 2.57 g/m*3 -3.1 C 0 km/h
1333 27-02-2004 02:17:01 -3.4 C 2.56 g/m*3 -3.4 C 0 km/h
1334 27-02-2004 02:29:01 -3.5 C 2.58 g/m*3 -3.5 C 0 km/h
1335 27-02-2004 02:41:01 -3.7 C 2.58 g/m*3 -3.7 C 0 km/h
1336 27-02-2004 02:54:01 -3.9 C 2.54 g/m*3 -3.9 C 0 km/h
1337 27-02-2004 03:06:01 -3.7 C 2.62 g/m*3 -3.7 C 0 km/h
1338 27-02-2004 03:18:00 -3.5 C 2.65 g/m*3 -3.5 C 0 km/h
1339 27-02-2004 03:30:00 -3.8 C 2.56 g/m*3 -3.8 C 0 km/h
1340 27-02-2004 03:42:01 -3.9 C 2.54 g/m*3 -3.9 C 0 km/h
1341 27-02-2004 03:54:01 -4.1 C 2.54 g/m*3 -4.1 C 0 km/h
1342 27-02-2004 04:06:00 -4 C 2.49 g/m*3 -4 C 0 km/h
1343 27-02-2004 04:18:00 -4.1 C 2.47 g/m*3 -4.1 C 0 km/h
1344 27-02-2004 04:30:00 -4.1 C 2.51 g/m*3 -4.1 C 0 km/h
1345 27-02-2004 04:42:00 -4.3 C 2.47 g/m*3 -4.3 C 0 km/h
1346 27-02-2004 04:54:01 -4.5 C 2.44 g/m*3 -4.5 C 0 km/h
1347 27-02-2004 05:06:01 -4.8 C 2.42 g/m*3 -4.8 C 0 km/h
1348 27-02-2004 05:18:01 -5 C 2.38 g/m*3 -5 C 0 km/h
1349 27-02-2004 05:30:01 -5.1 C 2.4 g/m*3 -5.1 C 0 km/h
1350 27-02-2004 05:42:01 -5.2 C 2.42 g/m*3 -5.2 C 0 km/h
Sensor: Nr:Datum:Temp:Abs-Feuchte:Windchill:Wind:
Aussen-T/F 1351 27-02-2004 05:54:01 -5.3 C 2.4 g/m*3 -5.3 C 0 km/h
1352 27-02-2004 06:06:01 -5.6 C 2.35 g/m*3 -5.6 C 0 km/h
1353 27-02-2004 06:18:01 -5.7 C 2.33 g/m*3 -5.7 C 0 km/h
1354 27-02-2004 06:30:01 -5.5 C 2.36 g/m*3 -5.5 C 0 km/h
1355 27-02-2004 06:42:01 -5.3 C 2.4 g/m*3 -5.3 C 0 km/h
1356 27-02-2004 06:54:00 -5.5 C 2.33 g/m*3 -5.5 C 0 km/h
1357 27-02-2004 07:06:00 -5.8 C 2.28 g/m*3 -5.8 C 0 km/h
1358 27-02-2004 07:18:59 -5.8 C 2.28 g/m*3 -5.8 C 0 km/h
1359 27-02-2004 07:30:57 -5.8 C 2.28 g/m*3 -5.8 C 0 km/h
1360 27-02-2004 07:42:57 -5.8 C 2.31 g/m*3 -5.8 C 0 km/h
1361 27-02-2004 07:54:01 -5.8 C 2.31 g/m*3 -5.8 C 0 km/h
1362 27-02-2004 08:06:01 -5.8 C 2.31 g/m*3 -5.8 C 0 km/h
1363 27-02-2004 08:18:01 -5.7 C 2.36 g/m*3 -5.7 C 0 km/h
1364 27-02-2004 08:30:01 -5.5 C 2.4 g/m*3 -5.5 C 0 km/h
1365 27-02-2004 08:42:01 -5.3 C 2.4 g/m*3 -5.3 C 0 km/h
1366 27-02-2004 08:54:00 -5.1 C 2.4 g/m*3 -5.1 C 0 km/h
1367 27-02-2004 09:06:59 -5 C 2.38 g/m*3 -5 C 0 km/h
1368 27-02-2004 09:18:58 -4.5 C 2.4 g/m*3 -4.5 C 0 km/h
1369 27-02-2004 09:30:57 -4 C 2.45 g/m*3 -4 C 0 km/h
1370 27-02-2004 09:42:57 -3.7 C 2.47 g/m*3 -3.7 C 0 km/h
1371 27-02-2004 09:54:01 -3.4 C 2.48 g/m*3 -3.4 C 0 km/h
1372 27-02-2004 10:06:01 -3 C 2.51 g/m*3 -3 C 0 km/h
1373 27-02-2004 10:18:01 -2.5 C 2.6 g/m*3 -2.5 C 0 km/h
1374 27-02-2004 10:30:01 -2.1 C 2.64 g/m*3 -2.1 C 0 km/h
1375 27-02-2004 10:42:00 -1.6 C 2.64 g/m*3 -1.6 C 0 km/h
Sensor: Nr:Datum:Temp:Abs-Feuchte:Windchill:Wind:
Aussen-T/F 1376 27-02-2004 10:54:01 -1.2 C 2.63 g/m*3 -1.2 C 0 km/h
1377 27-02-2004 11:06:01 -0.8 C 2.61 g/m*3 -0.8 C 0 km/h
1378 27-02-2004 11:18:01 -0.6 C 2.6 g/m*3 -0.6 C 0 km/h
1379 27-02-2004 11:30:01 -0.4 C 2.64 g/m*3 -0.4 C 0 km/h
1380 27-02-2004 11:42:01 0 C 2.76 g/m*3 0 C 0 km/h
1381 27-02-2004 11:54:00 0.1 C 2.68 g/m*3 0.1 C 0 km/h
1382 27-02-2004 12:06:00 0.4 C 2.49 g/m*3 0.4 C 0 km/h
1383 27-02-2004 12:18:58 0.5 C 2.41 g/m*3 0.5 C 0 km/h
1384 27-02-2004 12:30:57 0.4 C 2.34 g/m*3 0.4 C 0 km/h
1385 27-02-2004 12:42:57 1.2 C 2.37 g/m*3 1.2 C 0 km/h
1386 27-02-2004 12:54:01 1.8 C 2.36 g/m*3 1.8 C 0 km/h
1387 27-02-2004 13:06:01 2.2 C 2.2 g/m*3 2.2 C 0 km/h
1388 27-02-2004 13:18:01 2.3 C 2.33 g/m*3 2.3 C 0 km/h
1389 27-02-2004 13:30:01 2.1 C 2.29 g/m*3 2.1 C 0 km/h
1390 27-02-2004 13:42:01 2.7 C 2.45 g/m*3 2.7 C 0 km/h
1391 27-02-2004 13:54:01 3 C 2.2 g/m*3 3 C 0 km/h
1392 27-02-2004 14:06:01 3.1 C 2.21 g/m*3 3.1 C 0 km/h
1393 27-02-2004 14:18:01 2.6 C 2.31 g/m*3 2.6 C 0 km/h
1394 27-02-2004 14:30:01 2.5 C 2.24 g/m*3 2.5 C 0 km/h
1395 27-02-2004 14:42:01 2.4 C 2.23 g/m*3 2.4 C 0 km/h
1396 27-02-2004 14:54:00 2.6 C 2.31 g/m*3 2.6 C 0 km/h
1397 27-02-2004 15:06:00 3.1 C 2.27 g/m*3 3.1 C 0 km/h
1398 27-02-2004 15:18:59 2.7 C 2.21 g/m*3 2.7 C 0 km/h
1399 27-02-2004 15:30:57 2.3 C 2.21 g/m*3 2.3 C 0 km/h
1400 27-02-2004 15:42:57 2 C 2.28 g/m*3 2 C 0 km/h
Sensor: Nr:Datum:Temp:Abs-Feuchte:Windchill:Wind:
Aussen-T/F 1401 27-02-2004 15:54:01 1.6 C 2.49 g/m*3 1.6 C 0 km/h
1402 27-02-2004 16:06:01 1.4 C 2.67 g/m*3 1.4 C 0 km/h
1403 27-02-2004 16:18:01 1 C 2.91 g/m*3 1 C 0 km/h
1404 27-02-2004 16:30:01 1.1 C 2.93 g/m*3 1.1 C 0 km/h
1405 27-02-2004 16:42:01 1 C 3.01 g/m*3 1 C 0 km/h
1406 27-02-2004 16:54:00 0.5 C 2.96 g/m*3 0.5 C 0 km/h
1407 27-02-2004 17:06:00 0.6 C 3.03 g/m*3 0.6 C 0 km/h
1408 27-02-2004 17:18:59 0.7 C 3.05 g/m*3 0.7 C 0 km/h
1409 27-02-2004 17:30:58 0.7 C 2.95 g/m*3 0.7 C 0 km/h
1410 27-02-2004 17:42:58 0.8 C 2.97 g/m*3 0.8 C 0 km/h
1411 27-02-2004 17:54:01 0.9 C 2.99 g/m*3 0.9 C 0 km/h
1412 27-02-2004 18:06:01 0.7 C 2.9 g/m*3 0.7 C 0 km/h
1413 27-02-2004 18:18:01 0.6 C 2.88 g/m*3 0.6 C 0 km/h
1414 27-02-2004 18:30:01 0.5 C 2.86 g/m*3 0.5 C 0 km/h
1415 27-02-2004 18:42:01 0.4 C 2.94 g/m*3 0.4 C 0 km/h
1416 27-02-2004 18:54:00 0.1 C 2.93 g/m*3 0.1 C 0 km/h
1417 27-02-2004 19:06:00 -0.3 C 2.85 g/m*3 -0.3 C 0 km/h
1418 27-02-2004 19:18:59 -0.6 C 2.88 g/m*3 -0.6 C 0 km/h
1419 27-02-2004 19:30:57 -0.9 C 2.87 g/m*3 -0.9 C 0 km/h
1420 27-02-2004 19:42:57 -0.9 C 2.82 g/m*3 -0.9 C 0 km/h
1421 27-02-2004 19:54:01 -1.1 C 2.74 g/m*3 -1.1 C 0 km/h
1422 27-02-2004 20:06:01 -1.1 C 2.74 g/m*3 -1.1 C 0 km/h
1423 27-02-2004 20:18:01 -1.1 C 2.69 g/m*3 -1.1 C 0 km/h
1424 27-02-2004 20:30:01 -1.1 C 2.6 g/m*3 -1.1 C 0 km/h
1425 27-02-2004 20:42:01 -0.8 C 2.52 g/m*3 -0.8 C 0 km/h
Sensor: Nr:Datum:Temp:Abs-Feuchte:Windchill:Wind:
Aussen-T/F 1426 27-02-2004 20:54:00 -0.5 C 2.43 g/m*3 -0.5 C 0 km/h
1427 27-02-2004 21:06:00 -0.7 C 2.35 g/m*3 -0.7 C 0 km/h
1428 27-02-2004 21:18:59 -0.8 C 2.34 g/m*3 -0.8 C 0 km/h
1429 27-02-2004 21:30:58 -0.9 C 2.32 g/m*3 -0.9 C 0 km/h
1430 27-02-2004 21:42:58 -1.2 C 2.32 g/m*3 -1.2 C 0 km/h
1431 27-02-2004 21:54:01 -1.6 C 2.38 g/m*3 -1.6 C 0 km/h
1432 27-02-2004 22:06:00 -1.7 C 2.41 g/m*3 -1.7 C 0 km/h
1433 27-02-2004 22:18:00 -1.9 C 2.42 g/m*3 -1.9 C 0 km/h
1434 27-02-2004 22:30:00 -1.8 C 2.52 g/m*3 -1.8 C 0 km/h
1435 27-02-2004 22:42:00 -1.5 C 2.53 g/m*3 -1.5 C 0 km/h
1436 27-02-2004 22:54:01 -1.4 C 2.55 g/m*3 -1.4 C 0 km/h
1437 27-02-2004 23:06:01 -1.1 C 2.6 g/m*3 -1.1 C 0 km/h
1438 27-02-2004 23:18:01 -1.1 C 2.69 g/m*3 -1.1 C 0 km/h
1439 27-02-2004 23:30:01 -1 C 2.67 g/m*3 -1 C 0 km/h
1440 27-02-2004 23:42:00 -1.1 C 2.69 g/m*3 -1.1 C 0 km/h
1441 27-02-2004 23:54:01 -1.4 C 2.64 g/m*3 -1.4 C 0 km/h
1442 28-02-2004 00:06:01 -1.5 C 2.66 g/m*3 -1.5 C 0 km/h
1443 28-02-2004 00:18:01 -1.4 C 2.64 g/m*3 -1.4 C 0 km/h
1444 28-02-2004 00:30:01 -1.4 C 2.64 g/m*3 -1.4 C 0 km/h
1445 28-02-2004 00:42:01 -1.4 C 2.64 g/m*3 -1.4 C 0 km/h
1446 28-02-2004 00:54:00 -1.4 C 2.64 g/m*3 -1.4 C 0 km/h
1447 28-02-2004 01:06:00 -1.3 C 2.61 g/m*3 -1.3 C 0 km/h
1448 28-02-2004 01:18:58 -1.2 C 2.5 g/m*3 -1.2 C 0 km/h
1449 28-02-2004 01:30:57 -1.4 C 2.51 g/m*3 -1.4 C 0 km/h
1450 28-02-2004 01:42:57 -1.6 C 2.47 g/m*3 -1.6 C 0 km/h
Sensor: Nr:Datum:Temp:Abs-Feuchte:Windchill:Wind:
Aussen-T/F 1451 28-02-2004 01:54:01 -1.7 C 2.41 g/m*3 -1.7 C 0 km/h
1452 28-02-2004 02:06:01 -2 C 2.4 g/m*3 -2 C 0 km/h
1453 28-02-2004 02:18:01 -2.4 C 2.42 g/m*3 -2.4 C 0 km/h
1454 28-02-2004 02:30:01 -2.5 C 2.36 g/m*3 -2.5 C 0 km/h
1455 28-02-2004 02:42:01 -2.7 C 2.33 g/m*3 -2.7 C 0 km/h
1456 28-02-2004 02:55:03 -2.9 C 2.37 g/m*3 -2.9 C 0 km/h
1457 28-02-2004 03:07:03 -2.8 C 2.35 g/m*3 -2.8 C 0 km/h
1458 28-02-2004 03:19:03 -2.6 C 2.42 g/m*3 -2.6 C 0 km/h
1459 28-02-2004 03:31:00 -2.6 C 2.42 g/m*3 -2.6 C 0 km/h
1460 28-02-2004 03:43:00 -2.7 C 2.45 g/m*3 -2.7 C 0 km/h
1461 28-02-2004 03:55:00 -2.7 C 2.49 g/m*3 -2.7 C 0 km/h
1462 28-02-2004 04:07:00 -2.7 C 2.49 g/m*3 -2.7 C 0 km/h
1463 28-02-2004 04:19:59 -2.7 C 2.45 g/m*3 -2.7 C 0 km/h
1464 28-02-2004 04:31:58 -2.8 C 2.47 g/m*3 -2.8 C 0 km/h
1465 28-02-2004 04:43:58 -2.8 C 2.43 g/m*3 -2.8 C 0 km/h
1466 28-02-2004 04:55:01 -2.7 C 2.37 g/m*3 -2.7 C 0 km/h
1467 28-02-2004 05:07:01 -2.7 C 2.37 g/m*3 -2.7 C 0 km/h
1468 28-02-2004 05:19:00 -2.8 C 2.39 g/m*3 -2.8 C 0 km/h
1469 28-02-2004 05:31:00 -2.5 C 2.4 g/m*3 -2.5 C 0 km/h
1470 28-02-2004 05:43:00 -2.5 C 2.4 g/m*3 -2.5 C 0 km/h
1471 28-02-2004 05:55:01 -2.6 C 2.42 g/m*3 -2.6 C 0 km/h
1472 28-02-2004 06:07:01 -2.1 C 2.47 g/m*3 -2.1 C 0 km/h
1473 28-02-2004 06:19:01 -2.1 C 2.47 g/m*3 -2.1 C 0 km/h
1474 28-02-2004 06:31:01 -2.2 C 2.45 g/m*3 -2.2 C 0 km/h
1475 28-02-2004 06:43:01 -2.1 C 2.51 g/m*3 -2.1 C 0 km/h
Sensor: Nr:Datum:Temp:Abs-Feuchte:Windchill:Wind:
Aussen-T/F 1476 28-02-2004 06:55:00 -2.1 C 2.51 g/m*3 -2.1 C 0 km/h
1477 28-02-2004 07:07:59 -2 C 2.57 g/m*3 -2 C 0 km/h
1478 28-02-2004 07:19:58 -1.9 C 2.59 g/m*3 -1.9 C 0 km/h
1479 28-02-2004 07:31:57 -1.8 C 2.65 g/m*3 -1.8 C 0 km/h
1480 28-02-2004 07:43:57 -1.8 C 2.65 g/m*3 -1.8 C 0 km/h
1481 28-02-2004 07:55:01 -1.8 C 2.69 g/m*3 -1.8 C 0 km/h
1482 28-02-2004 08:07:01 -1.9 C 2.72 g/m*3 -1.9 C 0 km/h
1483 28-02-2004 08:19:01 -1.9 C 2.8 g/m*3 -1.9 C 0 km/h
1484 28-02-2004 08:31:01 -1.8 C 2.86 g/m*3 -1.8 C 0 km/h
1485 28-02-2004 08:43:01 -1.8 C 2.86 g/m*3 -1.8 C 0 km/h
1486 28-02-2004 08:55:03 -1.7 C 2.84 g/m*3 -1.7 C 0 km/h
1487 28-02-2004 09:07:01 -1.6 C 2.86 g/m*3 -1.6 C 0 km/h
1488 28-02-2004 09:19:01 -1.2 C 2.94 g/m*3 -1.2 C 0 km/h
1489 28-02-2004 09:31:01 -1 C 2.94 g/m*3 -1 C 0 km/h
1490 28-02-2004 09:43:01 -0.9 C 2.96 g/m*3 -0.9 C 0 km/h
1491 28-02-2004 09:55:00 -0.4 C 3.02 g/m*3 -0.4 C 0 km/h
1492 28-02-2004 10:07:00 0 C 3 g/m*3 0 C 0 km/h
1493 28-02-2004 10:19:59 0.1 C 2.98 g/m*3 0.1 C 0 km/h
1494 28-02-2004 10:31:58 0.2 C 2.95 g/m*3 0.2 C 0 km/h
1495 28-02-2004 10:43:58 0.7 C 2.95 g/m*3 0.7 C 0 km/h
1496 28-02-2004 10:55:01 1 C 2.85 g/m*3 1 C 0 km/h
1497 28-02-2004 11:07:01 0.8 C 3.02 g/m*3 0.8 C 0 km/h
1498 28-02-2004 11:19:01 1.2 C 3.1 g/m*3 1.2 C 0 km/h
1499 28-02-2004 11:31:01 0.7 C 3.05 g/m*3 0.7 C 0 km/h
1500 28-02-2004 11:43:01 0.7 C 3.05 g/m*3 0.7 C 0 km/h
Sensor: Nr:Datum:Temp:Abs-Feuchte:Windchill:Wind:
Aussen-T/F 1501 28-02-2004 11:55:00 1.3 C 3.07 g/m*3 1.3 C 0 km/h
1502 28-02-2004 12:07:00 2.1 C 3.13 g/m*3 2.1 C 0 km/h
1503 28-02-2004 12:19:58 2.3 C 3.01 g/m*3 2.3 C 0 km/h
1504 28-02-2004 12:31:57 2.9 C 3.01 g/m*3 2.9 C 0 km/h
1505 28-02-2004 12:43:57 2.6 C 2.89 g/m*3 2.6 C 0 km/h
1506 28-02-2004 12:55:01 2.9 C 2.95 g/m*3 2.9 C 0 km/h
1507 28-02-2004 13:07:01 3.6 C 2.97 g/m*3 3.6 C 0 km/h
1508 28-02-2004 13:19:01 4.7 C 2.93 g/m*3 4.7 C 0 km/h
1509 28-02-2004 13:31:01 3.8 C 2.7 g/m*3 3.8 C 0 km/h
1510 28-02-2004 13:43:01 3.5 C 2.77 g/m*3 3.5 C 0 km/h
1511 28-02-2004 13:55:00 5.1 C 2.8 g/m*3 5.1 C 0 km/h
1512 28-02-2004 14:07:00 5.4 C 2.58 g/m*3 5.4 C 0 km/h
1513 28-02-2004 14:19:58 4.3 C 2.59 g/m*3 4.3 C 0 km/h
1514 28-02-2004 14:31:57 5 C 2.65 g/m*3 5 C 0 km/h
1515 28-02-2004 14:43:57 6 C 2.54 g/m*3 6 C 0 km/h
1516 28-02-2004 14:55:02 6.8 C 2.52 g/m*3 6.8 C 0 km/h
1517 28-02-2004 15:07:01 7.3 C 2.45 g/m*3 7.3 C 0 km/h
1518 28-02-2004 15:19:02 6.9 C 2.39 g/m*3 6.9 C 0 km/h
1519 28-02-2004 15:31:03 4.9 C 2.16 g/m*3 4.9 C 0 km/h
1520 28-02-2004 15:43:03 5 C 2.24 g/m*3 5 C 0 km/h
1521 28-02-2004 15:55:00 6.1 C 2.41 g/m*3 6.1 C 0 km/h
1522 28-02-2004 16:07:00 6.9 C 2.39 g/m*3 6.9 C 0 km/h
1523 28-02-2004 16:19:59 6.7 C 2.2 g/m*3 6.7 C 0 km/h
1524 28-02-2004 16:31:58 6.8 C 2.37 g/m*3 6.8 C 0 km/h
1525 28-02-2004 16:43:58 6.2 C 2.28 g/m*3 6.2 C 0 km/h
Sensor: Nr:Datum:Temp:Abs-Feuchte:Windchill:Wind:
Aussen-T/F 1526 28-02-2004 16:55:02 6.2 C 2.28 g/m*3 6.2 C 0 km/h
1527 28-02-2004 17:07:01 5.9 C 2.24 g/m*3 5.9 C 0 km/h
1528 28-02-2004 17:19:01 5.3 C 2.08 g/m*3 5.3 C 0 km/h
1529 28-02-2004 17:31:01 4.6 C 2.12 g/m*3 4.6 C 0 km/h
1530 28-02-2004 17:43:01 3.6 C 2.23 g/m*3 3.6 C 0 km/h
1531 28-02-2004 17:55:00 2.6 C 2.31 g/m*3 2.6 C 0 km/h
1532 28-02-2004 18:07:00 2.1 C 2.52 g/m*3 2.1 C 0 km/h
1533 28-02-2004 18:19:59 1.5 C 2.58 g/m*3 1.5 C 0 km/h
1534 28-02-2004 18:31:58 1 C 2.49 g/m*3 1 C 0 km/h
1535 28-02-2004 18:43:58 0.7 C 2.54 g/m*3 0.7 C 0 km/h
1536 28-02-2004 18:55:01 0.4 C 2.54 g/m*3 0.4 C 0 km/h
1537 28-02-2004 19:07:01 0.2 C 2.6 g/m*3 0.2 C 0 km/h
1538 28-02-2004 19:19:01 0 C 2.62 g/m*3 0 C 0 km/h
1539 28-02-2004 19:36:01 -0.3 C 2.61 g/m*3 -0.3 C 0 km/h
1540 28-02-2004 19:48:01 -0.4 C 2.64 g/m*3 -0.4 C 0 km/h
1541 28-02-2004 20:00:01 -0.6 C 2.6 g/m*3 -0.6 C 0 km/h
1542 28-02-2004 20:12:00 -0.7 C 2.63 g/m*3 -0.7 C 0 km/h
1543 28-02-2004 20:24:59 -1 C 2.53 g/m*3 -1 C 0 km/h
1544 28-02-2004 20:36:58 -1.1 C 2.56 g/m*3 -1.1 C 0 km/h
1545 28-02-2004 20:48:01 -1.3 C 2.52 g/m*3 -1.3 C 0 km/h
1546 28-02-2004 21:00:01 -1.4 C 2.51 g/m*3 -1.4 C 0 km/h
1547 28-02-2004 21:12:01 -1.6 C 2.51 g/m*3 -1.6 C 0 km/h
1548 28-02-2004 21:24:01 -1.8 C 2.48 g/m*3 -1.8 C 0 km/h
1549 28-02-2004 21:36:01 -2 C 2.49 g/m*3 -2 C 0 km/h
1550 28-02-2004 21:48:00 -2.1 C 2.55 g/m*3 -2.1 C 0 km/h
Sensor: Nr:Datum:Temp:Abs-Feuchte:Windchill:Wind:
Aussen-T/F 1551 28-02-2004 22:00:00 -2.2 C 2.49 g/m*3 -2.2 C 0 km/h
1552 28-02-2004 22:12:00 -2.3 C 2.44 g/m*3 -2.3 C 0 km/h
1553 28-02-2004 22:24:58 -2.5 C 2.4 g/m*3 -2.5 C 0 km/h
1554 28-02-2004 22:36:57 -2.6 C 2.38 g/m*3 -2.6 C 0 km/h
1555 28-02-2004 22:48:01 -2.8 C 2.39 g/m*3 -2.8 C 0 km/h
1556 28-02-2004 23:00:01 -2.9 C 2.41 g/m*3 -2.9 C 0 km/h
1557 28-02-2004 23:12:01 -3 C 2.4 g/m*3 -3 C 0 km/h
1558 28-02-2004 23:24:01 -3.2 C 2.44 g/m*3 -3.2 C 0 km/h
1559 28-02-2004 23:36:01 -3.4 C 2.37 g/m*3 -3.4 C 0 km/h
1560 29-02-2004 00:00:00 -3.4 C 2.44 g/m*3 -3.4 C 0 km/h
1561 29-02-2004 00:11:59 -3.7 C 2.35 g/m*3 -3.7 C 0 km/h
1562 29-02-2004 00:24:58 -3.9 C 2.32 g/m*3 -3.9 C 0 km/h
1563 29-02-2004 00:36:57 -3.9 C 2.36 g/m*3 -3.9 C 0 km/h
1564 29-02-2004 00:48:36 -3.9 C 2.36 g/m*3 -3.9 C 0 km/h
1565 29-02-2004 01:00:39 -4 C 2.34 g/m*3 -4 C 0 km/h
1566 29-02-2004 01:12:39 -4.1 C 2.32 g/m*3 -4.1 C 0 km/h
1567 29-02-2004 01:24:34 -4.1 C 2.36 g/m*3 -4.1 C 0 km/h
1568 29-02-2004 01:36:37 -3.9 C 2.39 g/m*3 -3.9 C 0 km/h
1569 29-02-2004 01:48:30 -4.2 C 2.34 g/m*3 -4.2 C 0 km/h
1570 29-02-2004 02:00:33 -4.2 C 2.34 g/m*3 -4.2 C 0 km/h
1571 29-02-2004 02:12:28 -4.3 C 2.33 g/m*3 -4.3 C 0 km/h
1572 29-02-2004 02:24:31 -4.6 C 2.28 g/m*3 -4.6 C 0 km/h
1573 29-02-2004 02:36:31 -4.8 C 2.28 g/m*3 -4.8 C 0 km/h
1574 29-02-2004 02:58:04 -4.8 C 2.35 g/m*3 -4.8 C 0 km/h
1575 29-02-2004 03:11:05 -4.9 C 2.33 g/m*3 -4.9 C 0 km/h
Sensor: Nr:Datum:Temp:Abs-Feuchte:Windchill:Wind:
Aussen-T/F 1576 29-02-2004 03:23:05 -4.9 C 2.33 g/m*3 -4.9 C 0 km/h
1577 29-02-2004 03:37:04 -5 C 2.32 g/m*3 -5 C 0 km/h
1578 29-02-2004 03:49:04 -5 C 2.35 g/m*3 -5 C 0 km/h
1579 29-02-2004 04:02:04 -5.1 C 2.33 g/m*3 -5.1 C 0 km/h
1580 29-02-2004 04:14:04 -5.4 C 2.28 g/m*3 -5.4 C 0 km/h
1581 29-02-2004 04:27:04 -5.6 C 2.25 g/m*3 -5.6 C 0 km/h
1582 29-02-2004 04:40:04 -5.5 C 2.3 g/m*3 -5.5 C 0 km/h
1583 29-02-2004 04:53:04 -5.6 C 2.28 g/m*3 -5.6 C 0 km/h
1584 29-02-2004 05:01:15 -5.7 C 2.3 g/m*3 -5.7 C 0 km/h
1585 29-02-2004 05:06:05 -5.7 C 2.27 g/m*3 -5.7 C 0 km/h
1586 29-02-2004 05:13:18 -5.3 C 2.4 g/m*3 -5.3 C 0 km/h
1587 29-02-2004 05:25:12 -4.8 C 2.45 g/m*3 -4.8 C 0 km/h
1588 29-02-2004 05:37:12 -4.6 C 2.42 g/m*3 -4.6 C 0 km/h
1589 29-02-2004 05:49:15 -4.7 C 2.37 g/m*3 -4.7 C 0 km/h
1590 29-02-2004 06:01:09 -4.6 C 2.38 g/m*3 -4.6 C 0 km/h
1591 29-02-2004 06:13:12 -4.4 C 2.42 g/m*3 -4.4 C 0 km/h
1592 29-02-2004 06:25:53 -4.1 C 2.47 g/m*3 -4.1 C 0 km/h
1593 29-02-2004 06:37:07 -3.9 C 2.47 g/m*3 -3.9 C 0 km/h
1594 29-02-2004 06:49:07 -4 C 2.45 g/m*3 -4 C 0 km/h
1595 29-02-2004 07:01:32 -3.9 C 2.47 g/m*3 -3.9 C 0 km/h
1596 29-02-2004 07:13:46 -4.1 C 2.43 g/m*3 -4.1 C 0 km/h
1597 29-02-2004 07:25:11 -4 C 2.49 g/m*3 -4 C 0 km/h
1598 29-02-2004 07:37:11 -4.3 C 2.43 g/m*3 -4.3 C 0 km/h
1599 29-02-2004 07:49:25 -4.6 C 2.42 g/m*3 -4.6 C 0 km/h
1600 29-02-2004 08:01:49 -4.7 C 2.4 g/m*3 -4.7 C 0 km/h
Sensor: Nr:Datum:Temp:Abs-Feuchte:Windchill:Wind:
Aussen-T/F 1601 29-02-2004 08:13:49 -4.8 C 2.42 g/m*3 -4.8 C 0 km/h
1602 29-02-2004 08:25:03 -4.8 C 2.42 g/m*3 -4.8 C 0 km/h
1603 29-02-2004 08:37:28 -4.7 C 2.44 g/m*3 -4.7 C 0 km/h
1604 29-02-2004 08:49:42 -4.6 C 2.49 g/m*3 -4.6 C 0 km/h
1605 29-02-2004 09:01:42 -4.4 C 2.52 g/m*3 -4.4 C 0 km/h
1606 29-02-2004 09:13:06 -3.8 C 2.6 g/m*3 -3.8 C 0 km/h
1607 29-02-2004 09:25:21 -3.4 C 2.63 g/m*3 -3.4 C 0 km/h
1608 29-02-2004 09:37:45 -3.3 C 2.61 g/m*3 -3.3 C 0 km/h
1609 29-02-2004 09:49:45 -3 C 2.71 g/m*3 -3 C 0 km/h
1610 29-02-2004 10:01:59 -2.5 C 2.77 g/m*3 -2.5 C 0 km/h
1611 29-02-2004 10:13:23 -2.2 C 2.62 g/m*3 -2.2 C 0 km/h
1612 29-02-2004 10:25:37 -2 C 2.74 g/m*3 -2 C 0 km/h
1613 29-02-2004 10:37:37 -1.6 C 2.77 g/m*3 -1.6 C 0 km/h
1614 29-02-2004 10:49:02 -1.1 C 2.87 g/m*3 -1.1 C 0 km/h
1615 29-02-2004 11:01:16 -0.6 C 2.88 g/m*3 -0.6 C 0 km/h
1616 29-02-2004 11:13:41 0.2 C 2.85 g/m*3 0.2 C 0 km/h
1617 29-02-2004 11:25:41 0.8 C 2.87 g/m*3 0.8 C 0 km/h
1618 29-02-2004 11:37:00 1.3 C 2.86 g/m*3 1.3 C 0 km/h
1619 29-02-2004 11:49:02 0.9 C 2.73 g/m*3 0.9 C 0 km/h
1620 29-02-2004 12:01:01 0.9 C 2.73 g/m*3 0.9 C 0 km/h
1621 29-02-2004 12:13:01 0.6 C 2.68 g/m*3 0.6 C 0 km/h
1622 29-02-2004 12:25:01 0.6 C 2.68 g/m*3 0.6 C 0 km/h
1623 29-02-2004 12:37:02 0.8 C 2.66 g/m*3 0.8 C 0 km/h
1624 29-02-2004 12:49:00 1.4 C 2.72 g/m*3 1.4 C 0 km/h
1625 29-02-2004 13:01:00 1.9 C 2.76 g/m*3 1.9 C 0 km/h
Sensor: Nr:Datum:Temp:Abs-Feuchte:Windchill:Wind:
Aussen-T/F 1626 29-02-2004 13:13:00 2.2 C 2.7 g/m*3 2.2 C 0 km/h
1627 29-02-2004 13:25:59 3.2 C 2.77 g/m*3 3.2 C 0 km/h
1628 29-02-2004 13:37:58 3.8 C 2.63 g/m*3 3.8 C 0 km/h
1629 29-02-2004 13:49:01 3.8 C 2.63 g/m*3 3.8 C 0 km/h
1630 29-02-2004 14:01:01 4.2 C 2.45 g/m*3 4.2 C 0 km/h
1631 29-02-2004 14:13:01 3.5 C 2.4 g/m*3 3.5 C 0 km/h
1632 29-02-2004 14:25:01 3.3 C 2.49 g/m*3 3.3 C 0 km/h
1633 29-02-2004 14:37:01 3.2 C 2.59 g/m*3 3.2 C 0 km/h
1634 29-02-2004 14:49:00 3.9 C 2.46 g/m*3 3.9 C 0 km/h
1635 29-02-2004 15:01:00 4.6 C 2.38 g/m*3 4.6 C 0 km/h
1636 29-02-2004 15:13:00 5.2 C 2.41 g/m*3 5.2 C 0 km/h
1637 29-02-2004 15:25:58 4.7 C 2.33 g/m*3 4.7 C 0 km/h
1638 29-02-2004 15:37:57 5.5 C 2.39 g/m*3 5.5 C 0 km/h
1639 29-02-2004 15:49:01 4.6 C 2.32 g/m*3 4.6 C 0 km/h
1640 29-02-2004 16:01:01 5.2 C 2.34 g/m*3 5.2 C 0 km/h
1641 29-02-2004 16:13:01 4.5 C 2.3 g/m*3 4.5 C 0 km/h
1642 29-02-2004 16:25:01 4.7 C 2.33 g/m*3 4.7 C 0 km/h
1643 29-02-2004 16:37:01 5.2 C 2.41 g/m*3 5.2 C 0 km/h
1644 29-02-2004 16:49:00 5.2 C 2.2 g/m*3 5.2 C 0 km/h
1645 29-02-2004 17:01:00 5.2 C 2.2 g/m*3 5.2 C 0 km/h
1646 29-02-2004 17:13:00 5.5 C 2.39 g/m*3 5.5 C 0 km/h
1647 29-02-2004 17:25:58 4.7 C 2.73 g/m*3 4.7 C 0 km/h
1648 29-02-2004 17:37:57 3.4 C 2.93 g/m*3 3.4 C 0 km/h
1649 29-02-2004 17:49:03 3.2 C 3.01 g/m*3 3.2 C 0 km/h
1650 29-02-2004 18:01:01 2.5 C 2.87 g/m*3 2.5 C 0 km/h
Sensor: Nr:Datum:Temp:Abs-Feuchte:Windchill:Wind:
Aussen-T/F 1651 29-02-2004 18:13:01 2.2 C 2.7 g/m*3 2.2 C 0 km/h
1652 29-02-2004 18:25:01 1.8 C 2.74 g/m*3 1.8 C 0 km/h
1653 29-02-2004 18:37:01 1.5 C 2.79 g/m*3 1.5 C 0 km/h
1654 29-02-2004 18:49:00 1.1 C 2.82 g/m*3 1.1 C 0 km/h
1655 29-02-2004 19:01:59 0.8 C 2.87 g/m*3 0.8 C 0 km/h
1656 29-02-2004 19:13:59 0.6 C 2.83 g/m*3 0.6 C 0 km/h
1657 29-02-2004 19:25:58 0.3 C 2.92 g/m*3 0.3 C 0 km/h
1658 29-02-2004 19:37:57 0.1 C 2.93 g/m*3 0.1 C 0 km/h
1659 29-02-2004 19:49:01 0.3 C 2.97 g/m*3 0.3 C 0 km/h
1660 29-02-2004 20:01:01 0.2 C 2.95 g/m*3 0.2 C 0 km/h
1661 29-02-2004 20:13:01 0.1 C 2.98 g/m*3 0.1 C 0 km/h
1662 29-02-2004 20:25:01 -0.1 C 2.94 g/m*3 -0.1 C 0 km/h
1663 29-02-2004 20:37:00 -0.3 C 2.94 g/m*3 -0.3 C 0 km/h
1664 29-02-2004 20:49:01 -0.4 C 2.97 g/m*3 -0.4 C 0 km/h
1665 29-02-2004 21:01:01 -0.6 C 3.02 g/m*3 -0.6 C 0 km/h
1666 29-02-2004 21:13:01 -0.8 C 3.03 g/m*3 -0.8 C 0 km/h
1667 29-02-2004 21:25:01 -0.9 C 3 g/m*3 -0.9 C 0 km/h
1668 29-02-2004 21:37:01 -1 C 2.98 g/m*3 -1 C 0 km/h
1669 29-02-2004 21:49:01 -1.1 C 2.96 g/m*3 -1.1 C 0 km/h
1670 29-02-2004 22:01:00 -1.2 C 2.94 g/m*3 -1.2 C 0 km/h
1671 29-02-2004 22:13:00 -1.2 C 2.94 g/m*3 -1.2 C 0 km/h
1672 29-02-2004 22:25:58 -1.4 C 2.9 g/m*3 -1.4 C 0 km/h
1673 29-02-2004 22:37:57 -1.5 C 2.88 g/m*3 -1.5 C 0 km/h
1674 29-02-2004 22:49:01 -1.6 C 2.86 g/m*3 -1.6 C 0 km/h
1675 29-02-2004 23:01:01 -1.6 C 2.82 g/m*3 -1.6 C 0 km/h
Sensor: Nr:Datum:Temp:Abs-Feuchte:Windchill:Wind:
Aussen-T/F 1676 29-02-2004 23:13:01 -1.7 C 2.8 g/m*3 -1.7 C 0 km/h
1677 29-02-2004 23:25:01 -1.7 C 2.8 g/m*3 -1.7 C 0 km/h
1678 29-02-2004 23:37:01 -1.7 C 2.8 g/m*3 -1.7 C 0 km/h
1679 29-02-2004 23:49:01 -1.8 C 2.78 g/m*3 -1.8 C 0 km/h
1680 01-03-2004 00:01:00 -1.8 C 2.78 g/m*3 -1.8 C 0 km/h
1681 01-03-2004 00:13:01 -1.8 C 2.74 g/m*3 -1.8 C 0 km/h
1682 01-03-2004 00:25:00 -1.7 C 2.71 g/m*3 -1.7 C 0 km/h
1683 01-03-2004 00:37:00 -1.8 C 2.74 g/m*3 -1.8 C 0 km/h
1684 01-03-2004 00:49:00 -1.9 C 2.72 g/m*3 -1.9 C 0 km/h
1685 01-03-2004 01:01:00 -2 C 2.7 g/m*3 -2 C 0 km/h
1686 01-03-2004 01:13:00 -2 C 2.7 g/m*3 -2 C 0 km/h
1687 01-03-2004 01:25:01 -2.2 C 2.62 g/m*3 -2.2 C 0 km/h
1688 01-03-2004 01:37:01 -2.3 C 2.56 g/m*3 -2.3 C 0 km/h
1689 01-03-2004 01:49:00 -2.3 C 2.52 g/m*3 -2.3 C 0 km/h
1690 01-03-2004 02:01:00 -2.3 C 2.52 g/m*3 -2.3 C 0 km/h
1691 01-03-2004 02:13:00 -2.6 C 2.51 g/m*3 -2.6 C 0 km/h
1692 01-03-2004 02:25:00 -2.6 C 2.55 g/m*3 -2.6 C 0 km/h
1693 01-03-2004 02:37:00 -2.8 C 2.51 g/m*3 -2.8 C 0 km/h
1694 01-03-2004 02:50:03 -2.8 C 2.51 g/m*3 -2.8 C 0 km/h
1695 01-03-2004 03:02:03 -3 C 2.51 g/m*3 -3 C 0 km/h
1696 01-03-2004 03:14:03 -3.3 C 2.46 g/m*3 -3.3 C 0 km/h
1697 01-03-2004 03:26:03 -3.3 C 2.5 g/m*3 -3.3 C 0 km/h
1698 01-03-2004 03:37:59 -3.4 C 2.48 g/m*3 -3.4 C 0 km/h
1699 01-03-2004 03:49:59 -3.4 C 2.48 g/m*3 -3.4 C 0 km/h
1700 01-03-2004 04:02:59 -3.1 C 2.54 g/m*3 -3.1 C 0 km/h
Sensor: Nr:Datum:Temp:Abs-Feuchte:Windchill:Wind:
Aussen-T/F 1701 01-03-2004 04:14:58 -3 C 2.51 g/m*3 -3 C 0 km/h
1702 01-03-2004 04:26:58 -2.9 C 2.57 g/m*3 -2.9 C 0 km/h
1703 01-03-2004 04:38:57 -2.9 C 2.57 g/m*3 -2.9 C 0 km/h
1704 01-03-2004 04:50:01 -2.9 C 2.61 g/m*3 -2.9 C 0 km/h
1705 01-03-2004 05:02:01 -3.2 C 2.56 g/m*3 -3.2 C 0 km/h
1706 01-03-2004 05:14:01 -3.4 C 2.63 g/m*3 -3.4 C 0 km/h
1707 01-03-2004 05:26:01 -3.5 C 2.62 g/m*3 -3.5 C 0 km/h
1708 01-03-2004 05:38:00 -3.8 C 2.63 g/m*3 -3.8 C 0 km/h
1709 01-03-2004 05:50:01 -3.8 C 2.67 g/m*3 -3.8 C 0 km/h
1710 01-03-2004 06:02:01 -3.8 C 2.67 g/m*3 -3.8 C 0 km/h
1711 01-03-2004 06:14:01 -3.9 C 2.65 g/m*3 -3.9 C 0 km/h
1712 01-03-2004 06:26:01 -4 C 2.63 g/m*3 -4 C 0 km/h
1713 01-03-2004 06:38:01 -4.1 C 2.65 g/m*3 -4.1 C 0 km/h
1714 01-03-2004 06:50:00 -4.1 C 2.65 g/m*3 -4.1 C 0 km/h
1715 01-03-2004 07:02:00 -4.4 C 2.56 g/m*3 -4.4 C 0 km/h
1716 01-03-2004 07:14:00 -4.4 C 2.6 g/m*3 -4.4 C 0 km/h
1717 01-03-2004 07:26:59 -4.2 C 2.63 g/m*3 -4.2 C 0 km/h
1718 01-03-2004 07:38:58 -4.3 C 2.61 g/m*3 -4.3 C 0 km/h
1719 01-03-2004 07:50:01 -4.2 C 2.63 g/m*3 -4.2 C 0 km/h
1720 01-03-2004 08:02:00 -4.2 C 2.63 g/m*3 -4.2 C 0 km/h
1721 01-03-2004 08:14:00 -4.1 C 2.65 g/m*3 -4.1 C 0 km/h
1722 01-03-2004 08:26:01 -4.3 C 2.61 g/m*3 -4.3 C 0 km/h
1723 01-03-2004 08:38:01 -4.2 C 2.63 g/m*3 -4.2 C 0 km/h
1724 01-03-2004 08:50:01 -4.2 C 2.63 g/m*3 -4.2 C 0 km/h
1725 01-03-2004 09:02:00 -3.9 C 2.65 g/m*3 -3.9 C 0 km/h
Sensor: Nr:Datum:Temp:Abs-Feuchte:Windchill:Wind:
Aussen-T/F 1726 01-03-2004 09:14:00 -3.8 C 2.63 g/m*3 -3.8 C 0 km/h
1727 01-03-2004 09:26:59 -3.5 C 2.69 g/m*3 -3.5 C 0 km/h
1728 01-03-2004 09:38:58 -3.2 C 2.71 g/m*3 -3.2 C 0 km/h
1729 01-03-2004 09:50:01 -2.8 C 2.75 g/m*3 -2.8 C 0 km/h
1730 01-03-2004 10:02:01 -2.3 C 2.81 g/m*3 -2.3 C 0 km/h
1731 01-03-2004 10:14:01 -1.9 C 2.76 g/m*3 -1.9 C 0 km/h
1732 01-03-2004 10:26:01 -1.3 C 2.79 g/m*3 -1.3 C 0 km/h
1733 01-03-2004 10:38:01 -0.9 C 2.78 g/m*3 -0.9 C 0 km/h
1734 01-03-2004 10:50:00 -0.3 C 2.75 g/m*3 -0.3 C 0 km/h
1735 01-03-2004 11:02:00 0.2 C 2.65 g/m*3 0.2 C 0 km/h
1736 01-03-2004 11:14:00 0.5 C 2.61 g/m*3 0.5 C 0 km/h
1737 01-03-2004 11:26:58 1.6 C 2.43 g/m*3 1.6 C 0 km/h
1738 01-03-2004 11:38:57 1.4 C 2.4 g/m*3 1.4 C 0 km/h
1739 01-03-2004 11:50:01 1.4 C 2.4 g/m*3 1.4 C 0 km/h
1740 01-03-2004 12:02:01 2.2 C 2.42 g/m*3 2.2 C 0 km/h
1741 01-03-2004 12:14:01 2 C 2.22 g/m*3 2 C 0 km/h
1742 01-03-2004 12:26:01 2.2 C 2.31 g/m*3 2.2 C 0 km/h
1743 01-03-2004 12:38:01 3 C 2.32 g/m*3 3 C 0 km/h
1744 01-03-2004 12:50:01 3.3 C 2.31 g/m*3 3.3 C 0 km/h
1745 01-03-2004 13:02:01 2.3 C 2.21 g/m*3 2.3 C 0 km/h
1746 01-03-2004 13:14:01 2.9 C 2.36 g/m*3 2.9 C 0 km/h
1747 01-03-2004 13:26:01 3 C 2.08 g/m*3 3 C 0 km/h
1748 01-03-2004 13:38:01 3.1 C 2.15 g/m*3 3.1 C 0 km/h
1749 01-03-2004 13:50:00 4.3 C 2.21 g/m*3 4.3 C 0 km/h
1750 01-03-2004 14:02:00 4.4 C 2.09 g/m*3 4.4 C 0 km/h
Sensor: Nr:Datum:Temp:Abs-Feuchte:Windchill:Wind:
Aussen-T/F 1751 01-03-2004 14:14:00 3.7 C 2.18 g/m*3 3.7 C 0 km/h
1752 01-03-2004 14:26:59 4 C 2.1 g/m*3 4 C 0 km/h
1753 01-03-2004 14:38:57 4.7 C 2.2 g/m*3 4.7 C 0 km/h
1754 01-03-2004 14:50:01 4 C 2.03 g/m*3 4 C 0 km/h
1755 01-03-2004 15:02:01 3.8 C 2.2 g/m*3 3.8 C 0 km/h
1756 01-03-2004 15:14:01 4.4 C 2.22 g/m*3 4.4 C 0 km/h
1757 01-03-2004 15:26:01 4.3 C 2.14 g/m*3 4.3 C 0 km/h
1758 01-03-2004 15:38:01 4.8 C 2.08 g/m*3 4.8 C 0 km/h
1759 01-03-2004 15:50:00 4.9 C 2.03 g/m*3 4.9 C 0 km/h
1760 01-03-2004 16:14:00 5.2 C 1.93 g/m*3 5.2 C 0 km/h
1761 01-03-2004 16:14:58 5.1 C 1.92 g/m*3 5.1 C 0 km/h
1762 01-03-2004 16:26:58 5.9 C 2.02 g/m*3 5.9 C 0 km/h
1763 01-03-2004 16:38:57 4.9 C 2.03 g/m*3 4.9 C 0 km/h
1764 01-03-2004 16:50:01 5.1 C 2.05 g/m*3 5.1 C 0 km/h
1765 01-03-2004 17:02:01 4.8 C 2.15 g/m*3 4.8 C 0 km/h
1766 01-03-2004 17:14:01 4.2 C 2.19 g/m*3 4.2 C 0 km/h
1767 01-03-2004 17:26:01 4 C 2.16 g/m*3 4 C 0 km/h
1768 01-03-2004 17:38:01 3.5 C 2.21 g/m*3 3.5 C 0 km/h
1769 01-03-2004 17:50:01 2.7 C 2.27 g/m*3 2.7 C 0 km/h
1770 01-03-2004 18:02:00 2.2 C 2.31 g/m*3 2.2 C 0 km/h
1771 01-03-2004 18:14:00 1.8 C 2.41 g/m*3 1.8 C 0 km/h
1772 01-03-2004 18:26:59 1.6 C 2.43 g/m*3 1.6 C 0 km/h
1773 01-03-2004 18:38:58 1.3 C 2.44 g/m*3 1.3 C 0 km/h
1774 01-03-2004 18:50:01 1.1 C 2.46 g/m*3 1.1 C 0 km/h
1775 01-03-2004 19:02:01 1 C 2.49 g/m*3 1 C 0 km/h
Sensor: Nr:Datum:Temp:Abs-Feuchte:Windchill:Wind:
Aussen-T/F 1776 01-03-2004 19:14:01 1 C 2.49 g/m*3 1 C 0 km/h
1777 01-03-2004 19:26:01 1 C 2.54 g/m*3 1 C 0 km/h
1778 01-03-2004 19:38:01 0.8 C 2.56 g/m*3 0.8 C 0 km/h
1779 01-03-2004 19:50:01 0.7 C 2.59 g/m*3 0.7 C 0 km/h
1780 01-03-2004 20:13:59 0.6 C 2.58 g/m*3 0.6 C 0 km/h
1781 01-03-2004 20:14:58 0.6 C 2.63 g/m*3 0.6 C 0 km/h
1782 01-03-2004 20:26:58 0.6 C 2.68 g/m*3 0.6 C 0 km/h
1783 01-03-2004 20:38:57 0.6 C 2.68 g/m*3 0.6 C 0 km/h
1784 01-03-2004 20:50:01 0.8 C 2.66 g/m*3 0.8 C 0 km/h
1785 01-03-2004 21:02:01 1 C 2.65 g/m*3 1 C 0 km/h
1786 01-03-2004 21:14:01 1 C 2.65 g/m*3 1 C 0 km/h
1787 01-03-2004 21:26:01 1.1 C 2.67 g/m*3 1.1 C 0 km/h
1788 01-03-2004 21:38:01 1.1 C 2.67 g/m*3 1.1 C 0 km/h
1789 01-03-2004 21:50:00 1.1 C 2.72 g/m*3 1.1 C 0 km/h
1790 01-03-2004 22:02:00 1 C 2.7 g/m*3 1 C 0 km/h
1791 01-03-2004 22:14:00 1 C 2.75 g/m*3 1 C 0 km/h
1792 01-03-2004 22:26:58 0.9 C 2.84 g/m*3 0.9 C 0 km/h
1793 01-03-2004 22:38:57 1 C 2.8 g/m*3 1 C 0 km/h
1794 01-03-2004 22:50:01 1 C 2.91 g/m*3 1 C 0 km/h
1795 01-03-2004 23:02:01 1 C 2.85 g/m*3 1 C 0 km/h
1796 01-03-2004 23:14:01 1 C 2.96 g/m*3 1 C 0 km/h
1797 01-03-2004 23:26:01 1 C 3.11 g/m*3 1 C 0 km/h
1798 01-03-2004 23:38:01 0.7 C 3.2 g/m*3 0.7 C 0 km/h
1799 01-03-2004 23:50:00 0.6 C 3.33 g/m*3 0.6 C 0 km/h
1800 02-03-2004 00:02:59 0.5 C 3.26 g/m*3 0.5 C 0 km/h
Sensor: Nr:Datum:Temp:Abs-Feuchte:Windchill:Wind:
Aussen-T/F 1801 02-03-2004 00:14:58 0.5 C 3.31 g/m*3 0.5 C 0 km/h
1802 02-03-2004 00:26:58 0.4 C 3.34 g/m*3 0.4 C 0 km/h
1803 02-03-2004 00:38:57 0.4 C 3.34 g/m*3 0.4 C 0 km/h
1804 02-03-2004 00:50:01 0.4 C 3.34 g/m*3 0.4 C 0 km/h
1805 02-03-2004 01:02:01 0.3 C 3.31 g/m*3 0.3 C 0 km/h
1806 02-03-2004 01:14:01 0.3 C 3.31 g/m*3 0.3 C 0 km/h
1807 02-03-2004 01:26:01 0.2 C 3.29 g/m*3 0.2 C 0 km/h
1808 02-03-2004 01:38:01 0.2 C 3.34 g/m*3 0.2 C 0 km/h
1809 02-03-2004 01:50:01 0.2 C 3.29 g/m*3 0.2 C 0 km/h
1810 02-03-2004 02:02:01 0.2 C 3.29 g/m*3 0.2 C 0 km/h
1811 02-03-2004 02:14:01 0.3 C 3.31 g/m*3 0.3 C 0 km/h
1812 02-03-2004 02:26:01 0.4 C 3.34 g/m*3 0.4 C 0 km/h
1813 02-03-2004 02:38:01 0.5 C 3.31 g/m*3 0.5 C 0 km/h
1814 02-03-2004 02:51:01 0.5 C 3.31 g/m*3 0.5 C 0 km/h
1815 02-03-2004 03:03:01 0.6 C 3.33 g/m*3 0.6 C 0 km/h
1816 02-03-2004 03:15:59 0.7 C 3.36 g/m*3 0.7 C 0 km/h
1817 02-03-2004 03:26:59 0.7 C 3.36 g/m*3 0.7 C 0 km/h
1818 02-03-2004 03:39:01 0.7 C 3.36 g/m*3 0.7 C 0 km/h
1819 02-03-2004 03:51:01 0.8 C 3.38 g/m*3 0.8 C 0 km/h
1820 02-03-2004 04:03:01 0.8 C 3.38 g/m*3 0.8 C 0 km/h
1821 02-03-2004 04:15:01 1 C 3.37 g/m*3 1 C 0 km/h
1822 02-03-2004 04:27:01 0.9 C 3.45 g/m*3 0.9 C 0 km/h
1823 02-03-2004 04:39:01 1.1 C 3.5 g/m*3 1.1 C 0 km/h
1824 02-03-2004 04:51:00 1.5 C 3.76 g/m*3 1.5 C 0 km/h
1825 02-03-2004 05:03:59 1.8 C 3.84 g/m*3 1.8 C 0 km/h
Sensor: Nr:Datum:Temp:Abs-Feuchte:Windchill:Wind:
Aussen-T/F 1826 02-03-2004 05:15:58 1.8 C 3.95 g/m*3 1.8 C 0 km/h
1827 02-03-2004 05:27:58 1.8 C 4.06 g/m*3 1.8 C 0 km/h
1828 02-03-2004 05:39:57 1.8 C 4.06 g/m*3 1.8 C 0 km/h
1829 02-03-2004 05:51:01 1.9 C 4.19 g/m*3 1.9 C 0 km/h
1830 02-03-2004 06:03:01 1.8 C 4.22 g/m*3 1.8 C 0 km/h
1831 02-03-2004 06:15:01 1.7 C 4.25 g/m*3 1.7 C 0 km/h
1832 02-03-2004 06:27:01 1.7 C 4.25 g/m*3 1.7 C 0 km/h
1833 02-03-2004 06:39:00 1.7 C 4.25 g/m*3 1.7 C 0 km/h
1834 02-03-2004 06:51:01 1.8 C 4.28 g/m*3 1.8 C 0 km/h
1835 02-03-2004 07:03:01 1.8 C 4.33 g/m*3 1.8 C 0 km/h
1836 02-03-2004 07:15:01 1.8 C 4.33 g/m*3 1.8 C 0 km/h
1837 02-03-2004 07:27:01 1.9 C 4.36 g/m*3 1.9 C 0 km/h
1838 02-03-2004 07:39:01 2 C 4.33 g/m*3 2 C 0 km/h
1839 02-03-2004 07:51:00 2 C 4.33 g/m*3 2 C 0 km/h
1840 02-03-2004 08:03:00 2.2 C 4.39 g/m*3 2.2 C 0 km/h
1841 02-03-2004 08:15:58 2.1 C 4.42 g/m*3 2.1 C 0 km/h
1842 02-03-2004 08:27:58 2.1 C 4.42 g/m*3 2.1 C 0 km/h
1843 02-03-2004 08:39:57 2.1 C 4.48 g/m*3 2.1 C 0 km/h
1844 02-03-2004 08:51:01 2.1 C 4.53 g/m*3 2.1 C 0 km/h
1845 02-03-2004 09:03:01 2.2 C 4.56 g/m*3 2.2 C 0 km/h
1846 02-03-2004 09:15:01 2.3 C 4.54 g/m*3 2.3 C 0 km/h
1847 02-03-2004 09:27:01 2.4 C 4.51 g/m*3 2.4 C 0 km/h
1848 02-03-2004 09:39:01 2.6 C 4.57 g/m*3 2.6 C 0 km/h
1849 02-03-2004 09:51:01 2.8 C 4.58 g/m*3 2.8 C 0 km/h
1850 02-03-2004 10:03:01 3 C 4.52 g/m*3 3 C 0 km/h
Sensor: Nr:Datum:Temp:Abs-Feuchte:Windchill:Wind:
Aussen-T/F 1851 02-03-2004 10:15:02 3 C 4.52 g/m*3 3 C 0 km/h
1852 02-03-2004 10:27:02 3.1 C 4.49 g/m*3 3.1 C 0 km/h
1853 02-03-2004 10:39:01 3.1 C 4.49 g/m*3 3.1 C 0 km/h
1854 02-03-2004 10:51:00 3.1 C 4.49 g/m*3 3.1 C 0 km/h
1855 02-03-2004 11:03:00 2.9 C 4.49 g/m*3 2.9 C 0 km/h
1856 02-03-2004 11:15:59 3 C 4.46 g/m*3 3 C 0 km/h
1857 02-03-2004 11:27:59 3 C 4.4 g/m*3 3 C 0 km/h
1858 02-03-2004 11:39:57 3.1 C 4.43 g/m*3 3.1 C 0 km/h
1859 02-03-2004 11:51:01 3.3 C 4.43 g/m*3 3.3 C 0 km/h
1860 02-03-2004 12:03:01 3.3 C 4.37 g/m*3 3.3 C 0 km/h
1861 02-03-2004 12:15:01 3.3 C 4.37 g/m*3 3.3 C 0 km/h
1862 02-03-2004 12:27:01 3.5 C 4.37 g/m*3 3.5 C 0 km/h
1863 02-03-2004 12:39:02 3.6 C 4.21 g/m*3 3.6 C 0 km/h
1864 02-03-2004 12:51:00 3.8 C 3.95 g/m*3 3.8 C 0 km/h
1865 02-03-2004 13:03:00 4 C 3.81 g/m*3 4 C 0 km/h
1866 02-03-2004 13:15:59 4.3 C 3.7 g/m*3 4.3 C 0 km/h
1867 02-03-2004 13:27:59 4.2 C 3.67 g/m*3 4.2 C 0 km/h
1868 02-03-2004 13:39:58 4.5 C 3.75 g/m*3 4.5 C 0 km/h
1869 02-03-2004 13:51:01 4.5 C 3.75 g/m*3 4.5 C 0 km/h
1870 02-03-2004 14:03:00 4.4 C 3.66 g/m*3 4.4 C 0 km/h
1871 02-03-2004 14:15:00 4.5 C 3.62 g/m*3 4.5 C 0 km/h
1872 02-03-2004 14:27:00 4.7 C 3.53 g/m*3 4.7 C 0 km/h
1873 02-03-2004 14:39:00 4.9 C 3.44 g/m*3 4.9 C 0 km/h
1874 02-03-2004 14:51:01 5 C 3.47 g/m*3 5 C 0 km/h
1875 02-03-2004 15:03:01 5.3 C 3.47 g/m*3 5.3 C 0 km/h
Sensor: Nr:Datum:Temp:Abs-Feuchte:Windchill:Wind:
Aussen-T/F 1876 02-03-2004 15:15:01 5.2 C 3.31 g/m*3 5.2 C 0 km/h
1877 02-03-2004 15:27:01 5.4 C 3.35 g/m*3 5.4 C 0 km/h
1878 02-03-2004 15:39:01 6 C 3.41 g/m*3 6 C 0 km/h
1879 02-03-2004 15:51:01 6.4 C 3.5 g/m*3 6.4 C 0 km/h
1880 02-03-2004 16:03:01 6.4 C 3.2 g/m*3 6.4 C 0 km/h
1881 02-03-2004 16:15:01 6.7 C 3.34 g/m*3 6.7 C 0 km/h
1882 02-03-2004 16:27:01 7 C 3.18 g/m*3 7 C 0 km/h
1883 02-03-2004 16:39:01 5.7 C 3.27 g/m*3 5.7 C 0 km/h
1884 02-03-2004 16:51:00 5.8 C 3.37 g/m*3 5.8 C 0 km/h
1885 02-03-2004 17:03:00 5.7 C 3.34 g/m*3 5.7 C 0 km/h
1886 02-03-2004 17:15:58 5.5 C 3.37 g/m*3 5.5 C 0 km/h
1887 02-03-2004 17:27:58 5.4 C 3.35 g/m*3 5.4 C 0 km/h
1888 02-03-2004 17:39:57 5.4 C 3.35 g/m*3 5.4 C 0 km/h
1889 02-03-2004 17:51:01 5.4 C 3.35 g/m*3 5.4 C 0 km/h
1890 02-03-2004 18:03:01 5.3 C 3.33 g/m*3 5.3 C 0 km/h
1891 02-03-2004 18:15:01 5 C 3.26 g/m*3 5 C 0 km/h
1892 02-03-2004 18:27:01 4.7 C 3.33 g/m*3 4.7 C 0 km/h
1893 02-03-2004 18:39:01 4.8 C 3.35 g/m*3 4.8 C 0 km/h
1894 02-03-2004 18:51:01 4.6 C 3.37 g/m*3 4.6 C 0 km/h
1895 02-03-2004 19:03:01 4.6 C 3.31 g/m*3 4.6 C 0 km/h
1896 02-03-2004 19:15:01 4.3 C 3.31 g/m*3 4.3 C 0 km/h
1897 02-03-2004 19:27:01 4.3 C 3.31 g/m*3 4.3 C 0 km/h
1898 02-03-2004 19:39:01 4.3 C 3.31 g/m*3 4.3 C 0 km/h
1899 02-03-2004 19:51:01 4.2 C 3.29 g/m*3 4.2 C 0 km/h
1900 02-03-2004 20:03:00 4.2 C 3.29 g/m*3 4.2 C 0 km/h
Sensor: Nr:Datum:Temp:Abs-Feuchte:Windchill:Wind:
Aussen-T/F 1901 02-03-2004 20:15:59 4 C 3.31 g/m*3 4 C 0 km/h
1902 02-03-2004 20:27:59 4 C 3.31 g/m*3 4 C 0 km/h
1903 02-03-2004 20:39:57 4 C 3.31 g/m*3 4 C 0 km/h
1904 02-03-2004 20:51:01 3.9 C 3.41 g/m*3 3.9 C 0 km/h
1905 02-03-2004 21:03:01 3.8 C 3.39 g/m*3 3.8 C 0 km/h
1906 02-03-2004 21:15:01 3.8 C 3.45 g/m*3 3.8 C 0 km/h
1907 02-03-2004 21:27:01 3.8 C 3.45 g/m*3 3.8 C 0 km/h
1908 02-03-2004 21:39:01 3.8 C 3.51 g/m*3 3.8 C 0 km/h
1909 02-03-2004 21:51:00 3.7 C 3.43 g/m*3 3.7 C 0 km/h
1910 02-03-2004 22:03:00 3.6 C 3.47 g/m*3 3.6 C 0 km/h
1911 02-03-2004 22:15:58 3.6 C 3.53 g/m*3 3.6 C 0 km/h
1912 02-03-2004 22:27:58 3.8 C 3.51 g/m*3 3.8 C 0 km/h
1913 02-03-2004 22:39:57 3.8 C 3.51 g/m*3 3.8 C 0 km/h
1914 02-03-2004 22:51:01 3.9 C 3.54 g/m*3 3.9 C 0 km/h
1915 02-03-2004 23:03:01 3.9 C 3.54 g/m*3 3.9 C 0 km/h
1916 02-03-2004 23:15:01 3.9 C 3.54 g/m*3 3.9 C 0 km/h
1917 02-03-2004 23:27:01 3.7 C 3.49 g/m*3 3.7 C 0 km/h
1918 02-03-2004 23:39:01 3.6 C 3.47 g/m*3 3.6 C 0 km/h
1919 02-03-2004 23:51:01 3.3 C 3.46 g/m*3 3.3 C 0 km/h
1920 03-03-2004 00:03:01 3.5 C 3.57 g/m*3 3.5 C 0 km/h
1921 03-03-2004 00:15:01 3.5 C 3.5 g/m*3 3.5 C 0 km/h
1922 03-03-2004 00:27:01 3.5 C 3.5 g/m*3 3.5 C 0 km/h
1923 03-03-2004 00:39:01 3.5 C 3.57 g/m*3 3.5 C 0 km/h
1924 03-03-2004 00:51:00 3.4 C 3.54 g/m*3 3.4 C 0 km/h
1925 03-03-2004 01:03:00 3.4 C 3.6 g/m*3 3.4 C 0 km/h
Sensor: Nr:Datum:Temp:Abs-Feuchte:Windchill:Wind:
Aussen-T/F 1926 03-03-2004 01:15:59 3.3 C 3.58 g/m*3 3.3 C 0 km/h
1927 03-03-2004 01:27:59 3.3 C 3.58 g/m*3 3.3 C 0 km/h
1928 03-03-2004 01:39:57 3.3 C 3.58 g/m*3 3.3 C 0 km/h
1929 03-03-2004 01:51:01 3.2 C 3.62 g/m*3 3.2 C 0 km/h
1930 03-03-2004 02:03:01 3.1 C 3.59 g/m*3 3.1 C 0 km/h
1931 03-03-2004 02:15:01 3 C 3.63 g/m*3 3 C 0 km/h
1932 03-03-2004 02:27:01 2.8 C 3.64 g/m*3 2.8 C 0 km/h
1933 03-03-2004 02:39:01 2.8 C 3.64 g/m*3 2.8 C 0 km/h
1934 03-03-2004 02:52:01 2.8 C 3.58 g/m*3 2.8 C 0 km/h
1935 03-03-2004 03:04:01 2.8 C 3.58 g/m*3 2.8 C 0 km/h
1936 03-03-2004 03:16:00 2.7 C 3.55 g/m*3 2.7 C 0 km/h
1937 03-03-2004 03:28:00 2.6 C 3.53 g/m*3 2.6 C 0 km/h
1938 03-03-2004 03:40:01 2.6 C 3.53 g/m*3 2.6 C 0 km/h
1939 03-03-2004 03:52:01 2.5 C 3.56 g/m*3 2.5 C 0 km/h
1940 03-03-2004 04:04:00 2.4 C 3.54 g/m*3 2.4 C 0 km/h
1941 03-03-2004 04:16:00 2.3 C 3.52 g/m*3 2.3 C 0 km/h
1942 03-03-2004 04:28:00 2.2 C 3.49 g/m*3 2.2 C 0 km/h
1943 03-03-2004 04:40:00 2.1 C 3.41 g/m*3 2.1 C 0 km/h
1944 03-03-2004 04:52:01 1.7 C 3.43 g/m*3 1.7 C 0 km/h
1945 03-03-2004 05:04:01 1.3 C 3.34 g/m*3 1.3 C 0 km/h
1946 03-03-2004 05:16:01 1.1 C 3.34 g/m*3 1.1 C 0 km/h
1947 03-03-2004 05:28:01 0.8 C 3.33 g/m*3 0.8 C 0 km/h
1948 03-03-2004 05:40:00 0.7 C 3.3 g/m*3 0.7 C 0 km/h
1949 03-03-2004 05:52:01 0.5 C 3.26 g/m*3 0.5 C 0 km/h
1950 03-03-2004 06:04:01 0.5 C 3.26 g/m*3 0.5 C 0 km/h
Sensor: Nr:Datum:Temp:Abs-Feuchte:Windchill:Wind:
Aussen-T/F 1951 03-03-2004 06:16:01 0.5 C 3.21 g/m*3 0.5 C 0 km/h
1952 03-03-2004 06:28:01 0.3 C 3.22 g/m*3 0.3 C 0 km/h
1953 03-03-2004 06:40:01 0.1 C 3.22 g/m*3 0.1 C 0 km/h
1954 03-03-2004 06:52:00 0.1 C 3.22 g/m*3 0.1 C 0 km/h
1955 03-03-2004 07:04:00 0 C 3.2 g/m*3 0 C 0 km/h
1956 03-03-2004 07:16:58 0.2 C 3.24 g/m*3 0.2 C 0 km/h
1957 03-03-2004 07:28:58 0.4 C 3.24 g/m*3 0.4 C 0 km/h
1958 03-03-2004 07:40:57 0.6 C 3.23 g/m*3 0.6 C 0 km/h
1959 03-03-2004 07:52:01 0.7 C 3.2 g/m*3 0.7 C 0 km/h
1960 03-03-2004 08:04:01 0.7 C 3.2 g/m*3 0.7 C 0 km/h
1961 03-03-2004 08:16:01 0.6 C 3.18 g/m*3 0.6 C 0 km/h
1962 03-03-2004 08:28:01 0.6 C 3.18 g/m*3 0.6 C 0 km/h
1963 03-03-2004 08:40:01 0.5 C 3.16 g/m*3 0.5 C 0 km/h
1964 03-03-2004 08:52:01 0.4 C 3.19 g/m*3 0.4 C 0 km/h
1965 03-03-2004 09:04:01 0.5 C 3.16 g/m*3 0.5 C 0 km/h
1966 03-03-2004 09:16:01 0.6 C 3.18 g/m*3 0.6 C 0 km/h
1967 03-03-2004 09:28:01 0.8 C 3.17 g/m*3 0.8 C 0 km/h
1968 03-03-2004 09:40:01 1 C 3.11 g/m*3 1 C 0 km/h
1969 03-03-2004 09:52:00 1.4 C 3.2 g/m*3 1.4 C 0 km/h
1970 03-03-2004 10:04:00 1.7 C 3.16 g/m*3 1.7 C 0 km/h
1971 03-03-2004 10:16:59 1.9 C 3.2 g/m*3 1.9 C 0 km/h
1972 03-03-2004 10:28:59 2.2 C 3.1 g/m*3 2.2 C 0 km/h
1973 03-03-2004 10:40:57 2.5 C 3.1 g/m*3 2.5 C 0 km/h
1974 03-03-2004 10:52:01 2.8 C 3.11 g/m*3 2.8 C 0 km/h
1975 03-03-2004 11:04:01 3.2 C 3.13 g/m*3 3.2 C 0 km/h
Sensor: Nr:Datum:Temp:Abs-Feuchte:Windchill:Wind:
Aussen-T/F 1976 03-03-2004 11:16:01 3.5 C 3.14 g/m*3 3.5 C 0 km/h
1977 03-03-2004 11:28:01 3.8 C 3.14 g/m*3 3.8 C 0 km/h
1978 03-03-2004 11:40:01 4.2 C 3.09 g/m*3 4.2 C 0 km/h
1979 03-03-2004 11:52:00 4.6 C 3.11 g/m*3 4.6 C 0 km/h
1980 03-03-2004 12:03:59 5 C 3.13 g/m*3 5 C 0 km/h
1981 03-03-2004 12:16:58 5.4 C 3.14 g/m*3 5.4 C 0 km/h
1982 03-03-2004 12:28:58 6 C 3.12 g/m*3 6 C 0 km/h
1983 03-03-2004 12:40:57 6.4 C 3.05 g/m*3 6.4 C 0 km/h
1984 03-03-2004 12:52:01 7.2 C 3.22 g/m*3 7.2 C 0 km/h
1985 03-03-2004 13:04:01 8 C 3.22 g/m*3 8 C 0 km/h
1986 03-03-2004 13:16:01 8.2 C 3.1 g/m*3 8.2 C 0 km/h
1987 03-03-2004 13:28:01 8 C 2.98 g/m*3 8 C 0 km/h
1988 03-03-2004 13:40:01 8.5 C 3.16 g/m*3 8.5 C 0 km/h
1989 03-03-2004 13:52:01 8.5 C 2.99 g/m*3 8.5 C 0 km/h
1990 03-03-2004 14:04:01 8.6 C 2.92 g/m*3 8.6 C 0 km/h
1991 03-03-2004 14:16:01 8.9 C 2.98 g/m*3 8.9 C 0 km/h
1992 03-03-2004 14:28:01 9.6 C 3.02 g/m*3 9.6 C 0 km/h
1993 03-03-2004 14:40:01 10.1 C 3.03 g/m*3 10.1 C 0 km/h
1994 03-03-2004 14:52:00 10.1 C 2.93 g/m*3 10.1 C 0 km/h
1995 03-03-2004 15:04:00 10.2 C 2.76 g/m*3 10.2 C 0 km/h
1996 03-03-2004 15:16:58 9.8 C 2.88 g/m*3 9.8 C 0 km/h
1997 03-03-2004 15:28:58 10.4 C 2.89 g/m*3 10.4 C 0 km/h
1998 03-03-2004 15:40:57 11.1 C 2.82 g/m*3 11.1 C 0 km/h
1999 03-03-2004 15:52:01 10.8 C 2.87 g/m*3 10.8 C 0 km/h
2000 03-03-2004 16:04:01 11 C 2.7 g/m*3 11 C 0 km/h
Sensor: Nr:Datum:Temp:Abs-Feuchte:Windchill:Wind:
Aussen-T/F 2001 03-03-2004 16:16:01 11.2 C 2.74 g/m*3 11.2 C 0 km/h
2002 03-03-2004 16:28:01 10.4 C 2.7 g/m*3 10.4 C 0 km/h
2003 03-03-2004 16:40:01 10.7 C 2.75 g/m*3 10.7 C 0 km/h
2004 03-03-2004 16:52:00 10.3 C 2.68 g/m*3 10.3 C 0 km/h
2005 03-03-2004 17:04:59 9.8 C 2.78 g/m*3 9.8 C 0 km/h
2006 03-03-2004 17:16:58 10 C 3.01 g/m*3 10 C 0 km/h
2007 03-03-2004 17:28:58 9.5 C 2.73 g/m*3 9.5 C 0 km/h
2008 03-03-2004 17:40:57 8.9 C 2.89 g/m*3 8.9 C 0 km/h
2009 03-03-2004 17:52:01 8.2 C 2.76 g/m*3 8.2 C 0 km/h
2010 03-03-2004 18:04:01 7.4 C 2.78 g/m*3 7.4 C 0 km/h
2011 03-03-2004 18:16:01 6.9 C 2.77 g/m*3 6.9 C 0 km/h
2012 03-03-2004 18:28:01 6.6 C 2.87 g/m*3 6.6 C 0 km/h
2013 03-03-2004 18:40:01 5.8 C 2.94 g/m*3 5.8 C 0 km/h
2014 03-03-2004 18:52:01 5.2 C 3.1 g/m*3 5.2 C 0 km/h
2015 03-03-2004 19:04:01 4.7 C 3.13 g/m*3 4.7 C 0 km/h
2016 03-03-2004 19:16:01 4.3 C 3.11 g/m*3 4.3 C 0 km/h
2017 03-03-2004 19:28:01 4.1 C 3.14 g/m*3 4.1 C 0 km/h
2018 03-03-2004 19:40:01 3.6 C 3.22 g/m*3 3.6 C 0 km/h
2019 03-03-2004 19:52:01 3.5 C 3.2 g/m*3 3.5 C 0 km/h
2020 03-03-2004 20:04:00 3.1 C 3.23 g/m*3 3.1 C 0 km/h
2021 03-03-2004 20:16:59 2.7 C 3.32 g/m*3 2.7 C 0 km/h
2022 03-03-2004 20:28:59 2.5 C 3.39 g/m*3 2.5 C 0 km/h
2023 03-03-2004 20:40:58 2.4 C 3.37 g/m*3 2.4 C 0 km/h
2024 03-03-2004 20:52:01 2.1 C 3.3 g/m*3 2.1 C 0 km/h
2025 03-03-2004 21:04:00 1.8 C 3.4 g/m*3 1.8 C 0 km/h
Sensor: Nr:Datum:Temp:Abs-Feuchte:Windchill:Wind:
Aussen-T/F 2026 03-03-2004 21:16:01 1.7 C 3.32 g/m*3 1.7 C 0 km/h
2027 03-03-2004 21:28:01 1.5 C 3.33 g/m*3 1.5 C 0 km/h
2028 03-03-2004 21:40:00 1.3 C 3.34 g/m*3 1.3 C 0 km/h
2029 03-03-2004 21:52:01 1.1 C 3.24 g/m*3 1.1 C 0 km/h
2030 03-03-2004 22:04:01 1 C 3.27 g/m*3 1 C 0 km/h
2031 03-03-2004 22:16:01 0.7 C 3.25 g/m*3 0.7 C 0 km/h
2032 03-03-2004 22:28:01 0.6 C 3.28 g/m*3 0.6 C 0 km/h
2033 03-03-2004 22:40:01 0.5 C 3.31 g/m*3 0.5 C 0 km/h
2034 03-03-2004 22:52:01 0.4 C 3.29 g/m*3 0.4 C 0 km/h
2035 03-03-2004 23:04:01 0.2 C 3.24 g/m*3 0.2 C 0 km/h
2036 03-03-2004 23:16:01 0.1 C 3.22 g/m*3 0.1 C 0 km/h
2037 03-03-2004 23:28:01 -0.1 C 3.18 g/m*3 -0.1 C 0 km/h
2038 03-03-2004 23:40:01 -0.1 C 3.22 g/m*3 -0.1 C 0 km/h
2039 03-03-2004 23:52:00 0 C 3.25 g/m*3 0 C 0 km/h
2040 04-03-2004 00:04:00 -0.2 C 3.2 g/m*3 -0.2 C 0 km/h
2041 04-03-2004 00:16:59 -0.4 C 3.16 g/m*3 -0.4 C 0 km/h
2042 04-03-2004 00:28:59 -0.6 C 3.11 g/m*3 -0.6 C 0 km/h
2043 04-03-2004 00:40:57 -0.9 C 3.1 g/m*3 -0.9 C 0 km/h
2044 04-03-2004 00:52:01 -1 C 3.12 g/m*3 -1 C 0 km/h
2045 04-03-2004 01:04:01 -1.1 C 3.14 g/m*3 -1.1 C 0 km/h
2046 04-03-2004 01:16:01 -1.3 C 3.1 g/m*3 -1.3 C 0 km/h
2047 04-03-2004 01:28:01 -1.4 C 3.12 g/m*3 -1.4 C 0 km/h
2048 04-03-2004 01:40:01 -1.6 C 3.08 g/m*3 -1.6 C 0 km/h
2049 04-03-2004 01:52:00 -1.7 C 3.1 g/m*3 -1.7 C 0 km/h
2050 04-03-2004 02:04:00 -1.8 C 3.12 g/m*3 -1.8 C 0 km/h
Sensor: Nr:Datum:Temp:Abs-Feuchte:Windchill:Wind:
Aussen-T/F 2051 04-03-2004 02:16:58 -1.9 C 3.1 g/m*3 -1.9 C 0 km/h
2052 04-03-2004 02:28:58 -2.1 C 3.01 g/m*3 -2.1 C 0 km/h
2053 04-03-2004 02:40:57 -2.1 C 3.06 g/m*3 -2.1 C 0 km/h
2054 04-03-2004 02:53:02 -2.2 C 3.03 g/m*3 -2.2 C 0 km/h
2055 04-03-2004 03:05:02 -2.3 C 3.01 g/m*3 -2.3 C 0 km/h
2056 04-03-2004 03:17:02 -2.3 C 3.01 g/m*3 -2.3 C 0 km/h
2057 04-03-2004 03:29:02 -2.2 C 3.08 g/m*3 -2.2 C 0 km/h
2058 04-03-2004 03:41:00 -2.4 C 3.03 g/m*3 -2.4 C 0 km/h
2059 04-03-2004 03:53:00 -2.5 C 3.01 g/m*3 -2.5 C 0 km/h
2060 04-03-2004 04:05:00 -2.4 C 3.03 g/m*3 -2.4 C 0 km/h
2061 04-03-2004 04:17:59 -2.5 C 3.01 g/m*3 -2.5 C 0 km/h
2062 04-03-2004 04:29:59 -2.5 C 3.01 g/m*3 -2.5 C 0 km/h
2063 04-03-2004 04:41:57 -2.5 C 3.01 g/m*3 -2.5 C 0 km/h
2064 04-03-2004 04:53:01 -2.6 C 2.99 g/m*3 -2.6 C 0 km/h
2065 04-03-2004 05:05:01 -2.4 C 3.07 g/m*3 -2.4 C 0 km/h
2066 04-03-2004 05:17:01 -2.3 C 3.05 g/m*3 -2.3 C 0 km/h
2067 04-03-2004 05:29:01 -2.5 C 2.97 g/m*3 -2.5 C 0 km/h
2068 04-03-2004 05:41:01 -2.7 C 2.93 g/m*3 -2.7 C 0 km/h
2069 04-03-2004 05:53:00 -2.8 C 2.91 g/m*3 -2.8 C 0 km/h
2070 04-03-2004 06:05:00 -2.6 C 2.99 g/m*3 -2.6 C 0 km/h
2071 04-03-2004 06:17:58 -2.6 C 2.99 g/m*3 -2.6 C 0 km/h
2072 04-03-2004 06:29:58 -2.6 C 3.03 g/m*3 -2.6 C 0 km/h
2073 04-03-2004 06:41:57 -2.6 C 2.99 g/m*3 -2.6 C 0 km/h
2074 04-03-2004 06:53:01 -2.7 C 3.01 g/m*3 -2.7 C 0 km/h
2075 04-03-2004 07:05:01 -2.8 C 2.99 g/m*3 -2.8 C 0 km/h
Sensor: Nr:Datum:Temp:Abs-Feuchte:Windchill:Wind:
Aussen-T/F 2076 04-03-2004 07:17:01 -2.7 C 3.01 g/m*3 -2.7 C 0 km/h
2077 04-03-2004 07:29:01 -2.6 C 3.03 g/m*3 -2.6 C 0 km/h
2078 04-03-2004 07:41:01 -2.7 C 2.97 g/m*3 -2.7 C 0 km/h
2079 04-03-2004 07:53:01 -2.5 C 3.05 g/m*3 -2.5 C 0 km/h
2080 04-03-2004 08:05:01 -2.4 C 3.07 g/m*3 -2.4 C 0 km/h
2081 04-03-2004 08:17:01 -2.4 C 3.03 g/m*3 -2.4 C 0 km/h
2082 04-03-2004 08:29:01 -2.5 C 3.01 g/m*3 -2.5 C 0 km/h
2083 04-03-2004 08:41:01 -2.4 C 3.07 g/m*3 -2.4 C 0 km/h
2084 04-03-2004 08:53:00 -2.2 C 3.12 g/m*3 -2.2 C 0 km/h
2085 04-03-2004 09:05:00 -2 C 3.16 g/m*3 -2 C 0 km/h
2086 04-03-2004 09:17:59 -1.8 C 3.21 g/m*3 -1.8 C 0 km/h
2087 04-03-2004 09:29:59 -1.5 C 3.23 g/m*3 -1.5 C 0 km/h
2088 04-03-2004 09:41:57 -0.8 C 3.39 g/m*3 -0.8 C 0 km/h
2089 04-03-2004 09:53:01 -0.1 C 3.37 g/m*3 -0.1 C 0 km/h
2090 04-03-2004 10:05:01 0.4 C 3.39 g/m*3 0.4 C 0 km/h
2091 04-03-2004 10:17:01 1.4 C 3.52 g/m*3 1.4 C 0 km/h
2092 04-03-2004 10:29:01 2.1 C 3.47 g/m*3 2.1 C 0 km/h
2093 04-03-2004 10:41:01 2.2 C 3.38 g/m*3 2.2 C 0 km/h
2094 04-03-2004 10:53:00 2.8 C 3.34 g/m*3 2.8 C 0 km/h
2095 04-03-2004 11:05:00 3.5 C 3.5 g/m*3 3.5 C 0 km/h
2096 04-03-2004 11:17:58 4.1 C 3.46 g/m*3 4.1 C 0 km/h
2097 04-03-2004 11:29:58 4.7 C 3.46 g/m*3 4.7 C 0 km/h
2098 04-03-2004 11:41:57 4.8 C 3.49 g/m*3 4.8 C 0 km/h
2099 04-03-2004 11:53:01 5.1 C 3.49 g/m*3 5.1 C 0 km/h
2100 04-03-2004 12:05:01 5.3 C 3.6 g/m*3 5.3 C 0 km/h
Sensor: Nr:Datum:Temp:Abs-Feuchte:Windchill:Wind:
Aussen-T/F 2101 04-03-2004 12:17:01 6.2 C 3.53 g/m*3 6.2 C 0 km/h
2102 04-03-2004 12:29:01 7.1 C 3.51 g/m*3 7.1 C 0 km/h
2103 04-03-2004 12:41:01 7.4 C 3.5 g/m*3 7.4 C 0 km/h
2104 04-03-2004 12:53:01 7.8 C 3.43 g/m*3 7.8 C 0 km/h
2105 04-03-2004 13:05:01 8.6 C 3.52 g/m*3 8.6 C 0 km/h
2106 04-03-2004 13:17:01 8.9 C 3.5 g/m*3 8.9 C 0 km/h
2107 04-03-2004 13:29:01 8.9 C 3.33 g/m*3 8.9 C 0 km/h
2108 04-03-2004 13:41:01 9.5 C 3.37 g/m*3 9.5 C 0 km/h
2109 04-03-2004 13:53:00 10.2 C 3.33 g/m*3 10.2 C 0 km/h
2110 04-03-2004 14:05:00 10.7 C 3.44 g/m*3 10.7 C 0 km/h
2111 04-03-2004 14:17:59 10.5 C 3.1 g/m*3 10.5 C 0 km/h
2112 04-03-2004 14:29:59 10.4 C 3.08 g/m*3 10.4 C 0 km/h
2113 04-03-2004 14:41:57 9.9 C 3.27 g/m*3 9.9 C 0 km/h
2114 04-03-2004 14:53:01 10 C 3.1 g/m*3 10 C 0 km/h
2115 04-03-2004 15:05:01 10.8 C 3.16 g/m*3 10.8 C 0 km/h
2116 04-03-2004 15:17:01 11.1 C 3.02 g/m*3 11.1 C 0 km/h
2117 04-03-2004 15:29:01 11.1 C 3.12 g/m*3 11.1 C 0 km/h
2118 04-03-2004 15:41:01 10.5 C 3.01 g/m*3 10.5 C 0 km/h
2119 04-03-2004 15:53:00 10.3 C 2.97 g/m*3 10.3 C 0 km/h
2120 04-03-2004 16:05:59 10.1 C 2.93 g/m*3 10.1 C 0 km/h
2121 04-03-2004 16:17:58 10.3 C 3.06 g/m*3 10.3 C 0 km/h
2122 04-03-2004 16:29:58 10.3 C 2.97 g/m*3 10.3 C 0 km/h
2123 04-03-2004 16:41:57 10 C 3.01 g/m*3 10 C 0 km/h
2124 04-03-2004 16:53:01 9.7 C 3.78 g/m*3 9.7 C 0 km/h
2125 04-03-2004 17:05:01 9.4 C 3.35 g/m*3 9.4 C 0 km/h
Sensor: Nr:Datum:Temp:Abs-Feuchte:Windchill:Wind:
Aussen-T/F 2126 04-03-2004 17:17:01 9.1 C 3.28 g/m*3 9.1 C 0 km/h
2127 04-03-2004 17:29:01 8.9 C 3.5 g/m*3 8.9 C 0 km/h
2128 04-03-2004 17:41:01 8.6 C 3.35 g/m*3 8.6 C 0 km/h
2129 04-03-2004 17:53:01 8.4 C 3.48 g/m*3 8.4 C 0 km/h
2130 04-03-2004 18:05:01 8.1 C 3.49 g/m*3 8.1 C 0 km/h
2131 04-03-2004 18:17:01 7.8 C 3.67 g/m*3 7.8 C 0 km/h
2132 04-03-2004 18:29:01 7.4 C 3.66 g/m*3 7.4 C 0 km/h
2133 04-03-2004 18:41:01 7.1 C 3.67 g/m*3 7.1 C 0 km/h
2134 04-03-2004 18:53:01 6.9 C 3.7 g/m*3 6.9 C 0 km/h
2135 04-03-2004 19:05:00 6.8 C 3.59 g/m*3 6.8 C 0 km/h
2136 04-03-2004 19:17:58 6.8 C 3.52 g/m*3 6.8 C 0 km/h
2137 04-03-2004 19:29:58 6.8 C 3.44 g/m*3 6.8 C 0 km/h
2138 04-03-2004 19:41:57 6.6 C 3.4 g/m*3 6.6 C 0 km/h
2139 04-03-2004 19:53:01 6.5 C 3.3 g/m*3 6.5 C 0 km/h
2140 04-03-2004 20:05:01 6.5 C 3.22 g/m*3 6.5 C 0 km/h
2141 04-03-2004 20:17:01 6.4 C 3.13 g/m*3 6.4 C 0 km/h
2142 04-03-2004 20:29:01 6.3 C 3.26 g/m*3 6.3 C 0 km/h
2143 04-03-2004 20:41:01 6 C 3.34 g/m*3 6 C 0 km/h
2144 04-03-2004 20:53:00 5.7 C 3.42 g/m*3 5.7 C 0 km/h
2145 04-03-2004 21:05:59 5.5 C 3.44 g/m*3 5.5 C 0 km/h
2146 04-03-2004 21:17:58 5.4 C 3.42 g/m*3 5.4 C 0 km/h
2147 04-03-2004 21:29:58 5.2 C 3.31 g/m*3 5.2 C 0 km/h
2148 04-03-2004 21:41:57 5 C 3.33 g/m*3 5 C 0 km/h
2149 04-03-2004 21:53:01 4.9 C 3.31 g/m*3 4.9 C 0 km/h
2150 04-03-2004 22:05:01 4.6 C 3.31 g/m*3 4.6 C 0 km/h
Sensor: Nr:Datum:Temp:Abs-Feuchte:Windchill:Wind:
Aussen-T/F 2151 04-03-2004 22:17:01 4.3 C 3.31 g/m*3 4.3 C 0 km/h
2152 04-03-2004 22:29:01 3.8 C 3.39 g/m*3 3.8 C 0 km/h
2153 04-03-2004 22:41:01 3.6 C 3.28 g/m*3 3.6 C 0 km/h
2154 04-03-2004 22:53:00 3.5 C 3.26 g/m*3 3.5 C 0 km/h
2155 04-03-2004 23:05:59 3.3 C 3.22 g/m*3 3.3 C 0 km/h
2156 04-03-2004 23:17:58 3.1 C 3.29 g/m*3 3.1 C 0 km/h
2157 04-03-2004 23:29:58 2.8 C 3.28 g/m*3 2.8 C 0 km/h
2158 04-03-2004 23:41:57 2.4 C 3.2 g/m*3 2.4 C 0 km/h
2159 04-03-2004 23:53:01 2.3 C 3.18 g/m*3 2.3 C 0 km/h
2160 05-03-2004 00:05:01 2.1 C 3.13 g/m*3 2.1 C 0 km/h
2161 05-03-2004 00:17:01 2.1 C 3.13 g/m*3 2.1 C 0 km/h
2162 05-03-2004 00:29:01 1.9 C 3.2 g/m*3 1.9 C 0 km/h
2163 05-03-2004 00:41:00 1.8 C 3.18 g/m*3 1.8 C 0 km/h
2164 05-03-2004 00:53:01 1.7 C 3.16 g/m*3 1.7 C 0 km/h
2165 05-03-2004 01:05:01 1.5 C 3.17 g/m*3 1.5 C 0 km/h
2166 05-03-2004 01:17:01 1.4 C 3.15 g/m*3 1.4 C 0 km/h
2167 05-03-2004 01:29:01 1.2 C 3.16 g/m*3 1.2 C 0 km/h
2168 05-03-2004 01:41:01 1 C 3.11 g/m*3 1 C 0 km/h
2169 05-03-2004 01:53:01 1 C 3.11 g/m*3 1 C 0 km/h
2170 05-03-2004 02:05:00 0.8 C 3.17 g/m*3 0.8 C 0 km/h
2171 05-03-2004 02:17:58 0.6 C 3.13 g/m*3 0.6 C 0 km/h
2172 05-03-2004 02:29:58 0.5 C 3.16 g/m*3 0.5 C 0 km/h
2173 05-03-2004 02:41:57 0.5 C 3.16 g/m*3 0.5 C 0 km/h
2174 05-03-2004 02:54:03 0.4 C 3.14 g/m*3 0.4 C 0 km/h
2175 05-03-2004 03:06:03 0.3 C 3.22 g/m*3 0.3 C 0 km/h
Sensor: Nr:Datum:Temp:Abs-Feuchte:Windchill:Wind:
Aussen-T/F 2176 05-03-2004 03:18:02 0.3 C 3.22 g/m*3 0.3 C 0 km/h
2177 05-03-2004 03:30:02 0.3 C 3.22 g/m*3 0.3 C 0 km/h
2178 05-03-2004 03:42:00 0.2 C 3.19 g/m*3 0.2 C 0 km/h
2179 05-03-2004 03:54:00 0.1 C 3.17 g/m*3 0.1 C 0 km/h
2180 05-03-2004 04:06:00 0.2 C 3.19 g/m*3 0.2 C 0 km/h
2181 05-03-2004 04:18:59 -0.1 C 3.13 g/m*3 -0.1 C 0 km/h
2182 05-03-2004 04:30:58 -0.3 C 3.08 g/m*3 -0.3 C 0 km/h
2183 05-03-2004 04:42:58 -0.5 C 3.09 g/m*3 -0.5 C 0 km/h
2184 05-03-2004 04:54:01 -0.5 C 3.14 g/m*3 -0.5 C 0 km/h
2185 05-03-2004 05:06:01 -0.7 C 3.09 g/m*3 -0.7 C 0 km/h
2186 05-03-2004 05:18:01 -0.8 C 3.12 g/m*3 -0.8 C 0 km/h
2187 05-03-2004 05:30:01 -0.9 C 3.1 g/m*3 -0.9 C 0 km/h
2188 05-03-2004 05:42:01 -1 C 3.03 g/m*3 -1 C 0 km/h
2189 05-03-2004 05:54:00 -1 C 3.03 g/m*3 -1 C 0 km/h
2190 05-03-2004 06:06:00 -1.1 C 3.05 g/m*3 -1.1 C 0 km/h
2191 05-03-2004 06:18:58 -1.2 C 2.99 g/m*3 -1.2 C 0 km/h
2192 05-03-2004 06:30:57 -1.2 C 2.94 g/m*3 -1.2 C 0 km/h
2193 05-03-2004 06:42:57 -1.2 C 2.85 g/m*3 -1.2 C 0 km/h
2194 05-03-2004 06:54:01 -1.2 C 2.85 g/m*3 -1.2 C 0 km/h
2195 05-03-2004 07:06:01 -1.4 C 2.86 g/m*3 -1.4 C 0 km/h
2196 05-03-2004 07:18:01 -1.4 C 2.77 g/m*3 -1.4 C 0 km/h
2197 05-03-2004 07:30:01 -1.5 C 2.79 g/m*3 -1.5 C 0 km/h
2198 05-03-2004 07:42:02 -1.4 C 2.81 g/m*3 -1.4 C 0 km/h
2199 05-03-2004 07:54:00 -1.4 C 2.77 g/m*3 -1.4 C 0 km/h
2200 05-03-2004 08:06:00 -1.3 C 2.83 g/m*3 -1.3 C 0 km/h
Sensor: Nr:Datum:Temp:Abs-Feuchte:Windchill:Wind:
Aussen-T/F 2201 05-03-2004 08:18:58 -1.2 C 2.81 g/m*3 -1.2 C 0 km/h
2202 05-03-2004 08:30:57 -1.1 C 2.83 g/m*3 -1.1 C 0 km/h
2203 05-03-2004 08:42:57 -0.9 C 2.78 g/m*3 -0.9 C 0 km/h
2204 05-03-2004 08:54:01 -0.8 C 2.75 g/m*3 -0.8 C 0 km/h
2205 05-03-2004 09:06:01 -0.6 C 2.84 g/m*3 -0.6 C 0 km/h
2206 05-03-2004 09:18:01 -0.6 C 2.84 g/m*3 -0.6 C 0 km/h
2207 05-03-2004 09:30:01 -0.4 C 2.83 g/m*3 -0.4 C 0 km/h
2208 05-03-2004 09:42:01 0.1 C 2.88 g/m*3 0.1 C 0 km/h
2209 05-03-2004 09:54:00 0.6 C 2.93 g/m*3 0.6 C 0 km/h
2210 05-03-2004 10:06:59 1.2 C 2.95 g/m*3 1.2 C 0 km/h
2211 05-03-2004 10:18:58 1.7 C 2.89 g/m*3 1.7 C 0 km/h
2212 05-03-2004 10:30:57 2.2 C 2.87 g/m*3 2.2 C 0 km/h
2213 05-03-2004 10:42:57 2.7 C 2.91 g/m*3 2.7 C 0 km/h
2214 05-03-2004 10:54:01 3.2 C 2.77 g/m*3 3.2 C 0 km/h
2215 05-03-2004 11:06:01 3.6 C 2.79 g/m*3 3.6 C 0 km/h
2216 05-03-2004 11:18:01 4 C 2.86 g/m*3 4 C 0 km/h
2217 05-03-2004 11:30:01 4.8 C 2.75 g/m*3 4.8 C 0 km/h
2218 05-03-2004 11:42:01 5.1 C 2.67 g/m*3 5.1 C 0 km/h
2219 05-03-2004 11:54:01 5.4 C 2.58 g/m*3 5.4 C 0 km/h
2220 05-03-2004 12:06:02 5.8 C 2.65 g/m*3 5.8 C 0 km/h
2221 05-03-2004 12:18:01 6.2 C 2.57 g/m*3 6.2 C 0 km/h
2222 05-03-2004 12:30:01 6.6 C 2.64 g/m*3 6.6 C 0 km/h
2223 05-03-2004 12:42:01 7 C 2.56 g/m*3 7 C 0 km/h
2224 05-03-2004 12:54:01 7.5 C 2.56 g/m*3 7.5 C 0 km/h
2225 05-03-2004 13:06:00 7.9 C 2.46 g/m*3 7.9 C 0 km/h
Sensor: Nr:Datum:Temp:Abs-Feuchte:Windchill:Wind:
Aussen-T/F 2226 05-03-2004 13:18:59 8 C 2.31 g/m*3 8 C 0 km/h
2227 05-03-2004 13:30:57 8.5 C 2.31 g/m*3 8.5 C 0 km/h
2228 05-03-2004 13:42:57 8.7 C 2.16 g/m*3 8.7 C 0 km/h
2229 05-03-2004 13:54:01 9 C 2.03 g/m*3 9 C 0 km/h
2230 05-03-2004 14:06:01 9.1 C 1.77 g/m*3 9.1 C 0 km/h
2231 05-03-2004 14:18:01 9.5 C 1.82 g/m*3 9.5 C 0 km/h
2232 05-03-2004 14:30:01 10.1 C 1.89 g/m*3 10.1 C 0 km/h
2233 05-03-2004 14:42:01 10 C 1.88 g/m*3 10 C 0 km/h
2234 05-03-2004 14:54:00 9.2 C 1.79 g/m*3 9.2 C 0 km/h
2235 05-03-2004 15:06:00 9 C 1.76 g/m*3 9 C 0 km/h
2236 05-03-2004 15:18:58 8.6 C 1.72 g/m*3 8.6 C 0 km/h
2237 05-03-2004 15:30:58 8.3 C 1.69 g/m*3 8.3 C 0 km/h
2238 05-03-2004 15:42:58 8.9 C 1.75 g/m*3 8.9 C 0 km/h
2239 05-03-2004 15:54:01 8.5 C 1.71 g/m*3 8.5 C 0 km/h
2240 05-03-2004 16:06:01 8.1 C 1.66 g/m*3 8.1 C 0 km/h
2241 05-03-2004 16:18:01 7.8 C 1.63 g/m*3 7.8 C 0 km/h
2242 05-03-2004 16:30:01 7.8 C 1.63 g/m*3 7.8 C 0 km/h
2243 05-03-2004 16:42:01 7.5 C 1.6 g/m*3 7.5 C 0 km/h
2244 05-03-2004 16:54:00 7.4 C 1.59 g/m*3 7.4 C 0 km/h
2245 05-03-2004 17:06:00 7.2 C 1.57 g/m*3 7.2 C 0 km/h
2246 05-03-2004 17:18:58 7.1 C 1.56 g/m*3 7.1 C 0 km/h
2247 05-03-2004 17:30:57 6.9 C 1.77 g/m*3 6.9 C 0 km/h
2248 05-03-2004 17:42:57 6.6 C 1.89 g/m*3 6.6 C 0 km/h
2249 05-03-2004 17:54:02 6.3 C 2 g/m*3 6.3 C 0 km/h
2250 05-03-2004 18:06:01 6.2 C 2.13 g/m*3 6.2 C 0 km/h
Sensor: Nr:Datum:Temp:Abs-Feuchte:Windchill:Wind:
Aussen-T/F 2251 05-03-2004 18:18:01 5.8 C 2.08 g/m*3 5.8 C 0 km/h
2252 05-03-2004 18:30:01 5.7 C 2.13 g/m*3 5.7 C 0 km/h
2253 05-03-2004 18:42:01 5.6 C 2.12 g/m*3 5.6 C 0 km/h
2254 05-03-2004 18:54:03 5.5 C 2.18 g/m*3 5.5 C 0 km/h
2255 05-03-2004 19:06:02 5.5 C 2.25 g/m*3 5.5 C 0 km/h
2256 05-03-2004 19:18:02 5.6 C 2.33 g/m*3 5.6 C 0 km/h
2257 05-03-2004 19:30:02 5.2 C 2.2 g/m*3 5.2 C 0 km/h
2258 05-03-2004 19:42:02 5.2 C 2.41 g/m*3 5.2 C 0 km/h
2259 05-03-2004 19:54:00 5.1 C 2.26 g/m*3 5.1 C 0 km/h
2260 05-03-2004 20:06:00 5.1 C 2.39 g/m*3 5.1 C 0 km/h
2261 05-03-2004 20:18:59 5.1 C 2.39 g/m*3 5.1 C 0 km/h
2262 05-03-2004 20:30:58 5 C 2.45 g/m*3 5 C 0 km/h
2263 05-03-2004 20:42:58 5 C 2.45 g/m*3 5 C 0 km/h
2264 05-03-2004 20:54:01 5 C 2.45 g/m*3 5 C 0 km/h
2265 05-03-2004 21:06:00 4.8 C 2.68 g/m*3 4.8 C 0 km/h
2266 05-03-2004 21:18:00 4.3 C 2.85 g/m*3 4.3 C 0 km/h
2267 05-03-2004 21:30:00 4.1 C 3.01 g/m*3 4.1 C 0 km/h
2268 05-03-2004 21:42:00 4.1 C 2.88 g/m*3 4.1 C 0 km/h
2269 05-03-2004 21:54:01 4.1 C 2.94 g/m*3 4.1 C 0 km/h
2270 05-03-2004 22:06:01 3.8 C 2.95 g/m*3 3.8 C 0 km/h
2271 05-03-2004 22:18:01 3.6 C 2.91 g/m*3 3.6 C 0 km/h
2272 05-03-2004 22:30:01 3.7 C 2.99 g/m*3 3.7 C 0 km/h
2273 05-03-2004 22:42:01 3.5 C 3.01 g/m*3 3.5 C 0 km/h
2274 05-03-2004 22:54:01 3.2 C 3.13 g/m*3 3.2 C 0 km/h
2275 05-03-2004 23:06:01 2.6 C 3.41 g/m*3 2.6 C 0 km/h
Sensor: Nr:Datum:Temp:Abs-Feuchte:Windchill:Wind:
Aussen-T/F 2276 05-03-2004 23:18:01 2.1 C 3.64 g/m*3 2.1 C 0 km/h
2277 05-03-2004 23:30:01 1.7 C 3.81 g/m*3 1.7 C 0 km/h
2278 05-03-2004 23:42:01 1.5 C 3.92 g/m*3 1.5 C 0 km/h
2279 05-03-2004 23:54:00 1.3 C 3.92 g/m*3 1.3 C 0 km/h
2280 06-03-2004 00:06:00 1.3 C 3.97 g/m*3 1.3 C 0 km/h
2281 06-03-2004 00:18:59 1.2 C 4 g/m*3 1.2 C 0 km/h
2282 06-03-2004 00:30:57 1.1 C 3.97 g/m*3 1.1 C 0 km/h
2283 06-03-2004 00:42:57 1 C 4 g/m*3 1 C 0 km/h
2284 06-03-2004 00:54:01 0.9 C 4.02 g/m*3 0.9 C 0 km/h
2285 06-03-2004 01:06:01 1 C 4.05 g/m*3 1 C 0 km/h
2286 06-03-2004 01:18:01 1 C 4.05 g/m*3 1 C 0 km/h
2287 06-03-2004 01:30:01 0.6 C 3.99 g/m*3 0.6 C 0 km/h
2288 06-03-2004 01:42:01 0.6 C 4.04 g/m*3 0.6 C 0 km/h
2289 06-03-2004 01:54:00 0.4 C 3.98 g/m*3 0.4 C 0 km/h
2290 06-03-2004 02:06:59 0.3 C 4.01 g/m*3 0.3 C 0 km/h
2291 06-03-2004 02:18:58 0.3 C 4.01 g/m*3 0.3 C 0 km/h
2292 06-03-2004 02:30:57 0.3 C 4.01 g/m*3 0.3 C 0 km/h
2293 06-03-2004 02:42:57 0.3 C 4.01 g/m*3 0.3 C 0 km/h
2294 06-03-2004 02:55:02 0.3 C 4.01 g/m*3 0.3 C 0 km/h
2295 06-03-2004 03:07:02 0.3 C 4.01 g/m*3 0.3 C 0 km/h
2296 06-03-2004 03:19:02 0.2 C 3.98 g/m*3 0.2 C 0 km/h
2297 06-03-2004 03:31:00 0.2 C 3.98 g/m*3 0.2 C 0 km/h
2298 06-03-2004 03:43:00 0.2 C 3.98 g/m*3 0.2 C 0 km/h
2299 06-03-2004 03:55:00 0.2 C 3.98 g/m*3 0.2 C 0 km/h
2300 06-03-2004 04:07:00 0.2 C 3.98 g/m*3 0.2 C 0 km/h
Sensor: Nr:Datum:Temp:Abs-Feuchte:Windchill:Wind:
Aussen-T/F 2301 06-03-2004 04:19:59 0.2 C 3.98 g/m*3 0.2 C 0 km/h
2302 06-03-2004 04:31:58 0.2 C 3.93 g/m*3 0.2 C 0 km/h
2303 06-03-2004 04:43:58 0.2 C 3.93 g/m*3 0.2 C 0 km/h
2304 06-03-2004 04:55:01 0.2 C 3.93 g/m*3 0.2 C 0 km/h
2305 06-03-2004 05:07:01 0.2 C 3.93 g/m*3 0.2 C 0 km/h
2306 06-03-2004 05:19:00 0.3 C 3.96 g/m*3 0.3 C 0 km/h
2307 06-03-2004 05:31:00 0.3 C 3.96 g/m*3 0.3 C 0 km/h
2308 06-03-2004 05:43:00 0.3 C 3.96 g/m*3 0.3 C 0 km/h
2309 06-03-2004 05:55:01 0.3 C 3.96 g/m*3 0.3 C 0 km/h
2310 06-03-2004 06:07:01 0.3 C 3.96 g/m*3 0.3 C 0 km/h
2311 06-03-2004 06:19:01 0.3 C 3.96 g/m*3 0.3 C 0 km/h
2312 06-03-2004 06:31:01 0.4 C 3.98 g/m*3 0.4 C 0 km/h
2313 06-03-2004 06:43:01 0.3 C 3.96 g/m*3 0.3 C 0 km/h
2314 06-03-2004 06:55:00 0.3 C 3.96 g/m*3 0.3 C 0 km/h
2315 06-03-2004 07:07:59 0.4 C 3.93 g/m*3 0.4 C 0 km/h
2316 06-03-2004 07:19:58 0.4 C 3.93 g/m*3 0.4 C 0 km/h
2317 06-03-2004 07:31:57 0.4 C 3.93 g/m*3 0.4 C 0 km/h
2318 06-03-2004 07:43:57 0.4 C 3.93 g/m*3 0.4 C 0 km/h
2319 06-03-2004 07:55:01 0.4 C 3.93 g/m*3 0.4 C 0 km/h
2320 06-03-2004 08:07:01 0.4 C 3.93 g/m*3 0.4 C 0 km/h
2321 06-03-2004 08:19:01 0.5 C 3.96 g/m*3 0.5 C 0 km/h
2322 06-03-2004 08:31:01 0.5 C 3.96 g/m*3 0.5 C 0 km/h
2323 06-03-2004 08:43:01 0.4 C 3.98 g/m*3 0.4 C 0 km/h
2324 06-03-2004 08:55:01 0.5 C 4.01 g/m*3 0.5 C 0 km/h
2325 06-03-2004 09:07:02 0.6 C 4.09 g/m*3 0.6 C 0 km/h
Sensor: Nr:Datum:Temp:Abs-Feuchte:Windchill:Wind:
Aussen-T/F 2326 06-03-2004 09:19:01 0.6 C 4.09 g/m*3 0.6 C 0 km/h
2327 06-03-2004 09:31:01 0.6 C 4.09 g/m*3 0.6 C 0 km/h
2328 06-03-2004 09:43:01 0.7 C 4.12 g/m*3 0.7 C 0 km/h
2329 06-03-2004 09:55:00 0.7 C 4.12 g/m*3 0.7 C 0 km/h
2330 06-03-2004 10:07:00 0.9 C 4.18 g/m*3 0.9 C 0 km/h
2331 06-03-2004 10:19:59 0.9 C 4.18 g/m*3 0.9 C 0 km/h
2332 06-03-2004 10:31:57 0.9 C 4.18 g/m*3 0.9 C 0 km/h
2333 06-03-2004 10:43:57 1 C 4.15 g/m*3 1 C 0 km/h
2334 06-03-2004 10:55:01 1 C 4.15 g/m*3 1 C 0 km/h
2335 06-03-2004 11:07:01 1.2 C 4.21 g/m*3 1.2 C 0 km/h
2336 06-03-2004 11:19:01 1.4 C 4.27 g/m*3 1.4 C 0 km/h
2337 06-03-2004 11:31:01 1.4 C 4.32 g/m*3 1.4 C 0 km/h
2338 06-03-2004 11:43:01 1.2 C 4.26 g/m*3 1.2 C 0 km/h
2339 06-03-2004 11:55:00 1.3 C 4.29 g/m*3 1.3 C 0 km/h
2340 06-03-2004 12:07:00 1.2 C 4.26 g/m*3 1.2 C 0 km/h
2341 06-03-2004 12:19:59 1.2 C 4.31 g/m*3 1.2 C 0 km/h
2342 06-03-2004 12:31:58 1.3 C 4.34 g/m*3 1.3 C 0 km/h
2343 06-03-2004 12:43:58 1.4 C 4.37 g/m*3 1.4 C 0 km/h
2344 06-03-2004 12:55:01 1.3 C 4.34 g/m*3 1.3 C 0 km/h
2345 06-03-2004 13:07:01 1.2 C 4.31 g/m*3 1.2 C 0 km/h
2346 06-03-2004 13:19:01 1.2 C 4.31 g/m*3 1.2 C 0 km/h
2347 06-03-2004 13:31:01 1.2 C 4.37 g/m*3 1.2 C 0 km/h
2348 06-03-2004 13:43:01 1.3 C 4.4 g/m*3 1.3 C 0 km/h
2349 06-03-2004 13:55:01 1.5 C 4.51 g/m*3 1.5 C 0 km/h
2350 06-03-2004 14:07:02 1.7 C 4.57 g/m*3 1.7 C 0 km/h
Sensor: Nr:Datum:Temp:Abs-Feuchte:Windchill:Wind:
Aussen-T/F 2351 06-03-2004 14:19:01 1.8 C 4.6 g/m*3 1.8 C 0 km/h
2352 06-03-2004 14:31:01 1.8 C 4.6 g/m*3 1.8 C 0 km/h
2353 06-03-2004 14:43:01 1.9 C 4.58 g/m*3 1.9 C 0 km/h
2354 06-03-2004 14:55:01 1.9 C 4.58 g/m*3 1.9 C 0 km/h
2355 06-03-2004 15:07:00 2 C 4.61 g/m*3 2 C 0 km/h
2356 06-03-2004 15:19:59 2.2 C 4.62 g/m*3 2.2 C 0 km/h
2357 06-03-2004 15:31:58 2.4 C 4.68 g/m*3 2.4 C 0 km/h
2358 06-03-2004 15:43:58 2.4 C 4.62 g/m*3 2.4 C 0 km/h
2359 06-03-2004 15:55:01 2.4 C 4.62 g/m*3 2.4 C 0 km/h
2360 06-03-2004 16:07:01 3 C 4.7 g/m*3 3 C 0 km/h
2361 06-03-2004 16:19:01 3.4 C 4.64 g/m*3 3.4 C 0 km/h
2362 06-03-2004 16:31:01 3.4 C 4.52 g/m*3 3.4 C 0 km/h
2363 06-03-2004 16:43:01 3.1 C 4.49 g/m*3 3.1 C 0 km/h
2364 06-03-2004 16:55:00 3.1 C 4.49 g/m*3 3.1 C 0 km/h
2365 06-03-2004 17:07:00 3.1 C 4.55 g/m*3 3.1 C 0 km/h
2366 06-03-2004 17:19:58 3.1 C 4.55 g/m*3 3.1 C 0 km/h
2367 06-03-2004 17:31:57 2.8 C 4.58 g/m*3 2.8 C 0 km/h
2368 06-03-2004 17:43:57 2.7 C 4.54 g/m*3 2.7 C 0 km/h
2369 06-03-2004 17:55:01 2.6 C 4.57 g/m*3 2.6 C 0 km/h
2370 06-03-2004 18:07:02 2.4 C 4.51 g/m*3 2.4 C 0 km/h
2371 06-03-2004 18:19:02 2.3 C 4.54 g/m*3 2.3 C 0 km/h
2372 06-03-2004 18:31:01 2.2 C 4.56 g/m*3 2.2 C 0 km/h
2373 06-03-2004 18:43:01 2.2 C 4.56 g/m*3 2.2 C 0 km/h
2374 06-03-2004 18:55:00 2.3 C 4.59 g/m*3 2.3 C 0 km/h
2375 06-03-2004 19:07:00 2.5 C 4.48 g/m*3 2.5 C 0 km/h
Sensor: Nr:Datum:Temp:Abs-Feuchte:Windchill:Wind:
Aussen-T/F 2376 06-03-2004 19:19:59 2.3 C 4.42 g/m*3 2.3 C 0 km/h
2377 06-03-2004 19:31:57 2.3 C 4.48 g/m*3 2.3 C 0 km/h
2378 06-03-2004 19:43:57 2.3 C 4.48 g/m*3 2.3 C 0 km/h
2379 06-03-2004 19:55:01 2.3 C 4.48 g/m*3 2.3 C 0 km/h
2380 06-03-2004 20:07:02 2.3 C 4.48 g/m*3 2.3 C 0 km/h
2381 06-03-2004 20:19:01 2.4 C 4.45 g/m*3 2.4 C 0 km/h
2382 06-03-2004 20:31:01 2.4 C 4.45 g/m*3 2.4 C 0 km/h
2383 06-03-2004 20:43:01 2.5 C 4.48 g/m*3 2.5 C 0 km/h
2384 06-03-2004 20:55:00 2.4 C 4.45 g/m*3 2.4 C 0 km/h
2385 06-03-2004 21:07:00 2.5 C 4.43 g/m*3 2.5 C 0 km/h
2386 06-03-2004 21:19:58 2.7 C 4.49 g/m*3 2.7 C 0 km/h
2387 06-03-2004 21:31:57 2.6 C 4.4 g/m*3 2.6 C 0 km/h
2388 06-03-2004 21:43:57 2.6 C 4.4 g/m*3 2.6 C 0 km/h
2389 06-03-2004 21:55:01 2.6 C 4.4 g/m*3 2.6 C 0 km/h
2390 06-03-2004 22:07:01 2.5 C 4.43 g/m*3 2.5 C 0 km/h
2391 06-03-2004 22:19:01 2.5 C 4.48 g/m*3 2.5 C 0 km/h
2392 06-03-2004 22:31:01 2.5 C 4.48 g/m*3 2.5 C 0 km/h
2393 06-03-2004 22:43:01 2.5 C 4.48 g/m*3 2.5 C 0 km/h
2394 06-03-2004 22:55:01 2.4 C 4.45 g/m*3 2.4 C 0 km/h
2395 06-03-2004 23:07:01 2.7 C 4.31 g/m*3 2.7 C 0 km/h
2396 06-03-2004 23:19:01 2.6 C 4.05 g/m*3 2.6 C 0 km/h
2397 06-03-2004 23:31:01 2.5 C 3.97 g/m*3 2.5 C 0 km/h
2398 06-03-2004 23:43:01 2.4 C 3.94 g/m*3 2.4 C 0 km/h
2399 06-03-2004 23:55:00 2.3 C 4.03 g/m*3 2.3 C 0 km/h
2400 07-03-2004 00:07:00 2.2 C 4.06 g/m*3 2.2 C 0 km/h
Sensor: Nr:Datum:Temp:Abs-Feuchte:Windchill:Wind:
Aussen-T/F 2401 07-03-2004 00:19:59 2.2 C 4 g/m*3 2.2 C 0 km/h
2402 07-03-2004 00:31:57 2.2 C 4 g/m*3 2.2 C 0 km/h
2403 07-03-2004 00:43:57 2.2 C 4.06 g/m*3 2.2 C 0 km/h
2404 07-03-2004 00:55:01 1.9 C 4.08 g/m*3 1.9 C 0 km/h
2405 07-03-2004 01:07:01 1.8 C 4.11 g/m*3 1.8 C 0 km/h
2406 07-03-2004 01:19:01 1.8 C 4.06 g/m*3 1.8 C 0 km/h
2407 07-03-2004 01:31:01 1.8 C 4 g/m*3 1.8 C 0 km/h
2408 07-03-2004 01:43:01 1.5 C 3.87 g/m*3 1.5 C 0 km/h
2409 07-03-2004 01:55:00 1.2 C 3.84 g/m*3 1.2 C 0 km/h
2410 07-03-2004 02:06:59 1.3 C 3.92 g/m*3 1.3 C 0 km/h
2411 07-03-2004 02:19:58 1.3 C 3.87 g/m*3 1.3 C 0 km/h
2412 07-03-2004 02:31:57 1.5 C 3.87 g/m*3 1.5 C 0 km/h
2413 07-03-2004 02:43:57 1.5 C 3.81 g/m*3 1.5 C 0 km/h
2414 07-03-2004 02:56:02 1.4 C 3.84 g/m*3 1.4 C 0 km/h
2415 07-03-2004 03:08:02 1.6 C 3.84 g/m*3 1.6 C 0 km/h
2416 07-03-2004 03:20:02 1.7 C 3.81 g/m*3 1.7 C 0 km/h
2417 07-03-2004 03:32:00 1.8 C 3.84 g/m*3 1.8 C 0 km/h
2418 07-03-2004 03:44:00 1.9 C 3.81 g/m*3 1.9 C 0 km/h
2419 07-03-2004 03:56:00 1.8 C 3.84 g/m*3 1.8 C 0 km/h
2420 07-03-2004 04:08:00 1.9 C 3.86 g/m*3 1.9 C 0 km/h
2421 07-03-2004 04:20:59 2 C 3.89 g/m*3 2 C 0 km/h
2422 07-03-2004 04:32:57 2 C 3.89 g/m*3 2 C 0 km/h
2423 07-03-2004 04:44:01 2.2 C 3.94 g/m*3 2.2 C 0 km/h
2424 07-03-2004 04:56:01 2.2 C 3.94 g/m*3 2.2 C 0 km/h
2425 07-03-2004 05:08:01 2.3 C 3.97 g/m*3 2.3 C 0 km/h
Sensor: Nr:Datum:Temp:Abs-Feuchte:Windchill:Wind:
Aussen-T/F 2426 07-03-2004 05:20:01 2.3 C 3.97 g/m*3 2.3 C 0 km/h
2427 07-03-2004 05:32:01 2.2 C 4 g/m*3 2.2 C 0 km/h
2428 07-03-2004 05:44:01 1.8 C 4.11 g/m*3 1.8 C 0 km/h
2429 07-03-2004 05:56:00 1.5 C 4.24 g/m*3 1.5 C 0 km/h
2430 07-03-2004 06:08:00 1.1 C 4.18 g/m*3 1.1 C 0 km/h
2431 07-03-2004 06:20:58 1 C 4.31 g/m*3 1 C 0 km/h
2432 07-03-2004 06:32:57 0.8 C 4.35 g/m*3 0.8 C 0 km/h
2433 07-03-2004 06:44:01 0.8 C 4.4 g/m*3 0.8 C 0 km/h
2434 07-03-2004 06:56:01 0.9 C 4.43 g/m*3 0.9 C 0 km/h
2435 07-03-2004 07:08:01 1 C 4.46 g/m*3 1 C 0 km/h
2436 07-03-2004 07:20:01 1.2 C 4.53 g/m*3 1.2 C 0 km/h
2437 07-03-2004 07:32:01 1.2 C 4.53 g/m*3 1.2 C 0 km/h
2438 07-03-2004 07:44:01 1.4 C 4.59 g/m*3 1.4 C 0 km/h
2439 07-03-2004 07:56:01 1.6 C 4.65 g/m*3 1.6 C 0 km/h
2440 07-03-2004 08:08:01 1.8 C 4.66 g/m*3 1.8 C 0 km/h
2441 07-03-2004 08:20:01 2 C 4.72 g/m*3 2 C 0 km/h
2442 07-03-2004 08:32:01 2.1 C 4.76 g/m*3 2.1 C 0 km/h
2443 07-03-2004 08:44:01 2.2 C 4.79 g/m*3 2.2 C 0 km/h
2444 07-03-2004 08:56:01 2.3 C 4.76 g/m*3 2.3 C 0 km/h
2445 07-03-2004 09:08:00 2.4 C 4.8 g/m*3 2.4 C 0 km/h
2446 07-03-2004 09:20:59 2.4 C 4.74 g/m*3 2.4 C 0 km/h
2447 07-03-2004 09:32:57 2.6 C 4.8 g/m*3 2.6 C 0 km/h
2448 07-03-2004 09:44:01 3 C 4.88 g/m*3 3 C 0 km/h
2449 07-03-2004 09:56:01 3.1 C 4.91 g/m*3 3.1 C 0 km/h
2450 07-03-2004 10:08:01 3 C 4.88 g/m*3 3 C 0 km/h
Sensor: Nr:Datum:Temp:Abs-Feuchte:Windchill:Wind:
Aussen-T/F 2451 07-03-2004 10:20:01 3 C 4.88 g/m*3 3 C 0 km/h
2452 07-03-2004 10:32:01 3.2 C 4.94 g/m*3 3.2 C 0 km/h
2453 07-03-2004 10:44:01 3.4 C 5.07 g/m*3 3.4 C 0 km/h
2454 07-03-2004 10:56:00 3.5 C 5.1 g/m*3 3.5 C 0 km/h
2455 07-03-2004 11:08:59 3.8 C 5.21 g/m*3 3.8 C 0 km/h
2456 07-03-2004 11:20:58 4 C 5.09 g/m*3 4 C 0 km/h
2457 07-03-2004 11:32:58 4.4 C 5.22 g/m*3 4.4 C 0 km/h
2458 07-03-2004 11:44:01 4.8 C 5.1 g/m*3 4.8 C 0 km/h
2459 07-03-2004 11:56:01 5.3 C 4.99 g/m*3 5.3 C 0 km/h
2460 07-03-2004 12:08:01 5.5 C 4.92 g/m*3 5.5 C 0 km/h
2461 07-03-2004 12:20:01 5.7 C 4.91 g/m*3 5.7 C 0 km/h
2462 07-03-2004 12:32:01 5.6 C 4.67 g/m*3 5.6 C 0 km/h
2463 07-03-2004 12:44:01 5.9 C 4.76 g/m*3 5.9 C 0 km/h
2464 07-03-2004 12:56:01 6.3 C 4.66 g/m*3 6.3 C 0 km/h
2465 07-03-2004 13:08:00 6.8 C 4.67 g/m*3 6.8 C 0 km/h
2466 07-03-2004 13:20:59 6.5 C 4.5 g/m*3 6.5 C 0 km/h
2467 07-03-2004 13:32:57 7.1 C 4.6 g/m*3 7.1 C 0 km/h
2468 07-03-2004 13:44:01 6.9 C 4.39 g/m*3 6.9 C 0 km/h
2469 07-03-2004 13:56:01 7.6 C 4.51 g/m*3 7.6 C 0 km/h
2470 07-03-2004 14:08:01 7.5 C 4.32 g/m*3 7.5 C 0 km/h
2471 07-03-2004 14:20:01 7.8 C 4.41 g/m*3 7.8 C 0 km/h
2472 07-03-2004 14:32:01 7.5 C 4.32 g/m*3 7.5 C 0 km/h
2473 07-03-2004 14:44:01 7.5 C 4.32 g/m*3 7.5 C 0 km/h
2474 07-03-2004 14:56:00 7.2 C 4.4 g/m*3 7.2 C 0 km/h
2475 07-03-2004 15:08:00 7 C 4.34 g/m*3 7 C 0 km/h
Sensor: Nr:Datum:Temp:Abs-Feuchte:Windchill:Wind:
Aussen-T/F 2476 07-03-2004 15:20:59 6.9 C 4.39 g/m*3 6.9 C 0 km/h
2477 07-03-2004 15:32:57 6.9 C 4.39 g/m*3 6.9 C 0 km/h
2478 07-03-2004 15:44:02 7 C 4.34 g/m*3 7 C 0 km/h
2479 07-03-2004 15:56:02 7.1 C 4.29 g/m*3 7.1 C 0 km/h
2480 07-03-2004 16:08:01 7.1 C 4.37 g/m*3 7.1 C 0 km/h
2481 07-03-2004 16:20:01 6.9 C 4.39 g/m*3 6.9 C 0 km/h
2482 07-03-2004 16:32:01 6.9 C 4.39 g/m*3 6.9 C 0 km/h
2483 07-03-2004 16:44:01 7 C 4.42 g/m*3 7 C 0 km/h
2484 07-03-2004 16:56:01 6.9 C 4.46 g/m*3 6.9 C 0 km/h
2485 07-03-2004 17:08:00 6.8 C 4.36 g/m*3 6.8 C 0 km/h
2486 07-03-2004 17:20:58 6.2 C 4.41 g/m*3 6.2 C 0 km/h
2487 07-03-2004 17:32:57 5.9 C 4.61 g/m*3 5.9 C 0 km/h
2488 07-03-2004 17:44:01 5.7 C 4.63 g/m*3 5.7 C 0 km/h
2489 07-03-2004 17:56:01 5.5 C 4.64 g/m*3 5.5 C 0 km/h
2490 07-03-2004 18:08:02 5.2 C 4.82 g/m*3 5.2 C 0 km/h
2491 07-03-2004 18:20:02 4.9 C 5 g/m*3 4.9 C 0 km/h
2492 07-03-2004 18:32:01 4.6 C 5.1 g/m*3 4.6 C 0 km/h
2493 07-03-2004 18:44:01 4.2 C 5.15 g/m*3 4.2 C 0 km/h
2494 07-03-2004 18:56:01 4.2 C 5.15 g/m*3 4.2 C 0 km/h
2495 07-03-2004 19:08:01 4.2 C 5.15 g/m*3 4.2 C 0 km/h
2496 07-03-2004 19:20:59 4.2 C 5.15 g/m*3 4.2 C 0 km/h
2497 07-03-2004 19:32:57 4.2 C 5.22 g/m*3 4.2 C 0 km/h
2498 07-03-2004 19:44:01 4.2 C 5.22 g/m*3 4.2 C 0 km/h
2499 07-03-2004 19:56:01 4.1 C 5.18 g/m*3 4.1 C 0 km/h
2500 07-03-2004 20:08:01 3.9 C 5.12 g/m*3 3.9 C 0 km/h
Sensor: Nr:Datum:Temp:Abs-Feuchte:Windchill:Wind:
Aussen-T/F 2501 07-03-2004 20:20:01 3.6 C 5.01 g/m*3 3.6 C 0 km/h
2502 07-03-2004 20:32:01 3.6 C 5.08 g/m*3 3.6 C 0 km/h
2503 07-03-2004 20:44:01 3.5 C 5.04 g/m*3 3.5 C 0 km/h
2504 07-03-2004 20:56:00 3.6 C 5.14 g/m*3 3.6 C 0 km/h
2505 07-03-2004 21:08:00 3.6 C 5.08 g/m*3 3.6 C 0 km/h
2506 07-03-2004 21:20:59 3.7 C 5.11 g/m*3 3.7 C 0 km/h
2507 07-03-2004 21:32:58 3.8 C 5.14 g/m*3 3.8 C 0 km/h
2508 07-03-2004 21:44:01 3.6 C 5.08 g/m*3 3.6 C 0 km/h
2509 07-03-2004 21:56:01 3.2 C 4.88 g/m*3 3.2 C 0 km/h
2510 07-03-2004 22:08:00 3.1 C 4.85 g/m*3 3.1 C 0 km/h
2511 07-03-2004 22:20:00 3.1 C 4.85 g/m*3 3.1 C 0 km/h
2512 07-03-2004 22:32:00 3.1 C 4.91 g/m*3 3.1 C 0 km/h
2513 07-03-2004 22:44:00 3.1 C 4.91 g/m*3 3.1 C 0 km/h
2514 07-03-2004 22:56:01 3.2 C 5 g/m*3 3.2 C 0 km/h
2515 07-03-2004 23:08:01 3.4 C 5.07 g/m*3 3.4 C 0 km/h
2516 07-03-2004 23:20:01 3.5 C 5.1 g/m*3 3.5 C 0 km/h
2517 07-03-2004 23:32:01 3.5 C 5.04 g/m*3 3.5 C 0 km/h
2518 07-03-2004 23:44:01 3.4 C 5.01 g/m*3 3.4 C 0 km/h
2519 07-03-2004 23:56:01 3.3 C 4.97 g/m*3 3.3 C 0 km/h
2520 08-03-2004 00:08:01 3.2 C 4.94 g/m*3 3.2 C 0 km/h
2521 08-03-2004 00:20:01 3.3 C 4.97 g/m*3 3.3 C 0 km/h
2522 08-03-2004 00:32:01 3.2 C 4.88 g/m*3 3.2 C 0 km/h
2523 08-03-2004 00:44:01 3 C 4.82 g/m*3 3 C 0 km/h
2524 08-03-2004 00:56:00 3.1 C 4.85 g/m*3 3.1 C 0 km/h
2525 08-03-2004 01:08:59 3 C 4.82 g/m*3 3 C 0 km/h
Sensor: Nr:Datum:Temp:Abs-Feuchte:Windchill:Wind:
Aussen-T/F 2526 08-03-2004 01:20:58 3.2 C 4.88 g/m*3 3.2 C 0 km/h
2527 08-03-2004 01:32:57 3.1 C 4.85 g/m*3 3.1 C 0 km/h
2528 08-03-2004 01:44:01 3.1 C 4.85 g/m*3 3.1 C 0 km/h
2529 08-03-2004 01:56:01 3.1 C 4.79 g/m*3 3.1 C 0 km/h
2530 08-03-2004 02:08:01 3.1 C 4.79 g/m*3 3.1 C 0 km/h
2531 08-03-2004 02:20:01 3.2 C 4.82 g/m*3 3.2 C 0 km/h
2532 08-03-2004 02:32:00 3.2 C 4.82 g/m*3 3.2 C 0 km/h
2533 08-03-2004 02:44:00 3.2 C 4.82 g/m*3 3.2 C 0 km/h
2534 08-03-2004 02:57:03 3.1 C 4.79 g/m*3 3.1 C 0 km/h
2535 08-03-2004 03:09:03 3 C 4.76 g/m*3 3 C 0 km/h
2536 08-03-2004 03:21:03 3.1 C 4.85 g/m*3 3.1 C 0 km/h
2537 08-03-2004 03:33:00 3.1 C 4.85 g/m*3 3.1 C 0 km/h
2538 08-03-2004 03:45:00 3.1 C 4.85 g/m*3 3.1 C 0 km/h
2539 08-03-2004 03:57:00 3.1 C 4.85 g/m*3 3.1 C 0 km/h
2540 08-03-2004 04:09:00 3.1 C 4.85 g/m*3 3.1 C 0 km/h
2541 08-03-2004 04:21:59 2.8 C 4.81 g/m*3 2.8 C 0 km/h
2542 08-03-2004 04:33:58 3 C 4.88 g/m*3 3 C 0 km/h
2543 08-03-2004 04:45:01 2.9 C 4.84 g/m*3 2.9 C 0 km/h
2544 08-03-2004 04:57:01 2.8 C 4.81 g/m*3 2.8 C 0 km/h
2545 08-03-2004 05:09:00 2.9 C 4.9 g/m*3 2.9 C 0 km/h
2546 08-03-2004 05:21:00 3.1 C 4.91 g/m*3 3.1 C 0 km/h
2547 08-03-2004 05:33:00 3.1 C 4.91 g/m*3 3.1 C 0 km/h
2548 08-03-2004 05:45:01 3.1 C 4.91 g/m*3 3.1 C 0 km/h
2549 08-03-2004 05:57:01 2.9 C 4.9 g/m*3 2.9 C 0 km/h
2550 08-03-2004 06:09:01 3.1 C 4.91 g/m*3 3.1 C 0 km/h
Sensor: Nr:Datum:Temp:Abs-Feuchte:Windchill:Wind:
Aussen-T/F 2551 08-03-2004 06:21:01 2.8 C 4.81 g/m*3 2.8 C 0 km/h
2552 08-03-2004 06:33:01 2.8 C 4.87 g/m*3 2.8 C 0 km/h
2553 08-03-2004 06:45:01 2.8 C 4.81 g/m*3 2.8 C 0 km/h
2554 08-03-2004 06:57:01 2.8 C 4.75 g/m*3 2.8 C 0 km/h
2555 08-03-2004 07:09:01 2.7 C 4.66 g/m*3 2.7 C 0 km/h
2556 08-03-2004 07:21:01 2.7 C 4.54 g/m*3 2.7 C 0 km/h
2557 08-03-2004 07:33:01 2.5 C 4.31 g/m*3 2.5 C 0 km/h
2558 08-03-2004 07:45:01 2.4 C 4.23 g/m*3 2.4 C 0 km/h
2559 08-03-2004 07:57:01 2.3 C 4.08 g/m*3 2.3 C 0 km/h
2560 08-03-2004 08:09:00 2.2 C 4 g/m*3 2.2 C 0 km/h
2561 08-03-2004 08:21:59 2.3 C 4.03 g/m*3 2.3 C 0 km/h
2562 08-03-2004 08:33:58 2.2 C 3.94 g/m*3 2.2 C 0 km/h
2563 08-03-2004 08:45:01 2.3 C 3.97 g/m*3 2.3 C 0 km/h
2564 08-03-2004 08:57:01 2.4 C 3.94 g/m*3 2.4 C 0 km/h
2565 08-03-2004 09:09:01 2.4 C 3.88 g/m*3 2.4 C 0 km/h
2566 08-03-2004 09:21:01 2.4 C 3.77 g/m*3 2.4 C 0 km/h
2567 08-03-2004 09:33:01 2.4 C 3.71 g/m*3 2.4 C 0 km/h
2568 08-03-2004 09:45:00 2.4 C 3.71 g/m*3 2.4 C 0 km/h
2569 08-03-2004 09:57:00 2.6 C 3.76 g/m*3 2.6 C 0 km/h
2570 08-03-2004 10:09:00 3.1 C 3.83 g/m*3 3.1 C 0 km/h
2571 08-03-2004 10:21:58 3.4 C 3.66 g/m*3 3.4 C 0 km/h
2572 08-03-2004 10:33:57 3.6 C 3.71 g/m*3 3.6 C 0 km/h
2573 08-03-2004 10:45:01 3.6 C 3.59 g/m*3 3.6 C 0 km/h
2574 08-03-2004 10:57:01 3.5 C 3.5 g/m*3 3.5 C 0 km/h
2575 08-03-2004 11:09:01 3.7 C 3.61 g/m*3 3.7 C 0 km/h
Sensor: Nr:Datum:Temp:Abs-Feuchte:Windchill:Wind:
Aussen-T/F 2576 08-03-2004 11:21:01 4 C 3.31 g/m*3 4 C 0 km/h
2577 08-03-2004 11:33:01 4.3 C 3.37 g/m*3 4.3 C 0 km/h
2578 08-03-2004 11:45:01 4 C 3.18 g/m*3 4 C 0 km/h
2579 08-03-2004 11:57:01 4 C 3.05 g/m*3 4 C 0 km/h
2580 08-03-2004 12:09:00 4.6 C 3.18 g/m*3 4.6 C 0 km/h
2581 08-03-2004 12:21:58 4.6 C 3.18 g/m*3 4.6 C 0 km/h
2582 08-03-2004 12:33:57 5.1 C 3.15 g/m*3 5.1 C 0 km/h
2583 08-03-2004 12:45:01 5.2 C 2.89 g/m*3 5.2 C 0 km/h
2584 08-03-2004 12:57:01 5 C 2.85 g/m*3 5 C 0 km/h
2585 08-03-2004 13:09:01 5.5 C 2.81 g/m*3 5.5 C 0 km/h
2586 08-03-2004 13:21:01 6.3 C 2.96 g/m*3 6.3 C 0 km/h
2587 08-03-2004 13:33:01 6 C 2.83 g/m*3 6 C 0 km/h
2588 08-03-2004 13:45:00 6.1 C 2.7 g/m*3 6.1 C 0 km/h
2589 08-03-2004 13:57:00 6.5 C 2.62 g/m*3 6.5 C 0 km/h
2590 08-03-2004 14:09:59 7 C 2.56 g/m*3 7 C 0 km/h
2591 08-03-2004 14:21:58 7.2 C 2.43 g/m*3 7.2 C 0 km/h
2592 08-03-2004 14:33:57 7.6 C 2.58 g/m*3 7.6 C 0 km/h
2593 08-03-2004 14:45:01 7.9 C 2.46 g/m*3 7.9 C 0 km/h
2594 08-03-2004 14:57:01 8.7 C 2.59 g/m*3 8.7 C 0 km/h
2595 08-03-2004 15:09:01 8.9 C 2.28 g/m*3 8.9 C 0 km/h
2596 08-03-2004 15:21:01 9 C 2.29 g/m*3 9 C 0 km/h
2597 08-03-2004 15:33:01 9.2 C 1.79 g/m*3 9.2 C 0 km/h
2598 08-03-2004 15:45:01 9 C 1.76 g/m*3 9 C 0 km/h
2599 08-03-2004 15:57:01 9.5 C 1.82 g/m*3 9.5 C 0 km/h
2600 08-03-2004 16:09:01 9.8 C 1.86 g/m*3 9.8 C 0 km/h
Sensor: Nr:Datum:Temp:Abs-Feuchte:Windchill:Wind:
Aussen-T/F 2601 08-03-2004 16:21:01 9.2 C 1.79 g/m*3 9.2 C 0 km/h
2602 08-03-2004 16:33:01 9.5 C 1.82 g/m*3 9.5 C 0 km/h
2603 08-03-2004 16:45:01 8.7 C 1.73 g/m*3 8.7 C 0 km/h
2604 08-03-2004 16:57:01 8.7 C 1.73 g/m*3 8.7 C 0 km/h
2605 08-03-2004 17:09:00 8.9 C 2.01 g/m*3 8.9 C 0 km/h
2606 08-03-2004 17:21:59 7.9 C 1.89 g/m*3 7.9 C 0 km/h
2607 08-03-2004 17:33:58 7.6 C 2.01 g/m*3 7.6 C 0 km/h
2608 08-03-2004 17:45:00 7.5 C 1.6 g/m*3 7.5 C 0 km/h
2609 08-03-2004 17:57:00 7.1 C 1.56 g/m*3 7.1 C 0 km/h
2610 08-03-2004 18:09:00 6.2 C 1.91 g/m*3 6.2 C 0 km/h
2611 08-03-2004 18:21:58 5.4 C 2.16 g/m*3 5.4 C 0 km/h
2612 08-03-2004 18:33:57 5.1 C 2.33 g/m*3 5.1 C 0 km/h
2613 08-03-2004 18:45:01 4.6 C 2.45 g/m*3 4.6 C 0 km/h
2614 08-03-2004 18:57:01 4.4 C 2.55 g/m*3 4.4 C 0 km/h
2615 08-03-2004 19:09:01 4.3 C 2.53 g/m*3 4.3 C 0 km/h
2616 08-03-2004 19:21:01 4.2 C 2.58 g/m*3 4.2 C 0 km/h
2617 08-03-2004 19:33:02 4 C 2.61 g/m*3 4 C 0 km/h
2618 08-03-2004 19:45:00 3.8 C 2.7 g/m*3 3.8 C 0 km/h
2619 08-03-2004 19:57:00 3.6 C 2.79 g/m*3 3.6 C 0 km/h
2620 08-03-2004 20:09:00 3.4 C 2.81 g/m*3 3.4 C 0 km/h
2621 08-03-2004 20:21:58 3.2 C 2.89 g/m*3 3.2 C 0 km/h
2622 08-03-2004 20:33:57 3 C 2.91 g/m*3 3 C 0 km/h
2623 08-03-2004 20:45:01 2.8 C 2.93 g/m*3 2.8 C 0 km/h
2624 08-03-2004 20:57:01 2.5 C 3.1 g/m*3 2.5 C 0 km/h
2625 08-03-2004 21:09:01 2.4 C 3.08 g/m*3 2.4 C 0 km/h
Sensor: Nr:Datum:Temp:Abs-Feuchte:Windchill:Wind:
Aussen-T/F 2626 08-03-2004 21:21:01 2.1 C 3.13 g/m*3 2.1 C 0 km/h
2627 08-03-2004 21:33:01 1.8 C 3.18 g/m*3 1.8 C 0 km/h
2628 08-03-2004 21:45:00 1.6 C 3.14 g/m*3 1.6 C 0 km/h
2629 08-03-2004 21:57:00 1.5 C 3.28 g/m*3 1.5 C 0 km/h
2630 08-03-2004 22:09:00 1.3 C 3.23 g/m*3 1.3 C 0 km/h
2631 08-03-2004 22:21:58 1.3 C 3.18 g/m*3 1.3 C 0 km/h
2632 08-03-2004 22:33:57 1.4 C 3.15 g/m*3 1.4 C 0 km/h
2633 08-03-2004 22:45:01 1.4 C 3.2 g/m*3 1.4 C 0 km/h
2634 08-03-2004 22:57:01 1.3 C 3.18 g/m*3 1.3 C 0 km/h
2635 08-03-2004 23:09:01 1.3 C 3.18 g/m*3 1.3 C 0 km/h
2636 08-03-2004 23:21:01 1.3 C 3.23 g/m*3 1.3 C 0 km/h
2637 08-03-2004 23:33:01 1.4 C 3.25 g/m*3 1.4 C 0 km/h
2638 08-03-2004 23:45:01 1.4 C 3.25 g/m*3 1.4 C 0 km/h
2639 08-03-2004 23:57:01 1.7 C 3.38 g/m*3 1.7 C 0 km/h
2640 09-03-2004 00:09:01 1.6 C 3.3 g/m*3 1.6 C 0 km/h
2641 09-03-2004 00:21:01 1.5 C 3.28 g/m*3 1.5 C 0 km/h
2642 09-03-2004 00:33:01 1.2 C 3.31 g/m*3 1.2 C 0 km/h
2643 09-03-2004 00:45:00 1.2 C 3.37 g/m*3 1.2 C 0 km/h
2644 09-03-2004 00:57:00 1.5 C 3.44 g/m*3 1.5 C 0 km/h
2645 09-03-2004 01:09:00 1.1 C 3.5 g/m*3 1.1 C 0 km/h
2646 09-03-2004 01:21:59 1 C 3.84 g/m*3 1 C 0 km/h
2647 09-03-2004 01:33:57 0.8 C 3.99 g/m*3 0.8 C 0 km/h
2648 09-03-2004 01:45:01 0.7 C 4.02 g/m*3 0.7 C 0 km/h
2649 09-03-2004 01:57:01 0.8 C 4.15 g/m*3 0.8 C 0 km/h
2650 09-03-2004 02:09:01 1.1 C 4.23 g/m*3 1.1 C 0 km/h
Sensor: Nr:Datum:Temp:Abs-Feuchte:Windchill:Wind:
Aussen-T/F 2651 09-03-2004 02:21:01 1.2 C 4.37 g/m*3 1.2 C 0 km/h
2652 09-03-2004 02:33:01 1.2 C 4.31 g/m*3 1.2 C 0 km/h
2653 09-03-2004 02:46:01 1.1 C 4.29 g/m*3 1.1 C 0 km/h
2654 09-03-2004 02:58:01 1.2 C 4.31 g/m*3 1.2 C 0 km/h
2655 09-03-2004 03:10:00 1 C 4.2 g/m*3 1 C 0 km/h
2656 09-03-2004 03:22:00 1.1 C 4.29 g/m*3 1.1 C 0 km/h
2657 09-03-2004 03:34:01 1 C 4.26 g/m*3 1 C 0 km/h
2658 09-03-2004 03:46:01 1.2 C 4.31 g/m*3 1.2 C 0 km/h
2659 09-03-2004 03:58:01 1.3 C 4.34 g/m*3 1.3 C 0 km/h
2660 09-03-2004 04:10:00 1 C 4.2 g/m*3 1 C 0 km/h
2661 09-03-2004 04:22:00 0.4 C 4.03 g/m*3 0.4 C 0 km/h
2662 09-03-2004 04:34:00 0.3 C 4.06 g/m*3 0.3 C 0 km/h
2663 09-03-2004 04:46:01 0.3 C 4.11 g/m*3 0.3 C 0 km/h
2664 09-03-2004 04:58:01 0.3 C 4.16 g/m*3 0.3 C 0 km/h
2665 09-03-2004 05:10:01 0.4 C 4.18 g/m*3 0.4 C 0 km/h
2666 09-03-2004 05:22:01 0.4 C 4.18 g/m*3 0.4 C 0 km/h
2667 09-03-2004 05:34:00 0.4 C 4.18 g/m*3 0.4 C 0 km/h
2668 09-03-2004 05:46:01 0.4 C 4.18 g/m*3 0.4 C 0 km/h
2669 09-03-2004 05:58:01 0.3 C 4.01 g/m*3 0.3 C 0 km/h
2670 09-03-2004 06:10:01 0.3 C 3.96 g/m*3 0.3 C 0 km/h
2671 09-03-2004 06:22:01 0.3 C 3.96 g/m*3 0.3 C 0 km/h
2672 09-03-2004 06:34:01 0.2 C 3.93 g/m*3 0.2 C 0 km/h
2673 09-03-2004 06:46:00 0.1 C 3.95 g/m*3 0.1 C 0 km/h
2674 09-03-2004 06:58:00 0 C 3.88 g/m*3 0 C 0 km/h
2675 09-03-2004 07:10:00 0 C 3.88 g/m*3 0 C 0 km/h
Sensor: Nr:Datum:Temp:Abs-Feuchte:Windchill:Wind:
Aussen-T/F 2676 09-03-2004 07:22:58 0.1 C 3.95 g/m*3 0.1 C 0 km/h
2677 09-03-2004 07:34:57 0.1 C 3.9 g/m*3 0.1 C 0 km/h
2678 09-03-2004 07:46:01 0.2 C 3.93 g/m*3 0.2 C 0 km/h
2679 09-03-2004 07:58:01 0.2 C 3.93 g/m*3 0.2 C 0 km/h
2680 09-03-2004 08:10:01 0.2 C 3.93 g/m*3 0.2 C 0 km/h
2681 09-03-2004 08:22:01 0.4 C 3.98 g/m*3 0.4 C 0 km/h
2682 09-03-2004 08:34:01 0.5 C 4.01 g/m*3 0.5 C 0 km/h
2683 09-03-2004 08:46:01 0.4 C 3.93 g/m*3 0.4 C 0 km/h
2684 09-03-2004 08:58:01 0.2 C 3.88 g/m*3 0.2 C 0 km/h
2685 09-03-2004 09:10:01 0 C 3.83 g/m*3 0 C 0 km/h
2686 09-03-2004 09:22:01 0 C 3.78 g/m*3 0 C 0 km/h
2687 09-03-2004 09:34:01 0.2 C 3.68 g/m*3 0.2 C 0 km/h
2688 09-03-2004 09:46:00 0.5 C 3.66 g/m*3 0.5 C 0 km/h
2689 09-03-2004 09:58:00 0.7 C 3.56 g/m*3 0.7 C 0 km/h
2690 09-03-2004 10:10:00 1.2 C 3.42 g/m*3 1.2 C 0 km/h
2691 09-03-2004 10:22:59 1.6 C 3.41 g/m*3 1.6 C 0 km/h
2692 09-03-2004 10:34:58 2.2 C 3.27 g/m*3 2.2 C 0 km/h
2693 09-03-2004 10:46:01 2 C 3.11 g/m*3 2 C 0 km/h
2694 09-03-2004 10:58:01 1.8 C 3.18 g/m*3 1.8 C 0 km/h
2695 09-03-2004 11:10:01 1.7 C 3.05 g/m*3 1.7 C 0 km/h
2696 09-03-2004 11:22:01 2.1 C 3.08 g/m*3 2.1 C 0 km/h
2697 09-03-2004 11:34:01 2.4 C 3.03 g/m*3 2.4 C 0 km/h
2698 09-03-2004 11:46:00 2.8 C 2.87 g/m*3 2.8 C 0 km/h
2699 09-03-2004 11:58:00 2.9 C 3.01 g/m*3 2.9 C 0 km/h
2700 09-03-2004 12:10:00 4 C 3.24 g/m*3 4 C 0 km/h
Sensor: Nr:Datum:Temp:Abs-Feuchte:Windchill:Wind:
Aussen-T/F 2701 09-03-2004 12:22:58 4 C 2.92 g/m*3 4 C 0 km/h
2702 09-03-2004 12:34:57 4 C 3.05 g/m*3 4 C 0 km/h
2703 09-03-2004 12:46:01 4.1 C 3.01 g/m*3 4.1 C 0 km/h
2704 09-03-2004 12:58:01 4 C 2.99 g/m*3 4 C 0 km/h
2705 09-03-2004 13:10:01 3.9 C 3.09 g/m*3 3.9 C 0 km/h
2706 09-03-2004 13:22:01 4.3 C 3.05 g/m*3 4.3 C 0 km/h
2707 09-03-2004 13:34:01 4.7 C 2.93 g/m*3 4.7 C 0 km/h
2708 09-03-2004 13:46:00 4.7 C 2.73 g/m*3 4.7 C 0 km/h
2709 09-03-2004 13:58:00 4.8 C 2.88 g/m*3 4.8 C 0 km/h
2710 09-03-2004 14:10:59 4.7 C 2.8 g/m*3 4.7 C 0 km/h
2711 09-03-2004 14:22:58 4.8 C 2.88 g/m*3 4.8 C 0 km/h
2712 09-03-2004 14:34:57 4.9 C 2.9 g/m*3 4.9 C 0 km/h
2713 09-03-2004 14:46:01 4.8 C 2.88 g/m*3 4.8 C 0 km/h
2714 09-03-2004 14:58:01 5.1 C 2.87 g/m*3 5.1 C 0 km/h
2715 09-03-2004 15:10:01 5.1 C 2.74 g/m*3 5.1 C 0 km/h
2716 09-03-2004 15:22:01 4.8 C 2.62 g/m*3 4.8 C 0 km/h
2717 09-03-2004 15:34:01 4.6 C 2.71 g/m*3 4.6 C 0 km/h
2718 09-03-2004 15:46:01 4.5 C 2.7 g/m*3 4.5 C 0 km/h
2719 09-03-2004 15:58:01 4.5 C 2.63 g/m*3 4.5 C 0 km/h
2720 09-03-2004 16:10:01 4.8 C 2.62 g/m*3 4.8 C 0 km/h
2721 09-03-2004 16:22:01 5 C 2.51 g/m*3 5 C 0 km/h
2722 09-03-2004 16:34:01 4.7 C 2.53 g/m*3 4.7 C 0 km/h
2723 09-03-2004 16:46:01 4.3 C 2.46 g/m*3 4.3 C 0 km/h
2724 09-03-2004 16:58:01 4.5 C 2.56 g/m*3 4.5 C 0 km/h
2725 09-03-2004 17:10:00 4.4 C 2.68 g/m*3 4.4 C 0 km/h
Sensor: Nr:Datum:Temp:Abs-Feuchte:Windchill:Wind:
Aussen-T/F 2726 09-03-2004 17:22:58 3.9 C 2.53 g/m*3 3.9 C 0 km/h
2727 09-03-2004 17:34:57 3.8 C 2.51 g/m*3 3.8 C 0 km/h
2728 09-03-2004 17:46:01 3.6 C 2.48 g/m*3 3.6 C 0 km/h
2729 09-03-2004 17:58:01 3.5 C 2.58 g/m*3 3.5 C 0 km/h
2730 09-03-2004 18:10:02 3.2 C 2.53 g/m*3 3.2 C 0 km/h
2731 09-03-2004 18:22:02 2.9 C 2.83 g/m*3 2.9 C 0 km/h
2732 09-03-2004 18:34:02 2.7 C 2.68 g/m*3 2.7 C 0 km/h
2733 09-03-2004 18:46:03 2.4 C 2.74 g/m*3 2.4 C 0 km/h
2734 09-03-2004 18:58:03 2.2 C 2.76 g/m*3 2.2 C 0 km/h
2735 09-03-2004 19:10:01 2 C 2.78 g/m*3 2 C 0 km/h
2736 09-03-2004 19:22:59 1.7 C 2.83 g/m*3 1.7 C 0 km/h
2737 09-03-2004 19:34:58 1.3 C 2.81 g/m*3 1.3 C 0 km/h
2738 09-03-2004 19:46:02 1 C 2.8 g/m*3 1 C 0 km/h
2739 09-03-2004 19:58:02 0.7 C 2.95 g/m*3 0.7 C 0 km/h
2740 09-03-2004 20:10:01 0.4 C 2.94 g/m*3 0.4 C 0 km/h
2741 09-03-2004 20:22:01 0.3 C 3.02 g/m*3 0.3 C 0 km/h
2742 09-03-2004 20:34:01 0.1 C 3.02 g/m*3 0.1 C 0 km/h
2743 09-03-2004 20:46:01 0.1 C 3.07 g/m*3 0.1 C 0 km/h
2744 09-03-2004 20:58:01 0.1 C 3.12 g/m*3 0.1 C 0 km/h
2745 09-03-2004 21:10:01 -0.2 C 3.11 g/m*3 -0.2 C 0 km/h
2746 09-03-2004 21:22:01 -0.3 C 3.08 g/m*3 -0.3 C 0 km/h
2747 09-03-2004 21:34:01 -0.4 C 3.11 g/m*3 -0.4 C 0 km/h
2748 09-03-2004 21:46:00 -0.3 C 3.08 g/m*3 -0.3 C 0 km/h
2749 09-03-2004 21:58:00 -0.3 C 3.04 g/m*3 -0.3 C 0 km/h
2750 09-03-2004 22:10:00 -0.3 C 3.04 g/m*3 -0.3 C 0 km/h
Sensor: Nr:Datum:Temp:Abs-Feuchte:Windchill:Wind:
Aussen-T/F 2751 09-03-2004 22:22:59 -0.3 C 3.08 g/m*3 -0.3 C 0 km/h
2752 09-03-2004 22:34:57 -0.2 C 3.11 g/m*3 -0.2 C 0 km/h
2753 09-03-2004 22:46:01 -0.4 C 3.06 g/m*3 -0.4 C 0 km/h
2754 09-03-2004 22:58:01 -0.4 C 3.11 g/m*3 -0.4 C 0 km/h
2755 09-03-2004 23:10:01 -0.5 C 3.09 g/m*3 -0.5 C 0 km/h
2756 09-03-2004 23:22:01 -0.6 C 3.07 g/m*3 -0.6 C 0 km/h
2757 09-03-2004 23:34:01 -0.8 C 3.07 g/m*3 -0.8 C 0 km/h
2758 09-03-2004 23:46:00 -0.7 C 3.14 g/m*3 -0.7 C 0 km/h
2759 09-03-2004 23:58:00 -0.9 C 3.1 g/m*3 -0.9 C 0 km/h
2760 10-03-2004 00:09:59 -0.6 C 3.21 g/m*3 -0.6 C 0 km/h
2761 10-03-2004 00:22:58 -0.6 C 3.21 g/m*3 -0.6 C 0 km/h
2762 10-03-2004 00:34:57 -0.7 C 3.18 g/m*3 -0.7 C 0 km/h
2763 10-03-2004 00:46:01 -0.7 C 3.18 g/m*3 -0.7 C 0 km/h
2764 10-03-2004 00:58:01 -0.5 C 3.28 g/m*3 -0.5 C 0 km/h
2765 10-03-2004 01:10:01 -0.5 C 3.18 g/m*3 -0.5 C 0 km/h
2766 10-03-2004 01:22:01 -0.7 C 3.18 g/m*3 -0.7 C 0 km/h
2767 10-03-2004 01:34:01 -0.8 C 3.21 g/m*3 -0.8 C 0 km/h
2768 10-03-2004 01:46:01 -0.7 C 3.28 g/m*3 -0.7 C 0 km/h
2769 10-03-2004 01:58:01 -0.5 C 3.32 g/m*3 -0.5 C 0 km/h
2770 10-03-2004 02:10:01 -0.4 C 3.35 g/m*3 -0.4 C 0 km/h
2771 10-03-2004 02:22:01 -0.3 C 3.37 g/m*3 -0.3 C 0 km/h
2772 10-03-2004 02:34:01 -0.2 C 3.39 g/m*3 -0.2 C 0 km/h
2773 10-03-2004 02:47:01 -0.2 C 3.39 g/m*3 -0.2 C 0 km/h
2774 10-03-2004 02:59:01 -0.2 C 3.44 g/m*3 -0.2 C 0 km/h
2775 10-03-2004 03:11:00 -0.2 C 3.44 g/m*3 -0.2 C 0 km/h
Sensor: Nr:Datum:Temp:Abs-Feuchte:Windchill:Wind:
Aussen-T/F 2776 10-03-2004 03:23:00 -0.2 C 3.54 g/m*3 -0.2 C 0 km/h
2777 10-03-2004 03:35:01 -0.3 C 3.51 g/m*3 -0.3 C 0 km/h
2778 10-03-2004 03:47:01 -0.3 C 3.61 g/m*3 -0.3 C 0 km/h
2779 10-03-2004 03:59:01 -0.3 C 3.61 g/m*3 -0.3 C 0 km/h
2780 10-03-2004 04:11:01 -0.2 C 3.63 g/m*3 -0.2 C 0 km/h
2781 10-03-2004 04:23:00 -0.3 C 3.61 g/m*3 -0.3 C 0 km/h
2782 10-03-2004 04:35:00 -0.2 C 3.68 g/m*3 -0.2 C 0 km/h
2783 10-03-2004 04:47:01 -0.2 C 3.73 g/m*3 -0.2 C 0 km/h
2784 10-03-2004 04:59:01 -0.3 C 3.7 g/m*3 -0.3 C 0 km/h
2785 10-03-2004 05:11:01 -0.2 C 3.78 g/m*3 -0.2 C 0 km/h
2786 10-03-2004 05:23:01 -0.3 C 3.75 g/m*3 -0.3 C 0 km/h
2787 10-03-2004 05:35:01 -0.4 C 3.72 g/m*3 -0.4 C 0 km/h
2788 10-03-2004 05:47:01 -0.4 C 3.72 g/m*3 -0.4 C 0 km/h
2789 10-03-2004 05:59:01 -0.4 C 3.72 g/m*3 -0.4 C 0 km/h
2790 10-03-2004 06:11:01 -0.4 C 3.72 g/m*3 -0.4 C 0 km/h
2791 10-03-2004 06:23:01 -0.4 C 3.72 g/m*3 -0.4 C 0 km/h
2792 10-03-2004 06:35:01 -0.4 C 3.72 g/m*3 -0.4 C 0 km/h
2793 10-03-2004 06:47:00 -0.3 C 3.75 g/m*3 -0.3 C 0 km/h
2794 10-03-2004 06:59:00 -0.3 C 3.75 g/m*3 -0.3 C 0 km/h
2795 10-03-2004 07:11:00 -0.3 C 3.7 g/m*3 -0.3 C 0 km/h
2796 10-03-2004 07:23:58 -0.4 C 3.68 g/m*3 -0.4 C 0 km/h
2797 10-03-2004 07:35:57 -0.3 C 3.7 g/m*3 -0.3 C 0 km/h
2798 10-03-2004 07:47:02 -0.3 C 3.7 g/m*3 -0.3 C 0 km/h
2799 10-03-2004 07:59:02 -0.2 C 3.78 g/m*3 -0.2 C 0 km/h
2800 10-03-2004 08:11:01 0 C 3.83 g/m*3 0 C 0 km/h
Sensor: Nr:Datum:Temp:Abs-Feuchte:Windchill:Wind:
Aussen-T/F 2801 10-03-2004 08:23:01 0 C 3.83 g/m*3 0 C 0 km/h
2802 10-03-2004 08:35:01 0.1 C 3.85 g/m*3 0.1 C 0 km/h
2803 10-03-2004 08:47:00 0.2 C 3.88 g/m*3 0.2 C 0 km/h
2804 10-03-2004 08:59:00 0.4 C 3.88 g/m*3 0.4 C 0 km/h
2805 10-03-2004 09:11:00 0.6 C 3.89 g/m*3 0.6 C 0 km/h
2806 10-03-2004 09:23:58 0.7 C 3.92 g/m*3 0.7 C 0 km/h
2807 10-03-2004 09:35:57 0.7 C 3.81 g/m*3 0.7 C 0 km/h
2808 10-03-2004 09:47:01 1 C 3.84 g/m*3 1 C 0 km/h
2809 10-03-2004 09:59:01 1 C 3.84 g/m*3 1 C 0 km/h
2810 10-03-2004 10:11:01 1.1 C 3.87 g/m*3 1.1 C 0 km/h
2811 10-03-2004 10:23:01 1.1 C 3.81 g/m*3 1.1 C 0 km/h
2812 10-03-2004 10:35:01 1.2 C 3.84 g/m*3 1.2 C 0 km/h
2813 10-03-2004 10:47:01 1.2 C 3.84 g/m*3 1.2 C 0 km/h
2814 10-03-2004 10:59:01 1.2 C 3.89 g/m*3 1.2 C 0 km/h
2815 10-03-2004 11:11:01 1.6 C 4.06 g/m*3 1.6 C 0 km/h
2816 10-03-2004 11:23:01 1.8 C 4.06 g/m*3 1.8 C 0 km/h
2817 10-03-2004 11:35:01 1.9 C 4.03 g/m*3 1.9 C 0 km/h
2818 10-03-2004 11:47:00 1.9 C 4.03 g/m*3 1.9 C 0 km/h
2819 10-03-2004 11:59:00 1.9 C 4.08 g/m*3 1.9 C 0 km/h
2820 10-03-2004 12:11:00 1.9 C 4.14 g/m*3 1.9 C 0 km/h
2821 10-03-2004 12:23:59 2.2 C 4.11 g/m*3 2.2 C 0 km/h
2822 10-03-2004 12:35:58 2 C 4 g/m*3 2 C 0 km/h
2823 10-03-2004 12:47:01 1.7 C 4.03 g/m*3 1.7 C 0 km/h
2824 10-03-2004 12:59:01 2 C 4.11 g/m*3 2 C 0 km/h
2825 10-03-2004 13:11:02 2 C 4.06 g/m*3 2 C 0 km/h
Sensor: Nr:Datum:Temp:Abs-Feuchte:Windchill:Wind:
Aussen-T/F 2826 10-03-2004 13:23:01 2.3 C 4.2 g/m*3 2.3 C 0 km/h
2827 10-03-2004 13:35:01 2.4 C 4.17 g/m*3 2.4 C 0 km/h
2828 10-03-2004 13:47:00 2.2 C 4.06 g/m*3 2.2 C 0 km/h
2829 10-03-2004 13:59:00 2.4 C 4 g/m*3 2.4 C 0 km/h
2830 10-03-2004 14:11:00 2.7 C 3.96 g/m*3 2.7 C 0 km/h
2831 10-03-2004 14:23:58 2.3 C 3.97 g/m*3 2.3 C 0 km/h
2832 10-03-2004 14:35:57 2.5 C 4.08 g/m*3 2.5 C 0 km/h
2833 10-03-2004 14:47:01 2.8 C 4.16 g/m*3 2.8 C 0 km/h
2834 10-03-2004 14:59:01 3.4 C 4.09 g/m*3 3.4 C 0 km/h
2835 10-03-2004 15:11:01 3.6 C 4.09 g/m*3 3.6 C 0 km/h
2836 10-03-2004 15:23:01 3.4 C 4.03 g/m*3 3.4 C 0 km/h
2837 10-03-2004 15:35:01 3.2 C 3.98 g/m*3 3.2 C 0 km/h
2838 10-03-2004 15:47:00 3.2 C 3.98 g/m*3 3.2 C 0 km/h
2839 10-03-2004 15:59:00 3.4 C 4.03 g/m*3 3.4 C 0 km/h
2840 10-03-2004 16:11:59 3.2 C 3.98 g/m*3 3.2 C 0 km/h
2841 10-03-2004 16:23:58 3 C 3.92 g/m*3 3 C 0 km/h
2842 10-03-2004 16:35:57 3 C 3.98 g/m*3 3 C 0 km/h
2843 10-03-2004 16:47:01 3.2 C 4.04 g/m*3 3.2 C 0 km/h
2844 10-03-2004 16:59:01 2.7 C 3.96 g/m*3 2.7 C 0 km/h
2845 10-03-2004 17:11:01 2.2 C 4 g/m*3 2.2 C 0 km/h
2846 10-03-2004 17:23:01 2.2 C 4.17 g/m*3 2.2 C 0 km/h
2847 10-03-2004 17:35:00 2.2 C 4.17 g/m*3 2.2 C 0 km/h
2848 10-03-2004 17:47:01 2.1 C 4.2 g/m*3 2.1 C 0 km/h
2849 10-03-2004 17:59:01 2 C 4.17 g/m*3 2 C 0 km/h
2850 10-03-2004 18:11:01 1.8 C 4.17 g/m*3 1.8 C 0 km/h
Sensor: Nr:Datum:Temp:Abs-Feuchte:Windchill:Wind:
Aussen-T/F 2851 10-03-2004 18:23:01 1.7 C 4.19 g/m*3 1.7 C 0 km/h
2852 10-03-2004 18:35:01 1.4 C 4.16 g/m*3 1.4 C 0 km/h
2853 10-03-2004 18:47:00 1.3 C 4.19 g/m*3 1.3 C 0 km/h
2854 10-03-2004 18:59:00 1.3 C 4.19 g/m*3 1.3 C 0 km/h
2855 10-03-2004 19:11:00 1.3 C 4.19 g/m*3 1.3 C 0 km/h
2856 10-03-2004 19:23:01 1.2 C 4.16 g/m*3 1.2 C 0 km/h
2857 10-03-2004 19:35:00 1.2 C 4.21 g/m*3 1.2 C 0 km/h
2858 10-03-2004 19:47:01 1.2 C 4.21 g/m*3 1.2 C 0 km/h
2859 10-03-2004 19:59:01 1.3 C 4.29 g/m*3 1.3 C 0 km/h
2860 10-03-2004 20:11:02 1.4 C 4.32 g/m*3 1.4 C 0 km/h
2861 10-03-2004 20:23:01 1.1 C 4.18 g/m*3 1.1 C 0 km/h
2862 10-03-2004 20:35:01 0.7 C 4.07 g/m*3 0.7 C 0 km/h
2863 10-03-2004 20:47:01 0.5 C 4.06 g/m*3 0.5 C 0 km/h
2864 10-03-2004 20:59:01 0.5 C 4.11 g/m*3 0.5 C 0 km/h
2865 10-03-2004 21:11:00 0.6 C 4.14 g/m*3 0.6 C 0 km/h
2866 10-03-2004 21:23:59 0.7 C 4.17 g/m*3 0.7 C 0 km/h
2867 10-03-2004 21:35:58 0.6 C 4.19 g/m*3 0.6 C 0 km/h
2868 10-03-2004 21:47:01 0.6 C 4.24 g/m*3 0.6 C 0 km/h
2869 10-03-2004 21:59:01 0.5 C 4.21 g/m*3 0.5 C 0 km/h
2870 10-03-2004 22:11:01 0.6 C 4.29 g/m*3 0.6 C 0 km/h
2871 10-03-2004 22:23:01 0.7 C 4.32 g/m*3 0.7 C 0 km/h
2872 10-03-2004 22:35:01 0.7 C 4.32 g/m*3 0.7 C 0 km/h
2873 10-03-2004 22:47:00 0.6 C 4.24 g/m*3 0.6 C 0 km/h
2874 10-03-2004 22:59:00 0.5 C 4.21 g/m*3 0.5 C 0 km/h
2875 10-03-2004 23:11:00 0.3 C 4.16 g/m*3 0.3 C 0 km/h
Sensor: Nr:Datum:Temp:Abs-Feuchte:Windchill:Wind:
Aussen-T/F 2876 10-03-2004 23:23:58 0.2 C 4.13 g/m*3 0.2 C 0 km/h
2877 10-03-2004 23:35:57 -0.2 C 4.01 g/m*3 -0.2 C 0 km/h
2878 10-03-2004 23:47:01 -0.3 C 3.99 g/m*3 -0.3 C 0 km/h
2879 10-03-2004 23:59:01 -0.3 C 3.99 g/m*3 -0.3 C 0 km/h
2880 11-03-2004 00:11:01 -0.4 C 3.96 g/m*3 -0.4 C 0 km/h
2881 11-03-2004 00:23:01 -0.7 C 3.83 g/m*3 -0.7 C 0 km/h
2882 11-03-2004 00:35:01 -0.8 C 3.8 g/m*3 -0.8 C 0 km/h
2883 11-03-2004 00:47:01 -1 C 3.75 g/m*3 -1 C 0 km/h
2884 11-03-2004 00:59:01 -1.1 C 3.73 g/m*3 -1.1 C 0 km/h
2885 11-03-2004 01:11:01 -1.1 C 3.73 g/m*3 -1.1 C 0 km/h
2886 11-03-2004 01:23:01 -1.3 C 3.67 g/m*3 -1.3 C 0 km/h
2887 11-03-2004 01:35:01 -1.3 C 3.72 g/m*3 -1.3 C 0 km/h
2888 11-03-2004 01:47:00 -1.3 C 3.67 g/m*3 -1.3 C 0 km/h
2889 11-03-2004 01:59:00 -1.3 C 3.67 g/m*3 -1.3 C 0 km/h
2890 11-03-2004 02:11:00 -1.4 C 3.65 g/m*3 -1.4 C 0 km/h
2891 11-03-2004 02:23:59 -1.1 C 3.77 g/m*3 -1.1 C 0 km/h
2892 11-03-2004 02:35:57 -1 C 3.8 g/m*3 -1 C 0 km/h
2893 11-03-2004 02:48:02 -0.8 C 3.9 g/m*3 -0.8 C 0 km/h
2894 11-03-2004 03:00:02 -0.8 C 3.9 g/m*3 -0.8 C 0 km/h
2895 11-03-2004 03:12:02 -0.8 C 3.85 g/m*3 -0.8 C 0 km/h
2896 11-03-2004 03:24:02 -0.7 C 3.88 g/m*3 -0.7 C 0 km/h
2897 11-03-2004 03:36:00 -0.7 C 3.88 g/m*3 -0.7 C 0 km/h
2898 11-03-2004 03:48:00 -0.7 C 3.88 g/m*3 -0.7 C 0 km/h
2899 11-03-2004 04:00:00 -0.7 C 3.88 g/m*3 -0.7 C 0 km/h
2900 11-03-2004 04:12:59 -0.7 C 3.88 g/m*3 -0.7 C 0 km/h
Sensor: Nr:Datum:Temp:Abs-Feuchte:Windchill:Wind:
Aussen-T/F 2901 11-03-2004 04:24:58 -0.7 C 3.88 g/m*3 -0.7 C 0 km/h
2902 11-03-2004 04:36:57 -0.6 C 3.9 g/m*3 -0.6 C 0 km/h
2903 11-03-2004 04:48:01 -0.7 C 3.88 g/m*3 -0.7 C 0 km/h
2904 11-03-2004 05:00:01 -0.7 C 3.88 g/m*3 -0.7 C 0 km/h
2905 11-03-2004 05:12:01 -0.7 C 3.88 g/m*3 -0.7 C 0 km/h
2906 11-03-2004 05:24:01 -0.7 C 3.88 g/m*3 -0.7 C 0 km/h
2907 11-03-2004 05:36:01 -0.7 C 3.88 g/m*3 -0.7 C 0 km/h
2908 11-03-2004 05:48:01 -0.6 C 3.86 g/m*3 -0.6 C 0 km/h
2909 11-03-2004 06:00:01 -0.7 C 3.83 g/m*3 -0.7 C 0 km/h
2910 11-03-2004 06:12:01 -0.7 C 3.83 g/m*3 -0.7 C 0 km/h
2911 11-03-2004 06:24:01 -0.6 C 3.86 g/m*3 -0.6 C 0 km/h
2912 11-03-2004 06:36:01 -0.6 C 3.86 g/m*3 -0.6 C 0 km/h
2913 11-03-2004 06:48:00 -0.6 C 3.86 g/m*3 -0.6 C 0 km/h
2914 11-03-2004 07:00:00 -0.7 C 3.83 g/m*3 -0.7 C 0 km/h
2915 11-03-2004 07:12:00 -0.7 C 3.78 g/m*3 -0.7 C 0 km/h
2916 11-03-2004 07:24:59 -0.7 C 3.78 g/m*3 -0.7 C 0 km/h
2917 11-03-2004 07:36:58 -0.7 C 3.78 g/m*3 -0.7 C 0 km/h
2918 11-03-2004 07:48:01 -0.5 C 3.84 g/m*3 -0.5 C 0 km/h
2919 11-03-2004 08:00:01 -0.5 C 3.84 g/m*3 -0.5 C 0 km/h
2920 11-03-2004 08:12:01 -0.5 C 3.84 g/m*3 -0.5 C 0 km/h
2921 11-03-2004 08:24:01 -0.3 C 3.89 g/m*3 -0.3 C 0 km/h
2922 11-03-2004 08:36:01 -0.3 C 3.84 g/m*3 -0.3 C 0 km/h
2923 11-03-2004 08:48:01 -0.1 C 3.9 g/m*3 -0.1 C 0 km/h
2924 11-03-2004 09:00:01 -0.1 C 3.9 g/m*3 -0.1 C 0 km/h
2925 11-03-2004 09:12:01 0 C 3.88 g/m*3 0 C 0 km/h
Sensor: Nr:Datum:Temp:Abs-Feuchte:Windchill:Wind:
Aussen-T/F 2926 11-03-2004 09:24:01 0.1 C 3.9 g/m*3 0.1 C 0 km/h
2927 11-03-2004 09:36:01 0.4 C 3.98 g/m*3 0.4 C 0 km/h
2928 11-03-2004 09:48:00 1 C 4.05 g/m*3 1 C 0 km/h
2929 11-03-2004 10:00:00 1.2 C 4.05 g/m*3 1.2 C 0 km/h
2930 11-03-2004 10:12:00 1.2 C 4.05 g/m*3 1.2 C 0 km/h
2931 11-03-2004 10:24:58 1.6 C 4.11 g/m*3 1.6 C 0 km/h
2932 11-03-2004 10:36:57 2 C 4.17 g/m*3 2 C 0 km/h
2933 11-03-2004 10:48:02 2 C 3.95 g/m*3 2 C 0 km/h
2934 11-03-2004 11:00:02 2.5 C 4.08 g/m*3 2.5 C 0 km/h
2935 11-03-2004 11:12:01 2.7 C 4.08 g/m*3 2.7 C 0 km/h
2936 11-03-2004 11:24:01 2.7 C 4.02 g/m*3 2.7 C 0 km/h
2937 11-03-2004 11:36:01 2.9 C 4.07 g/m*3 2.9 C 0 km/h
2938 11-03-2004 11:48:01 3.2 C 4.1 g/m*3 3.2 C 0 km/h
2939 11-03-2004 12:00:01 3.1 C 4.01 g/m*3 3.1 C 0 km/h
2940 11-03-2004 12:12:02 2.9 C 3.9 g/m*3 2.9 C 0 km/h
2941 11-03-2004 12:24:01 3.1 C 3.83 g/m*3 3.1 C 0 km/h
2942 11-03-2004 12:36:01 2.9 C 3.84 g/m*3 2.9 C 0 km/h
2943 11-03-2004 12:48:00 3.5 C 3.87 g/m*3 3.5 C 0 km/h
2944 11-03-2004 13:00:00 4 C 3.81 g/m*3 4 C 0 km/h
2945 11-03-2004 13:12:00 4.1 C 3.9 g/m*3 4.1 C 0 km/h
2946 11-03-2004 13:24:59 3.6 C 3.78 g/m*3 3.6 C 0 km/h
2947 11-03-2004 13:36:57 3.8 C 3.95 g/m*3 3.8 C 0 km/h
2948 11-03-2004 13:48:01 3.6 C 3.71 g/m*3 3.6 C 0 km/h
2949 11-03-2004 14:00:01 4.1 C 3.65 g/m*3 4.1 C 0 km/h
2950 11-03-2004 14:12:01 4.5 C 3.75 g/m*3 4.5 C 0 km/h
Sensor: Nr:Datum:Temp:Abs-Feuchte:Windchill:Wind:
Aussen-T/F 2951 11-03-2004 14:24:01 4.7 C 3.86 g/m*3 4.7 C 0 km/h
2952 11-03-2004 14:36:01 4.1 C 3.52 g/m*3 4.1 C 0 km/h
2953 11-03-2004 14:48:00 4.1 C 3.84 g/m*3 4.1 C 0 km/h
2954 11-03-2004 15:00:00 4.2 C 3.8 g/m*3 4.2 C 0 km/h
2955 11-03-2004 15:11:59 4.3 C 3.76 g/m*3 4.3 C 0 km/h
2956 11-03-2004 15:24:58 4.3 C 3.57 g/m*3 4.3 C 0 km/h
2957 11-03-2004 15:36:57 3.9 C 3.79 g/m*3 3.9 C 0 km/h
2958 11-03-2004 15:48:01 3.2 C 3.86 g/m*3 3.2 C 0 km/h
2959 11-03-2004 16:00:01 3.1 C 4.01 g/m*3 3.1 C 0 km/h
2960 11-03-2004 16:12:01 3 C 4.16 g/m*3 3 C 0 km/h
2961 11-03-2004 16:24:01 2.9 C 4.25 g/m*3 2.9 C 0 km/h
2962 11-03-2004 16:36:01 2.7 C 4.31 g/m*3 2.7 C 0 km/h
2963 11-03-2004 16:48:01 2.7 C 4.37 g/m*3 2.7 C 0 km/h
2964 11-03-2004 17:00:01 2.6 C 4.34 g/m*3 2.6 C 0 km/h
2965 11-03-2004 17:12:01 2.6 C 4.4 g/m*3 2.6 C 0 km/h
2966 11-03-2004 17:24:01 2.3 C 4.37 g/m*3 2.3 C 0 km/h
2967 11-03-2004 17:36:01 2.2 C 4.34 g/m*3 2.2 C 0 km/h
2968 11-03-2004 17:48:01 2.4 C 4.51 g/m*3 2.4 C 0 km/h
2969 11-03-2004 18:00:01 2.3 C 4.48 g/m*3 2.3 C 0 km/h
2970 11-03-2004 18:12:01 2.2 C 4.45 g/m*3 2.2 C 0 km/h
2971 11-03-2004 18:24:02 1.9 C 4.42 g/m*3 1.9 C 0 km/h
2972 11-03-2004 18:36:02 1.9 C 4.42 g/m*3 1.9 C 0 km/h
2973 11-03-2004 18:48:02 1.7 C 4.41 g/m*3 1.7 C 0 km/h
2974 11-03-2004 19:00:02 1.4 C 4.32 g/m*3 1.4 C 0 km/h
2975 11-03-2004 19:12:02 1.3 C 4.34 g/m*3 1.3 C 0 km/h
Sensor: Nr:Datum:Temp:Abs-Feuchte:Windchill:Wind:
Aussen-T/F 2976 11-03-2004 19:24:01 1.2 C 4.31 g/m*3 1.2 C 0 km/h
2977 11-03-2004 19:36:02 1.1 C 4.29 g/m*3 1.1 C 0 km/h
2978 11-03-2004 19:48:02 1.3 C 4.4 g/m*3 1.3 C 0 km/h
2979 11-03-2004 20:00:02 1.2 C 4.37 g/m*3 1.2 C 0 km/h
2980 11-03-2004 20:12:02 1.2 C 4.37 g/m*3 1.2 C 0 km/h
2981 11-03-2004 20:24:01 1.2 C 4.37 g/m*3 1.2 C 0 km/h
2982 11-03-2004 20:36:01 1.2 C 4.37 g/m*3 1.2 C 0 km/h
2983 11-03-2004 20:48:01 1.3 C 4.45 g/m*3 1.3 C 0 km/h
2984 11-03-2004 21:00:01 1.4 C 4.48 g/m*3 1.4 C 0 km/h
2985 11-03-2004 21:12:00 1.3 C 4.45 g/m*3 1.3 C 0 km/h
2986 11-03-2004 21:24:59 1.4 C 4.43 g/m*3 1.4 C 0 km/h
2987 11-03-2004 21:36:58 1.3 C 4.4 g/m*3 1.3 C 0 km/h
2988 11-03-2004 21:48:01 1.3 C 4.4 g/m*3 1.3 C 0 km/h
2989 11-03-2004 22:00:01 1.3 C 4.4 g/m*3 1.3 C 0 km/h
2990 11-03-2004 22:12:01 1.3 C 4.4 g/m*3 1.3 C 0 km/h
2991 11-03-2004 22:24:02 1.3 C 4.4 g/m*3 1.3 C 0 km/h
2992 11-03-2004 22:36:01 1.3 C 4.34 g/m*3 1.3 C 0 km/h
2993 11-03-2004 22:48:01 1.3 C 4.4 g/m*3 1.3 C 0 km/h
2994 11-03-2004 23:00:01 1.2 C 4.31 g/m*3 1.2 C 0 km/h
2995 11-03-2004 23:12:01 1.2 C 4.37 g/m*3 1.2 C 0 km/h
2996 11-03-2004 23:24:59 1.3 C 4.4 g/m*3 1.3 C 0 km/h
2997 11-03-2004 23:36:58 1.2 C 4.37 g/m*3 1.2 C 0 km/h
2998 11-03-2004 23:48:01 1.2 C 4.37 g/m*3 1.2 C 0 km/h
2999 12-03-2004 00:00:01 1.1 C 4.29 g/m*3 1.1 C 0 km/h
3000 12-03-2004 00:12:01 1.2 C 4.31 g/m*3 1.2 C 0 km/h
Sensor: Nr:Datum:Temp:Abs-Feuchte:Windchill:Wind:
Aussen-T/F 3001 12-03-2004 00:24:00 1.2 C 4.31 g/m*3 1.2 C 0 km/h
3002 12-03-2004 00:36:00 1.1 C 4.29 g/m*3 1.1 C 0 km/h
3003 12-03-2004 00:48:01 1.1 C 4.29 g/m*3 1.1 C 0 km/h
3004 12-03-2004 01:00:01 1 C 4.26 g/m*3 1 C 0 km/h
3005 12-03-2004 01:12:01 1 C 4.26 g/m*3 1 C 0 km/h
3006 12-03-2004 01:24:00 0.9 C 4.23 g/m*3 0.9 C 0 km/h
3007 12-03-2004 01:36:00 0.9 C 4.23 g/m*3 0.9 C 0 km/h
3008 12-03-2004 01:48:01 0.9 C 4.23 g/m*3 0.9 C 0 km/h
3009 12-03-2004 02:00:01 0.9 C 4.23 g/m*3 0.9 C 0 km/h
3010 12-03-2004 02:12:01 0.9 C 4.23 g/m*3 0.9 C 0 km/h
3011 12-03-2004 02:24:01 0.5 C 4.06 g/m*3 0.5 C 0 km/h
3012 12-03-2004 02:36:01 0.3 C 4.01 g/m*3 0.3 C 0 km/h
3013 12-03-2004 02:49:02 0.1 C 3.9 g/m*3 0.1 C 0 km/h
3014 12-03-2004 03:01:02 -0.4 C 3.77 g/m*3 -0.4 C 0 km/h
3015 12-03-2004 03:13:02 -0.7 C 3.69 g/m*3 -0.7 C 0 km/h
3016 12-03-2004 03:25:02 -0.9 C 3.69 g/m*3 -0.9 C 0 km/h
3017 12-03-2004 03:37:00 -1 C 3.71 g/m*3 -1 C 0 km/h
3018 12-03-2004 03:49:00 -1.2 C 3.66 g/m*3 -1.2 C 0 km/h
3019 12-03-2004 04:01:00 -1.3 C 3.63 g/m*3 -1.3 C 0 km/h
3020 12-03-2004 04:13:00 -1.2 C 3.7 g/m*3 -1.2 C 0 km/h
3021 12-03-2004 04:25:59 -1.1 C 3.73 g/m*3 -1.1 C 0 km/h
3022 12-03-2004 04:37:58 -1.1 C 3.73 g/m*3 -1.1 C 0 km/h
3023 12-03-2004 04:49:01 -1 C 3.75 g/m*3 -1 C 0 km/h
3024 12-03-2004 05:01:01 -1 C 3.8 g/m*3 -1 C 0 km/h
3025 12-03-2004 05:13:01 -0.8 C 3.85 g/m*3 -0.8 C 0 km/h
Sensor: Nr:Datum:Temp:Abs-Feuchte:Windchill:Wind:
Aussen-T/F 3026 12-03-2004 05:25:01 -0.7 C 3.88 g/m*3 -0.7 C 0 km/h
3027 12-03-2004 05:37:00 -0.6 C 3.9 g/m*3 -0.6 C 0 km/h
3028 12-03-2004 05:49:01 -0.4 C 3.91 g/m*3 -0.4 C 0 km/h
3029 12-03-2004 06:01:01 -0.4 C 3.86 g/m*3 -0.4 C 0 km/h
3030 12-03-2004 06:13:01 -0.6 C 3.76 g/m*3 -0.6 C 0 km/h
3031 12-03-2004 06:25:01 -0.5 C 3.79 g/m*3 -0.5 C 0 km/h
3032 12-03-2004 06:37:01 -0.4 C 3.82 g/m*3 -0.4 C 0 km/h
3033 12-03-2004 06:49:00 -0.1 C 3.75 g/m*3 -0.1 C 0 km/h
3034 12-03-2004 07:01:59 -0.1 C 3.71 g/m*3 -0.1 C 0 km/h
3035 12-03-2004 07:12:59 -0.2 C 3.73 g/m*3 -0.2 C 0 km/h
3036 12-03-2004 07:25:59 0 C 3.78 g/m*3 0 C 0 km/h
3037 12-03-2004 07:37:58 0 C 3.78 g/m*3 0 C 0 km/h
3038 12-03-2004 07:49:01 0.3 C 3.76 g/m*3 0.3 C 0 km/h
3039 12-03-2004 08:01:00 0.6 C 3.74 g/m*3 0.6 C 0 km/h
3040 12-03-2004 08:13:00 1 C 3.63 g/m*3 1 C 0 km/h
3041 12-03-2004 08:25:00 1.2 C 3.63 g/m*3 1.2 C 0 km/h
3042 12-03-2004 08:37:01 1.5 C 3.71 g/m*3 1.5 C 0 km/h
3043 12-03-2004 08:49:01 1.7 C 3.65 g/m*3 1.7 C 0 km/h
3044 12-03-2004 09:01:01 1.7 C 3.54 g/m*3 1.7 C 0 km/h
3045 12-03-2004 09:13:01 1.8 C 3.56 g/m*3 1.8 C 0 km/h
3046 12-03-2004 09:25:01 2.2 C 3.66 g/m*3 2.2 C 0 km/h
3047 12-03-2004 09:37:01 2.3 C 3.46 g/m*3 2.3 C 0 km/h
3048 12-03-2004 09:49:01 2.4 C 3.48 g/m*3 2.4 C 0 km/h
3049 12-03-2004 10:01:01 2.9 C 3.6 g/m*3 2.9 C 0 km/h
3050 12-03-2004 10:13:01 3.3 C 3.52 g/m*3 3.3 C 0 km/h
Sensor: Nr:Datum:Temp:Abs-Feuchte:Windchill:Wind:
Aussen-T/F 3051 12-03-2004 10:25:02 3.6 C 3.47 g/m*3 3.6 C 0 km/h
3052 12-03-2004 10:37:01 4.2 C 3.48 g/m*3 4.2 C 0 km/h
3053 12-03-2004 10:49:00 4.2 C 3.48 g/m*3 4.2 C 0 km/h
3054 12-03-2004 11:01:00 4.5 C 3.48 g/m*3 4.5 C 0 km/h
3055 12-03-2004 11:13:00 4.3 C 3.37 g/m*3 4.3 C 0 km/h
3056 12-03-2004 11:25:59 4.5 C 3.55 g/m*3 4.5 C 0 km/h
3057 12-03-2004 11:37:57 4.7 C 3.46 g/m*3 4.7 C 0 km/h
3058 12-03-2004 11:49:01 5.4 C 3.56 g/m*3 5.4 C 0 km/h
3059 12-03-2004 12:01:01 5.9 C 3.46 g/m*3 5.9 C 0 km/h
3060 12-03-2004 12:13:01 5.9 C 3.46 g/m*3 5.9 C 0 km/h
3061 12-03-2004 12:25:01 6 C 3.34 g/m*3 6 C 0 km/h
3062 12-03-2004 12:37:01 6 C 3.19 g/m*3 6 C 0 km/h
3063 12-03-2004 12:49:00 6.7 C 3.27 g/m*3 6.7 C 0 km/h
3064 12-03-2004 13:01:00 6.5 C 3.22 g/m*3 6.5 C 0 km/h
3065 12-03-2004 13:13:00 6.2 C 3.16 g/m*3 6.2 C 0 km/h
3066 12-03-2004 13:25:58 6 C 3.19 g/m*3 6 C 0 km/h
3067 12-03-2004 13:37:57 6.2 C 3.31 g/m*3 6.2 C 0 km/h
3068 12-03-2004 13:49:01 6.3 C 3.18 g/m*3 6.3 C 0 km/h
3069 12-03-2004 14:01:01 6.5 C 3.15 g/m*3 6.5 C 0 km/h
3070 12-03-2004 14:13:01 6.6 C 3.25 g/m*3 6.6 C 0 km/h
3071 12-03-2004 14:25:01 6.3 C 3.18 g/m*3 6.3 C 0 km/h
3072 12-03-2004 14:37:01 6.3 C 3.18 g/m*3 6.3 C 0 km/h
3073 12-03-2004 14:49:02 6.6 C 3.32 g/m*3 6.6 C 0 km/h
3074 12-03-2004 15:01:01 6.5 C 3.37 g/m*3 6.5 C 0 km/h
3075 12-03-2004 15:13:01 6.4 C 3.35 g/m*3 6.4 C 0 km/h
Sensor: Nr:Datum:Temp:Abs-Feuchte:Windchill:Wind:
Aussen-T/F 3076 12-03-2004 15:25:01 6.5 C 3.3 g/m*3 6.5 C 0 km/h
3077 12-03-2004 15:37:02 6.5 C 3.22 g/m*3 6.5 C 0 km/h
3078 12-03-2004 15:49:01 6.4 C 3.13 g/m*3 6.4 C 0 km/h
3079 12-03-2004 16:01:01 6.2 C 3.09 g/m*3 6.2 C 0 km/h
3080 12-03-2004 16:13:01 6.2 C 3.09 g/m*3 6.2 C 0 km/h
3081 12-03-2004 16:25:01 6.2 C 3.02 g/m*3 6.2 C 0 km/h
3082 12-03-2004 16:37:01 6.2 C 3.02 g/m*3 6.2 C 0 km/h
3083 12-03-2004 16:49:00 6.2 C 3.16 g/m*3 6.2 C 0 km/h
3084 12-03-2004 17:01:00 5.9 C 3.39 g/m*3 5.9 C 0 km/h
3085 12-03-2004 17:13:00 5.8 C 3.44 g/m*3 5.8 C 0 km/h
3086 12-03-2004 17:25:59 5.7 C 3.49 g/m*3 5.7 C 0 km/h
3087 12-03-2004 17:37:58 5.9 C 3.53 g/m*3 5.9 C 0 km/h
3088 12-03-2004 17:49:01 5.9 C 3.53 g/m*3 5.9 C 0 km/h
3089 12-03-2004 18:01:01 5.9 C 3.61 g/m*3 5.9 C 0 km/h
3090 12-03-2004 18:13:01 5.9 C 3.68 g/m*3 5.9 C 0 km/h
3091 12-03-2004 18:25:01 5.9 C 3.75 g/m*3 5.9 C 0 km/h
3092 12-03-2004 18:37:00 5.9 C 3.89 g/m*3 5.9 C 0 km/h
3093 12-03-2004 18:49:01 5.9 C 3.97 g/m*3 5.9 C 0 km/h
3094 12-03-2004 19:01:01 5.7 C 4.2 g/m*3 5.7 C 0 km/h
3095 12-03-2004 19:13:01 5.6 C 4.38 g/m*3 5.6 C 0 km/h
3096 12-03-2004 19:25:01 5.6 C 4.38 g/m*3 5.6 C 0 km/h
3097 12-03-2004 19:37:01 5.8 C 4.44 g/m*3 5.8 C 0 km/h
3098 12-03-2004 19:49:01 5.8 C 4.44 g/m*3 5.8 C 0 km/h
3099 12-03-2004 20:01:02 5.5 C 4.64 g/m*3 5.5 C 0 km/h
3100 12-03-2004 20:13:02 5.5 C 4.71 g/m*3 5.5 C 0 km/h
Sensor: Nr:Datum:Temp:Abs-Feuchte:Windchill:Wind:
Aussen-T/F 3101 12-03-2004 20:25:02 5.7 C 4.84 g/m*3 5.7 C 0 km/h
3102 12-03-2004 20:37:01 5.7 C 4.91 g/m*3 5.7 C 0 km/h
3103 12-03-2004 20:49:02 5.8 C 4.94 g/m*3 5.8 C 0 km/h
3104 12-03-2004 21:01:01 5.9 C 4.9 g/m*3 5.9 C 0 km/h
3105 12-03-2004 21:13:01 6 C 4.86 g/m*3 6 C 0 km/h
3106 12-03-2004 21:25:02 6 C 4.86 g/m*3 6 C 0 km/h
3107 12-03-2004 21:37:02 6.1 C 4.89 g/m*3 6.1 C 0 km/h
3108 12-03-2004 21:49:01 6.1 C 4.89 g/m*3 6.1 C 0 km/h
3109 12-03-2004 22:01:00 6.2 C 4.93 g/m*3 6.2 C 0 km/h
3110 12-03-2004 22:13:00 6.2 C 4.93 g/m*3 6.2 C 0 km/h
3111 12-03-2004 22:25:00 6.2 C 5 g/m*3 6.2 C 0 km/h
3112 12-03-2004 22:37:58 6.1 C 4.97 g/m*3 6.1 C 0 km/h
3113 12-03-2004 22:49:01 6 C 5.01 g/m*3 6 C 0 km/h
3114 12-03-2004 23:01:01 6.1 C 5.04 g/m*3 6.1 C 0 km/h
3115 12-03-2004 23:13:01 6.2 C 5.07 g/m*3 6.2 C 0 km/h
3116 12-03-2004 23:25:01 6.1 C 5.04 g/m*3 6.1 C 0 km/h
3117 12-03-2004 23:37:01 6.1 C 5.11 g/m*3 6.1 C 0 km/h
3118 12-03-2004 23:49:00 6 C 5.08 g/m*3 6 C 0 km/h
3119 13-03-2004 00:01:00 6.4 C 5.22 g/m*3 6.4 C 0 km/h
3120 13-03-2004 00:13:00 6.3 C 5.18 g/m*3 6.3 C 0 km/h
3121 13-03-2004 00:25:59 6.4 C 5.29 g/m*3 6.4 C 0 km/h
3122 13-03-2004 00:37:57 6.3 C 5.26 g/m*3 6.3 C 0 km/h
3123 13-03-2004 00:49:01 6.2 C 5.29 g/m*3 6.2 C 0 km/h
3124 13-03-2004 01:01:01 6.3 C 5.33 g/m*3 6.3 C 0 km/h
3125 13-03-2004 01:13:01 6.3 C 5.33 g/m*3 6.3 C 0 km/h
Sensor: Nr:Datum:Temp:Abs-Feuchte:Windchill:Wind:
Aussen-T/F 3126 13-03-2004 01:25:01 6.3 C 5.33 g/m*3 6.3 C 0 km/h
3127 13-03-2004 01:37:01 6.4 C 5.36 g/m*3 6.4 C 0 km/h
3128 13-03-2004 01:49:01 6.4 C 5.44 g/m*3 6.4 C 0 km/h
3129 13-03-2004 02:01:01 6.4 C 5.36 g/m*3 6.4 C 0 km/h
3130 13-03-2004 02:13:01 6.4 C 5.44 g/m*3 6.4 C 0 km/h
3131 13-03-2004 02:25:01 6.6 C 5.44 g/m*3 6.6 C 0 km/h
3132 13-03-2004 02:37:01 6.7 C 5.47 g/m*3 6.7 C 0 km/h
3133 13-03-2004 02:50:01 6.8 C 5.51 g/m*3 6.8 C 0 km/h
3134 13-03-2004 03:02:01 6.8 C 5.51 g/m*3 6.8 C 0 km/h
3135 13-03-2004 03:14:00 7 C 5.42 g/m*3 7 C 0 km/h
3136 13-03-2004 03:26:00 7 C 5.42 g/m*3 7 C 0 km/h
3137 13-03-2004 03:38:01 6.9 C 5.54 g/m*3 6.9 C 0 km/h
3138 13-03-2004 03:50:01 7 C 5.5 g/m*3 7 C 0 km/h
3139 13-03-2004 04:02:01 7.1 C 5.46 g/m*3 7.1 C 0 km/h
3140 13-03-2004 04:14:01 7.2 C 5.49 g/m*3 7.2 C 0 km/h
3141 13-03-2004 04:26:00 7.3 C 5.53 g/m*3 7.3 C 0 km/h
3142 13-03-2004 04:38:00 7.4 C 5.49 g/m*3 7.4 C 0 km/h
3143 13-03-2004 04:50:01 7.4 C 5.49 g/m*3 7.4 C 0 km/h
3144 13-03-2004 05:02:01 7.6 C 5.56 g/m*3 7.6 C 0 km/h
3145 13-03-2004 05:14:01 7.5 C 5.52 g/m*3 7.5 C 0 km/h
3146 13-03-2004 05:26:01 7.6 C 5.56 g/m*3 7.6 C 0 km/h
3147 13-03-2004 05:38:01 7.6 C 5.64 g/m*3 7.6 C 0 km/h
3148 13-03-2004 05:50:00 7.6 C 5.64 g/m*3 7.6 C 0 km/h
3149 13-03-2004 06:02:59 7.5 C 5.68 g/m*3 7.5 C 0 km/h
3150 13-03-2004 06:14:58 7.3 C 5.69 g/m*3 7.3 C 0 km/h
Sensor: Nr:Datum:Temp:Abs-Feuchte:Windchill:Wind:
Aussen-T/F 3151 13-03-2004 06:26:58 7.2 C 5.73 g/m*3 7.2 C 0 km/h
3152 13-03-2004 06:38:57 7.2 C 5.81 g/m*3 7.2 C 0 km/h
3153 13-03-2004 06:50:01 7.2 C 5.81 g/m*3 7.2 C 0 km/h
3154 13-03-2004 07:02:01 7.3 C 5.85 g/m*3 7.3 C 0 km/h
3155 13-03-2004 07:14:01 7.4 C 5.88 g/m*3 7.4 C 0 km/h
3156 13-03-2004 07:26:01 7.5 C 5.84 g/m*3 7.5 C 0 km/h
3157 13-03-2004 07:38:00 7.5 C 5.84 g/m*3 7.5 C 0 km/h
3158 13-03-2004 07:50:01 7.8 C 5.96 g/m*3 7.8 C 0 km/h
3159 13-03-2004 08:02:01 7.9 C 5.91 g/m*3 7.9 C 0 km/h
3160 13-03-2004 08:14:01 8.1 C 5.91 g/m*3 8.1 C 0 km/h
3161 13-03-2004 08:26:01 8.4 C 5.94 g/m*3 8.4 C 0 km/h
3162 13-03-2004 08:38:01 8.9 C 5.96 g/m*3 8.9 C 0 km/h
3163 13-03-2004 08:50:01 9 C 5.82 g/m*3 9 C 0 km/h
3164 13-03-2004 09:02:03 9.3 C 5.93 g/m*3 9.3 C 0 km/h
3165 13-03-2004 09:14:03 9.5 C 6.01 g/m*3 9.5 C 0 km/h
3166 13-03-2004 09:26:58 9.7 C 5.99 g/m*3 9.7 C 0 km/h
3167 13-03-2004 09:38:58 9.8 C 6.03 g/m*3 9.8 C 0 km/h
3168 13-03-2004 09:50:01 10 C 5.92 g/m*3 10 C 0 km/h
3169 13-03-2004 10:02:01 10.1 C 5.96 g/m*3 10.1 C 0 km/h
3170 13-03-2004 10:14:01 10.1 C 5.86 g/m*3 10.1 C 0 km/h
3171 13-03-2004 10:26:02 10.1 C 5.77 g/m*3 10.1 C 0 km/h
3172 13-03-2004 10:38:03 10.2 C 5.8 g/m*3 10.2 C 0 km/h
3173 13-03-2004 10:50:01 10.4 C 5.78 g/m*3 10.4 C 0 km/h
3174 13-03-2004 11:02:01 10.5 C 5.72 g/m*3 10.5 C 0 km/h
3175 13-03-2004 11:14:01 10.8 C 5.73 g/m*3 10.8 C 0 km/h
Sensor: Nr:Datum:Temp:Abs-Feuchte:Windchill:Wind:
Aussen-T/F 3176 13-03-2004 11:26:01 11.1 C 5.54 g/m*3 11.1 C 0 km/h
3177 13-03-2004 11:38:01 11.3 C 5.51 g/m*3 11.3 C 0 km/h
3178 13-03-2004 11:50:01 11.4 C 5.34 g/m*3 11.4 C 0 km/h
3179 13-03-2004 12:02:00 11.6 C 5.2 g/m*3 11.6 C 0 km/h
3180 13-03-2004 12:14:00 11.7 C 5.12 g/m*3 11.7 C 0 km/h
3181 13-03-2004 12:26:59 11.8 C 5.05 g/m*3 11.8 C 0 km/h
3182 13-03-2004 12:38:58 11.9 C 5.08 g/m*3 11.9 C 0 km/h
3183 13-03-2004 12:50:01 12.1 C 4.83 g/m*3 12.1 C 0 km/h
3184 13-03-2004 13:02:01 12.5 C 4.95 g/m*3 12.5 C 0 km/h
3185 13-03-2004 13:14:01 12.5 C 4.73 g/m*3 12.5 C 0 km/h
3186 13-03-2004 13:26:00 12.7 C 4.79 g/m*3 12.7 C 0 km/h
3187 13-03-2004 13:38:00 13 C 4.65 g/m*3 13 C 0 km/h
3188 13-03-2004 13:50:01 12.7 C 4.56 g/m*3 12.7 C 0 km/h
3189 13-03-2004 14:02:01 12.6 C 4.43 g/m*3 12.6 C 0 km/h
3190 13-03-2004 14:14:01 12.5 C 4.51 g/m*3 12.5 C 0 km/h
3191 13-03-2004 14:26:01 12.4 C 4.59 g/m*3 12.4 C 0 km/h
3192 13-03-2004 14:38:01 12.6 C 4.65 g/m*3 12.6 C 0 km/h
3193 13-03-2004 14:50:01 12.5 C 5.06 g/m*3 12.5 C 0 km/h
3194 13-03-2004 15:02:01 12.9 C 5.3 g/m*3 12.9 C 0 km/h
3195 13-03-2004 15:14:01 12.7 C 5.23 g/m*3 12.7 C 0 km/h
3196 13-03-2004 15:26:00 12.9 C 5.18 g/m*3 12.9 C 0 km/h
3197 13-03-2004 15:38:00 12.6 C 4.98 g/m*3 12.6 C 0 km/h
3198 13-03-2004 15:50:01 12.5 C 4.95 g/m*3 12.5 C 0 km/h
3199 13-03-2004 16:02:01 12.7 C 5.01 g/m*3 12.7 C 0 km/h
3200 13-03-2004 16:14:01 12.7 C 4.9 g/m*3 12.7 C 0 km/h
Sensor: Nr:Datum:Temp:Abs-Feuchte:Windchill:Wind:
Aussen-T/F 3201 13-03-2004 16:26:01 12.9 C 4.85 g/m*3 12.9 C 0 km/h
3202 13-03-2004 16:38:08 12.8 C 4.7 g/m*3 12.8 C 0 km/h
3203 13-03-2004 16:50:02 12.9 C 4.51 g/m*3 12.9 C 0 km/h
3204 13-03-2004 17:02:01 12.6 C 4.43 g/m*3 12.6 C 0 km/h
3205 13-03-2004 17:14:01 12.4 C 4.37 g/m*3 12.4 C 0 km/h
3206 13-03-2004 17:26:02 12.4 C 4.48 g/m*3 12.4 C 0 km/h
3207 13-03-2004 17:38:02 12.7 C 4.34 g/m*3 12.7 C 0 km/h
3208 13-03-2004 17:50:01 12.2 C 4.32 g/m*3 12.2 C 0 km/h
3209 13-03-2004 18:02:01 11.9 C 4.24 g/m*3 11.9 C 0 km/h
3210 13-03-2004 18:14:01 11.5 C 4.23 g/m*3 11.5 C 0 km/h
3211 13-03-2004 18:26:01 11.2 C 4.56 g/m*3 11.2 C 0 km/h
3212 13-03-2004 18:38:01 10.7 C 4.62 g/m*3 10.7 C 0 km/h
3213 13-03-2004 18:50:01 10.4 C 4.63 g/m*3 10.4 C 0 km/h
3214 13-03-2004 19:02:01 10.1 C 4.73 g/m*3 10.1 C 0 km/h
3215 13-03-2004 19:14:01 9.8 C 4.64 g/m*3 9.8 C 0 km/h
3216 13-03-2004 19:26:00 9.7 C 4.7 g/m*3 9.7 C 0 km/h
3217 13-03-2004 19:38:00 9.2 C 4.64 g/m*3 9.2 C 0 km/h
3218 13-03-2004 19:50:02 9.1 C 4.79 g/m*3 9.1 C 0 km/h
3219 13-03-2004 20:02:02 8.8 C 4.87 g/m*3 8.8 C 0 km/h
3220 13-03-2004 20:14:02 8.6 C 4.9 g/m*3 8.6 C 0 km/h
3221 13-03-2004 20:26:01 8.4 C 4.92 g/m*3 8.4 C 0 km/h
3222 13-03-2004 20:38:01 8.3 C 4.89 g/m*3 8.3 C 0 km/h
3223 13-03-2004 20:50:00 8.3 C 4.8 g/m*3 8.3 C 0 km/h
3224 13-03-2004 21:13:59 8.2 C 4.77 g/m*3 8.2 C 0 km/h
3225 13-03-2004 21:14:58 8 C 4.8 g/m*3 8 C 0 km/h
Sensor: Nr:Datum:Temp:Abs-Feuchte:Windchill:Wind:
Aussen-T/F 3226 13-03-2004 21:26:58 7.9 C 4.93 g/m*3 7.9 C 0 km/h
3227 13-03-2004 21:38:57 7.8 C 4.9 g/m*3 7.8 C 0 km/h
3228 13-03-2004 21:50:01 7.7 C 4.87 g/m*3 7.7 C 0 km/h
3229 13-03-2004 22:02:01 7.7 C 4.78 g/m*3 7.7 C 0 km/h
3230 13-03-2004 22:14:01 7.7 C 4.7 g/m*3 7.7 C 0 km/h
3231 13-03-2004 22:26:01 7.7 C 4.7 g/m*3 7.7 C 0 km/h
3232 13-03-2004 22:38:01 7.5 C 4.64 g/m*3 7.5 C 0 km/h
3233 13-03-2004 22:50:00 7.4 C 4.61 g/m*3 7.4 C 0 km/h
3234 13-03-2004 23:02:58 7.4 C 4.61 g/m*3 7.4 C 0 km/h
3235 13-03-2004 23:14:57 7.1 C 4.76 g/m*3 7.1 C 0 km/h
3236 13-03-2004 23:26:57 7.3 C 4.66 g/m*3 7.3 C 0 km/h
3237 13-03-2004 23:38:57 7.2 C 4.71 g/m*3 7.2 C 0 km/h
3238 13-03-2004 23:50:01 7.2 C 4.63 g/m*3 7.2 C 0 km/h
3239 14-03-2004 00:02:01 7.1 C 4.6 g/m*3 7.1 C 0 km/h
3240 14-03-2004 00:14:01 7.1 C 4.68 g/m*3 7.1 C 0 km/h
3241 14-03-2004 00:26:01 7.1 C 4.68 g/m*3 7.1 C 0 km/h
3242 14-03-2004 00:38:01 7 C 4.65 g/m*3 7 C 0 km/h
3243 14-03-2004 00:50:01 6.9 C 4.7 g/m*3 6.9 C 0 km/h
3244 14-03-2004 01:02:01 6.8 C 4.74 g/m*3 6.8 C 0 km/h
3245 14-03-2004 01:14:01 6.7 C 4.79 g/m*3 6.7 C 0 km/h
3246 14-03-2004 01:26:01 6.6 C 4.83 g/m*3 6.6 C 0 km/h